Provisional Data: Swatara Creek near Annville, PA


Please select a monitoring station.
Please select start date.
Please select start date.

Toggle Unit: C/F Toggle Unit: C/F
Sample Time Temperature (C) Temperature (F) Specific Conductivity (mS/cm) pH   Turbidity (NTU+) DO (mg/L)
3/11/2021 1:45:00 PM 8.22 46.796 0.165 7.83 2.89 11.7
3/11/2021 2:00:00 PM 8.31 46.958 0.164 7.53 3.2 11.73
3/11/2021 2:15:00 PM 8.42 47.156 0.164 7.37 2.87 11.73
3/11/2021 2:30:00 PM 8.5 47.3 0.164 7.33 3.21 11.77
3/11/2021 2:45:00 PM 8.58 47.444 0.164 7.32 3.83 11.8
3/11/2021 3:00:00 PM 8.65 47.57 0.164 7.31 2.58 11.79
3/11/2021 3:15:00 PM 8.73 47.714 0.163 7.31 3.12 11.8
3/11/2021 3:30:00 PM 8.79 47.822 0.163 7.32 3.05 11.81
3/11/2021 3:45:00 PM 8.81 47.858 0.163 7.35 2.65 11.8
3/11/2021 4:00:00 PM 8.85 47.93 0.163 7.36 4.46 11.82
3/11/2021 4:15:00 PM 8.89 48.002 0.163 7.37 3.03 11.83
3/11/2021 4:30:00 PM 8.89 48.002 0.163 7.37 3.44 11.84
3/11/2021 4:45:00 PM 8.9 48.02 0.163 7.38 3.08 11.82
3/11/2021 5:00:00 PM 8.95 48.11 0.163 7.38 3.11 11.8
3/11/2021 5:15:00 PM 8.94 48.092 0.163 7.4 3.28 11.77
3/11/2021 5:30:00 PM 8.97 48.146 0.163 7.39 4.41 11.78
3/11/2021 5:45:00 PM 8.99 48.182 0.163 7.39 2.67 11.74
3/11/2021 6:00:00 PM 8.99 48.182 0.163 7.39 3.75 11.71
3/11/2021 6:15:00 PM 8.99 48.182 0.162 7.4 3.49 11.7
3/11/2021 6:30:00 PM 8.99 48.182 0.162 7.39 4.53 11.67
3/11/2021 6:45:00 PM 9.02 48.236 0.162 7.39 3.2 11.66
3/11/2021 7:00:00 PM 9.02 48.236 0.162 7.4 3.14 11.63
3/11/2021 7:15:00 PM 9.07 48.326 0.162 7.41 3.49 11.61
3/11/2021 7:30:00 PM 9.05 48.29 0.162 7.4 3.09 11.57
3/11/2021 7:45:00 PM 9.06 48.308 0.162 7.4 3.6 11.55
3/11/2021 8:00:00 PM 9.07 48.326 0.162 7.39 3.27 11.52
3/11/2021 8:15:00 PM 9.09 48.362 0.162 7.41 3.46 11.48
3/11/2021 8:30:00 PM 9.11 48.398 0.162 7.4 3.04 11.45
3/11/2021 8:45:00 PM 9.08 48.344 0.162 7.4 3.12 11.41
3/11/2021 9:00:00 PM 9.12 48.416 0.162 7.4 3.34 11.38
3/11/2021 9:15:00 PM 9.1 48.38 0.162 7.4 3.26 11.37
3/11/2021 9:30:00 PM 9.09 48.362 0.162 7.39 3.32 11.33
3/11/2021 9:45:00 PM 9.09 48.362 0.162 7.38 3.46 11.29
3/11/2021 10:00:00 PM 9.1 48.38 0.162 7.37 3.47 11.26
3/11/2021 10:15:00 PM 9.09 48.362 0.162 7.37 2.91 11.23
3/11/2021 10:30:00 PM 9.08 48.344 0.162 7.36 3.81 11.18
3/11/2021 10:45:00 PM 9.08 48.344 0.162 7.36 3.46 11.16
3/11/2021 11:00:00 PM 9.07 48.326 0.162 7.35 4.12 11.1
3/11/2021 11:15:00 PM 9.08 48.344 0.162 7.35 4.01 11.05
3/11/2021 11:30:00 PM 9.07 48.326 0.162 7.35 3.92 11.03
3/11/2021 11:45:00 PM 9.06 48.308 0.162 7.34 4.37 10.98
3/12/2021 12:00:00 AM 9.05 48.29 0.162 7.34 3.56 10.95
3/12/2021 12:15:00 AM 9.02 48.236 0.162 7.32 3.81 10.92
3/12/2021 12:30:00 AM 9.01 48.218 0.162 7.32 11.82 10.9
3/12/2021 12:45:00 AM 9.01 48.218 0.162 7.31 3.35 10.85
3/12/2021 1:00:00 AM 9 48.2 0.162 7.31 3.91 10.82
3/12/2021 1:15:00 AM 8.99 48.182 0.162 7.31 3.6 10.79
3/12/2021 1:30:00 AM 8.97 48.146 0.162 7.3 3.66 10.77
3/12/2021 1:45:00 AM 8.98 48.164 0.162 7.3 3.94 10.71
3/12/2021 2:00:00 AM 8.95 48.11 0.162 7.29 3.28 10.72
3/12/2021 2:15:00 AM 8.93 48.074 0.162 7.29 6.13 10.68
3/12/2021 2:30:00 AM 8.89 48.002 0.161 7.28 3.67 10.67
3/12/2021 2:45:00 AM 8.86 47.948 0.161 7.28 3.76 10.65
3/12/2021 3:00:00 AM 8.84 47.912 0.161 7.28 2.75 10.61
3/12/2021 3:15:00 AM 8.81 47.858 0.161 7.28 3.36 10.6
3/12/2021 3:30:00 AM 8.8 47.84 0.161 7.27 3.34 10.55
3/12/2021 3:45:00 AM 8.77 47.786 0.161 7.27 3.64 10.55
3/12/2021 4:00:00 AM 8.75 47.75 0.161 7.25 3.52 10.52
3/12/2021 4:15:00 AM 8.71 47.678 0.161 7.26 5.39 10.5
3/12/2021 4:30:00 AM 8.69 47.642 0.161 7.25 3.61 10.47
3/12/2021 4:45:00 AM 8.67 47.606 0.161 7.24 2.98 10.47
3/12/2021 5:00:00 AM 8.67 47.606 0.161 7.24 3.73 10.43
3/12/2021 5:15:00 AM 8.64 47.552 0.161 7.22 3.42 10.41
3/12/2021 5:30:00 AM 8.63 47.534 0.16 7.23 11.2 10.41
3/12/2021 5:45:00 AM 8.62 47.516 0.161 7.23 5.13 10.39
3/12/2021 6:00:00 AM 8.61 47.498 0.16 7.22 3.81 10.37
3/12/2021 6:15:00 AM 8.59 47.462 0.16 7.22 4.04 10.35
3/12/2021 6:30:00 AM 8.58 47.444 0.16 7.22 3.49 10.34
3/12/2021 6:45:00 AM 8.57 47.426 0.16 7.21 3.97 10.33
3/12/2021 7:00:00 AM 8.56 47.408 0.16 7.2 4.07 10.33
3/12/2021 7:15:00 AM 8.54 47.372 0.159 7.21 4.1 10.34
3/12/2021 7:30:00 AM 8.55 47.39 0.16 7.21 5.25 10.31
3/12/2021 7:45:00 AM 8.53 47.354 0.159 7.21 3.72 10.33
3/12/2021 8:00:00 AM 8.52 47.336 0.159 7.2 4.68 10.32
3/12/2021 8:15:00 AM 8.52 47.336 0.159 7.19 3.4 10.33
3/12/2021 8:30:00 AM 8.52 47.336 0.159 7.2 3.07 10.35
3/12/2021 8:45:00 AM 8.53 47.354 0.158 7.2 3.72 10.37
3/12/2021 9:00:00 AM 8.57 47.426 0.158 7.2 4.18 10.4
3/12/2021 9:15:00 AM 8.6 47.48 0.158 7.21 3.51 10.43
3/12/2021 9:30:00 AM 8.63 47.534 0.158 7.21 4.63 10.45
3/12/2021 9:45:00 AM 8.68 47.624 0.158 7.22 4.01 10.46
3/12/2021 10:00:00 AM 8.75 47.75 0.157 7.22 3.52 10.51
3/12/2021 10:15:00 AM 8.83 47.894 0.157 7.23 4.29 10.54
3/12/2021 10:30:00 AM 8.93 48.074 0.157 7.23 3.84 10.57
3/12/2021 10:45:00 AM 9.01 48.218 0.157 7.24 3.93 10.6
3/12/2021 11:00:00 AM 9.1 48.38 0.157 7.24 4.3 10.64
3/12/2021 11:15:00 AM 9.2 48.56 0.156 7.25 3.95 10.68
3/12/2021 11:30:00 AM 9.31 48.758 0.156 7.26 4.45 10.72
3/12/2021 11:45:00 AM 9.45 49.01 0.155 7.26 3.38 10.76
3/12/2021 12:00:00 PM 9.58 49.244 0.155 7.26 3.68 10.79
3/12/2021 12:15:00 PM 9.72 49.496 0.154 7.29 3.7 10.84
3/12/2021 12:30:00 PM 9.86 49.748 0.154 7.29 4.07 10.88
3/12/2021 12:45:00 PM 9.97 49.946 0.154 7.31 3.7 10.9
3/12/2021 1:00:00 PM 10.1 50.18 0.154 7.31 3.44 10.95
3/12/2021 1:15:00 PM 10.18 50.324 0.153 7.33 4.36 10.96
3/12/2021 1:30:00 PM 10.28 50.504 0.154 7.34 3.95 11.01
3/12/2021 1:45:00 PM 10.35 50.63 0.153 7.36 4.05 11.05
3/12/2021 2:00:00 PM 10.42 50.756 0.153 7.37 3.65 11.08
3/12/2021 2:15:00 PM 10.49 50.882 0.153 7.38 3.92 11.11
3/12/2021 2:30:00 PM 10.54 50.972 0.152 7.39 3.95 11.13
3/12/2021 2:45:00 PM 10.57 51.026 0.152 7.4 4.19 11.15
3/12/2021 3:00:00 PM 10.6 51.08 0.152 7.41 4.85 11.19
3/12/2021 3:15:00 PM 10.62 51.116 0.151 7.42 3.99 11.21
3/12/2021 3:30:00 PM 10.66 51.188 0.151 7.43 5.79 11.24
3/12/2021 3:45:00 PM 10.65 51.17 0.151 7.43 3.51 11.25
3/12/2021 4:00:00 PM 10.65 51.17 0.151 7.44 3.99 11.26
3/12/2021 4:15:00 PM 10.65 51.17 0.151 7.46 3.92 11.27
3/12/2021 4:30:00 PM 10.63 51.134 0.151 7.47 4.48 11.28
3/12/2021 4:45:00 PM 10.62 51.116 0.151 7.48 3.25 11.25
3/12/2021 5:00:00 PM 10.6 51.08 0.151 7.47 6.69 11.28
3/12/2021 5:15:00 PM 10.56 51.008 0.15 7.48 3.49 11.26
3/12/2021 5:30:00 PM 10.55 50.99 0.15 7.48 6.48 11.25
3/12/2021 5:45:00 PM 10.53 50.954 0.15 7.48 5.36 11.24
3/12/2021 6:00:00 PM 10.51 50.918 0.15 7.48 4.61 11.23
3/12/2021 6:15:00 PM 10.52 50.936 0.15 7.49 3.98 11.2
3/12/2021 6:30:00 PM 10.51 50.918 0.15 7.49 4.81 11.19
3/12/2021 6:45:00 PM 10.49 50.882 0.15 7.49 4.47 11.17
3/12/2021 7:00:00 PM 10.46 50.828 0.149 7.49 3.88 11.15
3/12/2021 7:15:00 PM 10.45 50.81 0.149 7.49 3.35 11.13
3/12/2021 7:30:00 PM 10.43 50.774 0.149 7.49 5.4 11.12
3/12/2021 7:45:00 PM 10.4 50.72 0.149 7.49 4.67 11.09
3/12/2021 8:00:00 PM 10.39 50.702 0.149 7.48 4.71 11.06
3/12/2021 8:15:00 PM 10.35 50.63 0.149 7.48 4.87 11.04
3/12/2021 8:30:00 PM 10.3 50.54 0.148 7.48 4.35 11.03
3/12/2021 8:45:00 PM 10.27 50.486 0.148 7.47 4.39 11.01
3/12/2021 9:00:00 PM 10.25 50.45 0.148 7.46 9.03 10.98
3/12/2021 9:15:00 PM 10.2 50.36 0.142 7.45 6.04 10.95
3/12/2021 9:30:00 PM 10.15 50.27 0.144 7.45 5.61 10.92
3/12/2021 9:45:00 PM 10.07 50.126 0.142 7.45 5.46 10.89
3/12/2021 10:00:00 PM 10.04 50.072 0.14 7.43 8.19 10.86
3/12/2021 10:15:00 PM 10 50 0.146 7.43 6.61 10.84
3/12/2021 10:30:00 PM 9.96 49.928 0.141 7.42 5.64 10.78
3/12/2021 10:45:00 PM 9.92 49.856 0.144 7.42 6.31 10.73
3/12/2021 11:00:00 PM 9.86 49.748 0.144 7.41 5.34 10.71
3/12/2021 11:15:00 PM 9.82 49.676 0.147 7.4 5.06 10.68
3/12/2021 11:30:00 PM 9.76 49.568 0.143 7.39 5.36 10.67
3/12/2021 11:45:00 PM 9.72 49.496 0.142 7.38 4.84 10.64
3/13/2021 12:00:00 AM 9.67 49.406 0.142 7.37 5.47 10.62
3/13/2021 12:15:00 AM 9.62 49.316 0.142 7.37 5.4 10.59
3/13/2021 12:30:00 AM 9.57 49.226 0.145 7.36 5.56 10.54
3/13/2021 12:45:00 AM 9.51 49.118 0.142 7.37 6.33 10.53
3/13/2021 1:00:00 AM 9.45 49.01 0.142 7.36 6.6 10.5
3/13/2021 1:15:00 AM 9.4 48.92 0.143 7.34 5.49 10.48
3/13/2021 1:30:00 AM 9.34 48.812 0.141 7.34 4.68 10.45
3/13/2021 1:45:00 AM 9.27 48.686 0.141 7.32 5.41 10.45
3/13/2021 2:00:00 AM 9.21 48.578 0.14 7.33 5.4 10.43
3/13/2021 2:15:00 AM 9.14 48.452 0.143 7.32 5.62 10.41
3/13/2021 2:30:00 AM 9.08 48.344 0.141 7.31 4.86 10.39
3/13/2021 2:45:00 AM 9.01 48.218 0.141 7.3 5.19 10.38
3/13/2021 3:00:00 AM 8.94 48.092 0.144 7.28 7.28 10.36
3/13/2021 3:15:00 AM 8.86 47.948 0.142 7.27 5.8 10.35
3/13/2021 3:30:00 AM 8.78 47.804 0.141 7.27 5.85 10.34
3/13/2021 3:45:00 AM 8.72 47.696 0.139 7.27 5.53 10.34
3/13/2021 4:00:00 AM 8.65 47.57 0.14 7.27 5.12 10.31
3/13/2021 4:15:00 AM 8.58 47.444 0.14 7.26 5.69 10.31
3/13/2021 4:30:00 AM 8.53 47.354 0.141 7.26 5.54 10.3
3/13/2021 4:45:00 AM 8.47 47.246 0.141 7.25 9.35 10.29
3/13/2021 5:00:00 AM 8.41 47.138 0.14 7.25 5.22 10.29
3/13/2021 5:15:00 AM 8.36 47.048 0.141 7.25 4.98 10.29
3/13/2021 5:30:00 AM 8.3 46.94 0.141 7.24 4.84 10.27
3/13/2021 5:45:00 AM 8.24 46.832 0.142 7.24 6.15 10.28
3/13/2021 6:00:00 AM 8.18 46.724 0.139 7.23 5.51 10.27
3/13/2021 6:15:00 AM 8.11 46.598 0.138 7.24 5.18 10.29
3/13/2021 6:30:00 AM 8.06 46.508 0.139 7.22 5.71 10.28
3/13/2021 6:45:00 AM 8 46.4 0.141 7.22 7.03 10.29
3/13/2021 7:00:00 AM 7.95 46.31 0.139 7.21 4.89 10.29
3/13/2021 7:15:00 AM 7.9 46.22 0.14 7.21 5.61 10.31
3/13/2021 7:30:00 AM 7.84 46.112 0.14 7.22 5.67 10.31
3/13/2021 7:45:00 AM 7.79 46.022 0.138 7.2 5.24 10.33
3/13/2021 8:00:00 AM 7.74 45.932 0.139 7.2 4.7 10.36
3/13/2021 8:15:00 AM 7.7 45.86 0.14 7.19 4.86 10.39
3/13/2021 8:30:00 AM 7.66 45.788 0.139 7.2 5.43 10.42
3/13/2021 8:45:00 AM 7.62 45.716 0.141 7.2 5.9 10.46
3/13/2021 9:00:00 AM 7.62 45.716 0.14 7.21 5.59 10.49
3/13/2021 9:15:00 AM 7.62 45.716 0.14 7.21 5.3 10.53
3/13/2021 9:30:00 AM 7.63 45.734 0.139 7.21 4.74 10.57
3/13/2021 9:45:00 AM 7.66 45.788 0.138 7.21 4.77 10.62
3/13/2021 10:00:00 AM 7.68 45.824 0.139 7.22 3.46 10.67
3/13/2021 10:15:00 AM 7.75 45.95 0.139 7.22 5.13 10.71
3/13/2021 10:30:00 AM 7.81 46.058 0.139 7.22 3.64 10.75
3/13/2021 10:45:00 AM 7.88 46.184 0.139 7.23 4.63 10.81
3/13/2021 11:00:00 AM 7.94 46.292 0.14 7.23 4.31 10.85
3/13/2021 11:15:00 AM 8.03 46.454 0.14 7.24 4.53 10.9
3/13/2021 11:30:00 AM 8.12 46.616 0.14 7.24 4.51 10.95
3/13/2021 11:45:00 AM 8.22 46.796 0.14 7.25 4.32 11
3/13/2021 12:00:00 PM 8.32 46.976 0.14 7.26 4.08 11.03
3/13/2021 12:15:00 PM 8.42 47.156 0.139 7.27 3.87 11.08
3/13/2021 12:30:00 PM 8.51 47.318 0.139 7.28 3.73 11.13
3/13/2021 12:45:00 PM 8.61 47.498 0.139 7.28 3.59 11.18
3/13/2021 1:00:00 PM 8.68 47.624 0.139 7.3 3.59 11.22
3/13/2021 1:15:00 PM 8.74 47.732 0.14 7.3 3.29 11.25
3/13/2021 1:30:00 PM 8.8 47.84 0.139 7.32 3.76 11.3
3/13/2021 1:45:00 PM 8.87 47.966 0.139 7.33 3.88 11.36
3/13/2021 2:00:00 PM 8.89 48.002 0.138 7.34 3.19 11.4
3/13/2021 2:15:00 PM 8.93 48.074 0.138 7.35 3.43 11.44
3/13/2021 2:30:00 PM 8.95 48.11 0.139 7.37 8.02 11.48
3/13/2021 2:45:00 PM 8.97 48.146 0.139 7.38 3.35 11.54
3/13/2021 3:00:00 PM 8.97 48.146 0.139 7.39 3.52 11.59
3/13/2021 3:15:00 PM 8.97 48.146 0.139 7.41 3.25 11.59
3/13/2021 3:30:00 PM 8.96 48.128 0.139 7.41 3.93 11.65
3/13/2021 3:45:00 PM 8.95 48.11 0.139 7.42 2.36 11.65
3/13/2021 4:00:00 PM 8.93 48.074 0.139 7.43 2.36 11.66
3/13/2021 4:15:00 PM 8.89 48.002 0.139 7.44 2.77 11.69
3/13/2021 4:30:00 PM 8.85 47.93 0.139 7.44 3.23 11.71
3/13/2021 4:45:00 PM 8.81 47.858 0.138 7.45 3.4 11.73
3/13/2021 5:00:00 PM 8.77 47.786 0.139 7.45 2.79 11.72
3/13/2021 5:15:00 PM 8.73 47.714 0.138 7.45 2.32 11.74
3/13/2021 5:30:00 PM 8.69 47.642 0.139 7.47 2.35 11.74
3/13/2021 5:45:00 PM 8.66 47.588 0.142 7.46 2.11 11.73
3/13/2021 6:00:00 PM 8.64 47.552 0.143 7.46 2.97 11.71
3/13/2021 6:15:00 PM 8.6 47.48 0.139 7.46 1.95 11.71
3/13/2021 6:30:00 PM 8.57 47.426 0.14 7.46 3.61 11.7
3/13/2021 6:45:00 PM 8.52 47.336 0.138 7.45 3.54 11.69
3/13/2021 7:00:00 PM 8.49 47.282 0.137 7.45 2.77 11.7
3/13/2021 7:15:00 PM 8.47 47.246 0.138 7.45 3.87 11.68
3/13/2021 7:30:00 PM 8.42 47.156 0.139 7.45 3.36 11.65
3/13/2021 7:45:00 PM 8.41 47.138 0.139 7.44 4.63 11.64
3/13/2021 8:00:00 PM 8.36 47.048 0.139 7.45 3.58 11.62
3/13/2021 8:15:00 PM 8.32 46.976 0.139 7.44 3.14 11.61
3/13/2021 8:30:00 PM 8.29 46.922 0.139 7.44 3.79 11.58
3/13/2021 8:45:00 PM 8.25 46.85 0.139 7.43 3.89 11.56
3/13/2021 9:00:00 PM 8.21 46.778 0.139 7.41 2.05 11.55
3/13/2021 9:15:00 PM 8.17 46.706 0.142 7.41 3.96 11.52
3/13/2021 9:30:00 PM 8.14 46.652 0.138 7.41 3.72 11.51
3/13/2021 9:45:00 PM 8.09 46.562 0.139 7.41 3.64 11.48
3/13/2021 10:00:00 PM 8.06 46.508 0.14 7.4 3.64 11.42
3/13/2021 10:15:00 PM 8.02 46.436 0.139 7.39 5.25 11.41
3/13/2021 10:30:00 PM 7.99 46.382 0.14 7.38 4.01 11.38
3/13/2021 10:45:00 PM 7.95 46.31 0.139 7.38 3.91 11.35
3/13/2021 11:00:00 PM 7.91 46.238 0.139 7.37 3.31 11.32
3/13/2021 11:15:00 PM 7.88 46.184 0.139 7.36 3.43 11.28
3/13/2021 11:30:00 PM 7.84 46.112 0.139 7.36 3.55 11.25
3/13/2021 11:45:00 PM 7.79 46.022 0.14 7.35 3.82 11.23
3/14/2021 12:00:00 AM 7.76 45.968 0.141 7.35 5.53 11.19
3/14/2021 12:15:00 AM 7.7 45.86 0.138 7.34 4.41 11.17
3/14/2021 12:30:00 AM 7.65 45.77 0.142 7.33 3.62 11.14
3/14/2021 12:45:00 AM 7.6 45.68 0.14 7.33 3.34 11.11
3/14/2021 1:00:00 AM 7.55 45.59 0.138 7.32 3.73 11.09
3/14/2021 1:15:00 AM 7.49 45.482 0.141 7.32 3.13 11.08
3/14/2021 1:30:00 AM 7.44 45.392 0.136 7.31 3.01 11.04
3/14/2021 1:45:00 AM 7.38 45.284 0.14 7.31 3.99 11.04
3/14/2021 3:00:00 AM 7.09 44.762 0.137 7.29 3.34 10.98
3/14/2021 3:15:00 AM 7.03 44.654 0.141 7.27 3.68 10.98
3/14/2021 3:30:00 AM 6.97 44.546 0.138 7.27 3.98 10.95
3/14/2021 3:45:00 AM 6.92 44.456 0.141 7.26 3.69 10.95
3/14/2021 4:00:00 AM 6.86 44.348 0.141 7.26 3.56 10.96
3/14/2021 4:15:00 AM 6.8 44.24 0.141 7.25 4.01 10.95
3/14/2021 4:30:00 AM 6.74 44.132 0.141 7.25 2.82 10.94
3/14/2021 4:45:00 AM 6.69 44.042 0.141 7.25 3.38 10.92
3/14/2021 5:00:00 AM 6.64 43.952 0.141 7.24 3.14 10.93
3/14/2021 5:15:00 AM 6.58 43.844 0.142 7.24 3.75 10.91
3/14/2021 5:30:00 AM 6.53 43.754 0.142 7.24 4.83 10.92
3/14/2021 5:45:00 AM 6.49 43.682 0.142 7.24 3.16 10.9
3/14/2021 6:00:00 AM 6.44 43.592 0.141 7.23 3.16 10.91
3/14/2021 6:15:00 AM 6.39 43.502 0.133 7.22 3.28 10.91
3/14/2021 6:30:00 AM 6.35 43.43 0.144 7.23 4.28 10.91
3/14/2021 6:45:00 AM 6.31 43.358 0.137 7.22 3.71 10.92
3/14/2021 7:00:00 AM 6.27 43.286 0.14 7.22 3.67 10.92
3/14/2021 7:15:00 AM 6.23 43.214 0.14 7.21 2.88 10.93
3/14/2021 7:30:00 AM 6.2 43.16 0.14 7.21 3.29 10.92
3/14/2021 7:45:00 AM 6.17 43.106 0.141 7.21 3.77 10.96
3/14/2021 8:00:00 AM 6.15 43.07 0.14 7.21 3.15 10.98
3/14/2021 8:15:00 AM 6.12 43.016 0.143 7.21 3.26 10.99
3/14/2021 8:30:00 AM 6.13 43.034 0.142 7.21 3.3 11.03
3/14/2021 8:45:00 AM 6.13 43.034 0.14 7.21 3.29 11.04
3/14/2021 9:00:00 AM 6.15 43.07 0.143 7.22 2.94 11.11
3/14/2021 9:15:00 AM 6.17 43.106 0.142 7.21 2.94 11.12
3/14/2021 9:30:00 AM 6.19 43.142 0.143 7.22 3.39 11.17
3/14/2021 9:45:00 AM 6.26 43.268 0.142 7.22 3.31 11.22
3/14/2021 10:00:00 AM 6.32 43.376 0.142 7.22 2.88 11.27
3/14/2021 10:15:00 AM 6.35 43.43 0.142 7.22 3.6 11.31
3/14/2021 10:30:00 AM 6.44 43.592 0.142 7.23 3.73 11.35
3/14/2021 10:45:00 AM 6.53 43.754 0.142 7.24 2.97 11.4
3/14/2021 11:00:00 AM 6.61 43.898 0.141 7.24 2.58 11.44
3/14/2021 11:15:00 AM 6.71 44.078 0.142 7.25 3.76 11.48
3/14/2021 11:30:00 AM 6.82 44.276 0.141 7.25 2.7 11.52
3/14/2021 11:45:00 AM 6.95 44.51 0.141 7.26 2.68 11.56
3/14/2021 12:00:00 PM 7.05 44.69 0.14 7.27 2.69 11.58
3/14/2021 12:15:00 PM 7.17 44.906 0.139 7.28 4.48 11.62
3/14/2021 12:30:00 PM 7.31 45.158 0.143 7.29 4.24 11.66
3/14/2021 12:45:00 PM 7.42 45.356 0.138 7.3 3.09 11.7
3/14/2021 1:00:00 PM 7.55 45.59 0.139 7.31 2.8 11.73
3/14/2021 1:15:00 PM 7.67 45.806 0.142 7.31 3.12 11.74
3/14/2021 1:30:00 PM 7.75 45.95 0.142 7.32 2.91 11.8
3/14/2021 1:45:00 PM 7.86 46.148 0.143 7.33 2.8 11.82
3/14/2021 2:00:00 PM 7.91 46.238 0.142 7.34 4.86 11.85
3/14/2021 2:15:00 PM 7.97 46.346 0.142 7.35 3.29 11.89
3/14/2021 2:30:00 PM 8.01 46.418 0.142 7.36 3 11.92
3/14/2021 2:45:00 PM 8.07 46.526 0.142 7.37 2.84 11.93
3/14/2021 3:00:00 PM 8.07 46.526 0.142 7.39 2.8 11.96
3/14/2021 3:15:00 PM 8.11 46.598 0.142 7.39 2.7 11.98
3/14/2021 3:30:00 PM 8.12 46.616 0.142 7.4 2.7 11.97
3/14/2021 3:45:00 PM 8.13 46.634 0.14 7.41 3.22 12
3/14/2021 4:00:00 PM 8.13 46.634 0.137 7.42 2.55 12.01
3/14/2021 4:15:00 PM 8.13 46.634 0.141 7.43 2.82 12.02
3/14/2021 4:30:00 PM 8.13 46.634 0.142 7.43 3.22 12.02
3/14/2021 4:45:00 PM 8.12 46.616 0.142 7.43 3.29 12.03
3/14/2021 5:00:00 PM 8.11 46.598 0.145 7.44 2.13 12
3/14/2021 5:15:00 PM 8.08 46.544 0.146 7.45 2.94 12
3/14/2021 5:30:00 PM 8.06 46.508 0.146 7.45 2.31 11.99
3/14/2021 5:45:00 PM 8.04 46.472 0.145 7.45 2.48 11.97
3/14/2021 6:00:00 PM 8.04 46.472 0.146 7.46 1.97 11.95
3/14/2021 6:15:00 PM 8.01 46.418 0.144 7.46 2.36 11.92
3/14/2021 6:30:00 PM 7.99 46.382 0.144 7.46 4.36 11.89
3/14/2021 6:45:00 PM 7.97 46.346 0.145 7.46 2.87 11.87
3/14/2021 7:00:00 PM 7.92 46.256 0.144 7.45 3.21 11.84
3/14/2021 7:15:00 PM 7.9 46.22 0.145 7.45 2.05 11.81
3/14/2021 7:30:00 PM 7.87 46.166 0.144 7.45 2.46 11.79
3/14/2021 7:45:00 PM 7.82 46.076 0.144 7.45 2.21 11.77
3/14/2021 8:00:00 PM 7.76 45.968 0.143 7.45 3.1 11.74
3/14/2021 8:15:00 PM 7.75 45.95 0.145 7.44 3.04 11.73
3/14/2021 8:30:00 PM 7.71 45.878 0.144 7.44 2.2 11.69
3/14/2021 8:45:00 PM 7.67 45.806 0.138 7.43 2.56 11.67
3/14/2021 9:00:00 PM 7.63 45.734 0.146 7.43 2.18 11.64
3/14/2021 9:15:00 PM 7.58 45.644 0.143 7.42 2.04 11.61
3/14/2021 9:30:00 PM 7.54 45.572 0.148 7.42 3.07 11.6
3/14/2021 9:45:00 PM 7.46 45.428 0.143 7.41 2.52 11.58
3/14/2021 10:00:00 PM 7.41 45.338 0.142 7.4 2.86 11.53
3/14/2021 10:15:00 PM 7.35 45.23 0.146 7.4 2.55 11.52
3/14/2021 10:30:00 PM 7.29 45.122 0.142 7.4 2.99 11.49
3/14/2021 10:45:00 PM 7.26 45.068 0.145 7.39 2.42 11.44
3/14/2021 11:00:00 PM 7.21 44.978 0.143 7.38 3.67 11.43
3/14/2021 11:15:00 PM 7.18 44.924 0.144 7.37 2.3 11.4
3/14/2021 11:30:00 PM 7.12 44.816 0.143 7.37 3.09 11.37
3/14/2021 11:45:00 PM 7.07 44.726 0.143 7.37 2.34 11.33
3/15/2021 12:00:00 AM 7 44.6 0.142 7.36 2.17 11.32
3/15/2021 12:15:00 AM 6.94 44.492 0.145 7.35 2.57 11.27
3/15/2021 12:30:00 AM 6.88 44.384 0.145 7.35 2.79 11.28
3/15/2021 12:45:00 AM 6.82 44.276 0.14 7.34 2.56 11.24
3/15/2021 1:00:00 AM 6.77 44.186 0.145 7.33 2.35 11.23
3/15/2021 1:15:00 AM 6.72 44.096 0.146 7.31 2.65 11.2
3/15/2021 1:30:00 AM 6.67 44.006 0.142 7.32 2.3 11.18
3/15/2021 1:45:00 AM 6.63 43.934 0.147 7.31 2.97 11.19
3/15/2021 2:00:00 AM 6.57 43.826 0.145 7.3 2.6 11.16
3/15/2021 2:15:00 AM 6.5 43.7 0.146 7.3 2.32 11.14
3/15/2021 2:30:00 AM 6.42 43.556 0.143 7.29 2.6 11.12
3/15/2021 2:45:00 AM 6.34 43.412 0.141 7.29 2.25 11.12
3/15/2021 3:00:00 AM 6.28 43.304 0.145 7.28 2.78 11.11
3/15/2021 3:15:00 AM 6.21 43.178 0.145 7.28 2.05 11.11
3/15/2021 3:30:00 AM 6.15 43.07 0.145 7.27 2.68 11.11
3/15/2021 3:45:00 AM 6.08 42.944 0.145 7.27 2.54 11.09
3/15/2021 4:00:00 AM 6.01 42.818 0.146 7.26 2.59 11.11
3/15/2021 4:15:00 AM 5.94 42.692 0.143 7.25 3.97 11.09
3/15/2021 4:30:00 AM 5.85 42.53 0.144 7.25 2.21 11.12
3/15/2021 4:45:00 AM 5.78 42.404 0.146 7.25 2.78 11.09
3/15/2021 5:00:00 AM 5.71 42.278 0.146 7.24 4.15 11.1
3/15/2021 5:15:00 AM 5.63 42.134 0.147 7.24 3.33 11.11
3/15/2021 5:30:00 AM 5.58 42.044 0.144 7.23 2.59 11.1
3/15/2021 5:45:00 AM 5.52 41.936 0.147 7.23 2.24 11.12
3/15/2021 6:00:00 AM 5.46 41.828 0.142 7.22 2.76 11.12
3/15/2021 6:15:00 AM 5.39 41.702 0.145 7.23 2.25 11.13
3/15/2021 6:30:00 AM 5.33 41.594 0.146 7.22 2.63 11.12
3/15/2021 6:45:00 AM 5.26 41.468 0.146 7.22 2.99 11.14
3/15/2021 7:00:00 AM 5.19 41.342 0.147 7.21 2.94 11.16
3/15/2021 7:15:00 AM 5.16 41.288 0.147 7.21 3.98 11.17
3/15/2021 7:30:00 AM 5.1 41.18 0.146 7.21 2.69 11.18
3/15/2021 7:45:00 AM 5.03 41.054 0.146 7.21 2.34 11.21
3/15/2021 8:00:00 AM 5.01 41.018 0.149 7.21 2.32 11.23
3/15/2021 8:15:00 AM 4.95 40.91 0.149 7.2 2.74 11.27
3/15/2021 8:30:00 AM 4.91 40.838 0.148 7.2 2.68 11.31
3/15/2021 8:45:00 AM 4.9 40.82 0.147 7.2 2.58 11.35
3/15/2021 9:00:00 AM 4.93 40.874 0.146 7.19 3.03 11.4
3/15/2021 9:15:00 AM 4.92 40.856 0.147 7.2 2.53 11.44
3/15/2021 9:30:00 AM 4.93 40.874 0.146 7.2 3.09 11.49
3/15/2021 9:45:00 AM 4.95 40.91 0.147 7.2 2.77 11.54
3/15/2021 10:00:00 AM 5.01 41.018 0.147 7.21 2.75 11.58
3/15/2021 10:15:00 AM 5.05 41.09 0.147 7.21 2.84 11.64
3/15/2021 10:30:00 AM 5.13 41.234 0.147 7.22 3.47 11.68
3/15/2021 10:45:00 AM 5.22 41.396 0.148 7.22 3.46 11.73
3/15/2021 11:00:00 AM 5.32 41.576 0.145 7.22 2.83 11.79
3/15/2021 11:15:00 AM 5.45 41.81 0.146 7.23 2.85 11.83
3/15/2021 11:30:00 AM 5.54 41.972 0.145 7.24 2.6 11.87
3/15/2021 11:45:00 AM 5.64 42.152 0.146 7.24 2.29 11.93
3/15/2021 12:00:00 PM 5.77 42.386 0.143 7.25 2.66 11.98
3/15/2021 12:15:00 PM 5.9 42.62 0.146 7.26 2.7 12.03
3/15/2021 12:30:00 PM 5.99 42.782 0.145 7.27 2.18 12.08
3/15/2021 12:45:00 PM 6.11 42.998 0.141 7.28 2.46 12.13
3/15/2021 1:00:00 PM 6.2 43.16 0.151 7.29 2.35 12.16
3/15/2021 2:15:00 PM 6.29 43.322 0.15 7.3 2.69 12.22
3/15/2021 2:30:00 PM 6.37 43.466 0.139 7.31 2.41 12.23
3/15/2021 2:45:00 PM 6.42 43.556 0.144 7.33 2.07 12.28
3/15/2021 3:00:00 PM 6.46 43.628 0.142 7.33 3.83 12.33
3/15/2021 3:15:00 PM 6.47 43.646 0.143 7.34 2.44 12.32
3/15/2021 3:30:00 PM 6.52 43.736 0.144 7.35 2.19 12.39
3/15/2021 3:45:00 PM 6.54 43.772 0.144 7.35 1.84 12.42
3/15/2021 4:00:00 PM 6.57 43.826 0.145 7.37 2.28 12.43
3/15/2021 4:15:00 PM 6.58 43.844 0.145 7.37 2.39 12.47
3/15/2021 4:30:00 PM 6.6 43.88 0.148 7.39 2.69 12.49
3/15/2021 4:45:00 PM 6.59 43.862 0.15 7.38 2.04 12.51
3/15/2021 5:00:00 PM 6.59 43.862 0.148 7.39 2.79 12.52
3/15/2021 5:15:00 PM 6.57 43.826 0.144 7.4 1.93 12.56
3/15/2021 5:30:00 PM 6.55 43.79 0.146 7.41 2.23 12.55
3/15/2021 5:45:00 PM 6.53 43.754 0.143 7.41 2.45 12.57
3/15/2021 6:00:00 PM 6.5 43.7 0.149 7.41 2.18 12.58
3/15/2021 6:15:00 PM 6.47 43.646 0.147 7.42 1.99 12.56
3/15/2021 6:30:00 PM 6.44 43.592 0.146 7.43 2.28 12.56
3/15/2021 6:45:00 PM 6.41 43.538 0.147 7.43 2.38 12.55
3/15/2021 7:00:00 PM 6.38 43.484 0.147 7.43 2.42 12.52
3/15/2021 7:15:00 PM 6.38 43.484 0.148 7.43 1.86 12.5
3/15/2021 7:30:00 PM 6.34 43.412 0.149 7.44 2.08 12.48
3/15/2021 7:45:00 PM 6.34 43.412 0.145 7.43 2.24 12.48
3/15/2021 8:00:00 PM 6.31 43.358 0.148 7.43 2.69 12.45
3/15/2021 8:15:00 PM 6.28 43.304 0.148 7.43 2.31 12.42
3/15/2021 8:30:00 PM 6.27 43.286 0.148 7.42 2.55 12.39
3/15/2021 8:45:00 PM 6.24 43.232 0.148 7.42 2.34 12.38
3/15/2021 9:00:00 PM 6.22 43.196 0.147 7.42 2.87 12.33
3/15/2021 9:15:00 PM 6.2 43.16 0.147 7.41 2.42 12.33
3/15/2021 9:30:00 PM 6.17 43.106 0.146 7.42 2.75 12.31
3/15/2021 9:45:00 PM 6.15 43.07 0.147 7.41 2.76 12.29
3/15/2021 10:00:00 PM 6.12 43.016 0.146 7.42 2.39 12.25
3/15/2021 10:15:00 PM 6.1 42.98 0.148 7.4 2.76 12.23
3/15/2021 10:30:00 PM 6.07 42.926 0.148 7.41 2.47 12.2
3/15/2021 10:45:00 PM 6.05 42.89 0.148 7.4 3.32 12.18
3/15/2021 11:00:00 PM 6.02 42.836 0.147 7.39 3.76 12.14
3/15/2021 11:15:00 PM 5.99 42.782 0.147 7.38 3.07 12.11
3/15/2021 11:30:00 PM 5.97 42.746 0.149 7.37 2.53 12.1
3/15/2021 11:45:00 PM 5.94 42.692 0.144 7.37 2.11 12.08
3/16/2021 12:00:00 AM 5.92 42.656 0.149 7.36 3.03 12.02
3/16/2021 12:15:00 AM 5.89 42.602 0.15 7.35 3.65 12.01
3/16/2021 12:30:00 AM 5.87 42.566 0.149 7.35 2.89 11.97
3/16/2021 12:45:00 AM 5.85 42.53 0.148 7.35 2.15 11.94
3/16/2021 1:00:00 AM 5.83 42.494 0.148 7.34 2.18 11.93
3/16/2021 1:15:00 AM 5.8 42.44 0.147 7.33 2.68 11.91
3/16/2021 1:30:00 AM 5.77 42.386 0.149 7.32 2.41 11.87
3/16/2021 1:45:00 AM 5.75 42.35 0.147 7.32 2.73 11.85
3/16/2021 2:00:00 AM 5.72 42.296 0.15 7.31 3.18 11.81
3/16/2021 2:15:00 AM 5.7 42.26 0.148 7.31 2.09 11.8
3/16/2021 2:30:00 AM 5.67 42.206 0.147 7.3 2.44 11.78
3/16/2021 2:45:00 AM 5.63 42.134 0.149 7.3 4.17 11.76
3/16/2021 3:00:00 AM 5.61 42.098 0.147 7.3 3.21 11.73
3/16/2021 3:15:00 AM 5.58 42.044 0.148 7.28 2.01 11.71
3/16/2021 3:30:00 AM 5.55 41.99 0.148 7.28 2.43 11.7
3/16/2021 3:45:00 AM 5.52 41.936 0.147 7.28 2.16 11.68
3/16/2021 4:00:00 AM 5.47 41.846 0.149 7.27 2.44 11.66
3/16/2021 4:15:00 AM 5.44 41.792 0.15 7.27 2.68 11.62
3/16/2021 4:30:00 AM 5.4 41.72 0.15 7.26 3.42 11.63
3/16/2021 4:45:00 AM 5.37 41.666 0.15 7.25 2.52 11.61
3/16/2021 5:00:00 AM 5.31 41.558 0.151 7.25 2.86 11.58
3/16/2021 5:15:00 AM 5.28 41.504 0.153 7.25 2.44 11.59
3/16/2021 5:30:00 AM 5.24 41.432 0.148 7.25 2.44 11.58
3/16/2021 5:45:00 AM 5.18 41.324 0.152 7.24 4.97 11.55
3/16/2021 6:00:00 AM 5.15 41.27 0.15 7.23 2.86 11.54
3/16/2021 6:15:00 AM 5.11 41.198 0.153 7.23 2.48 11.56
3/16/2021 6:30:00 AM 5.06 41.108 0.146 7.23 2.39 11.54
3/16/2021 6:45:00 AM 5.02 41.036 0.147 7.22 2.75 11.54
3/16/2021 7:00:00 AM 4.97 40.946 0.145 7.21 2.65 11.53
3/16/2021 7:15:00 AM 4.94 40.892 0.149 7.22 3.14 11.52
3/16/2021 7:30:00 AM 4.89 40.802 0.149 7.21 2.82 11.52
3/16/2021 7:45:00 AM 4.85 40.73 0.155 7.21 2.66 11.53
3/16/2021 8:00:00 AM 4.82 40.676 0.156 7.21 2.9 11.5
3/16/2021 8:15:00 AM 4.78 40.604 0.156 7.21 3.71 11.53
3/16/2021 8:30:00 AM 4.74 40.532 0.151 7.21 3.26 11.52
3/16/2021 8:45:00 AM 4.71 40.478 0.154 7.2 3.01 11.54
3/16/2021 9:00:00 AM 4.66 40.388 0.153 7.2 2.5 11.54
3/16/2021 9:15:00 AM 4.64 40.352 0.152 7.2 2.86 11.55
3/16/2021 9:30:00 AM 4.61 40.298 0.152 7.2 2.61 11.56
3/16/2021 9:45:00 AM 4.59 40.262 0.149 7.2 2.77 11.57
3/16/2021 10:00:00 AM 4.58 40.244 0.148 7.2 2.39 11.61
3/16/2021 10:15:00 AM 4.58 40.244 0.147 7.2 2.29 11.64
3/16/2021 10:30:00 AM 4.57 40.226 0.149 7.2 2.63 11.66
3/16/2021 10:45:00 AM 4.55 40.19 0.148 7.2 3 11.71
3/16/2021 11:00:00 AM 4.55 40.19 0.151 7.2 2.45 11.73
3/16/2021 11:15:00 AM 4.54 40.172 0.151 7.2 2.46 11.78
3/16/2021 11:30:00 AM 4.55 40.19 0.151 7.21 2.69 11.81
3/16/2021 11:45:00 AM 4.55 40.19 0.151 7.21 2.56 11.85
3/16/2021 12:00:00 PM 4.53 40.154 0.149 7.21 2.82 11.88
3/16/2021 12:15:00 PM 4.56 40.208 0.148 7.22 2.27 11.95
3/16/2021 12:30:00 PM 4.55 40.19 0.151 7.22 2.18 11.95
3/16/2021 12:45:00 PM 4.57 40.226 0.154 7.21 3.31 12.01
3/16/2021 1:00:00 PM 4.58 40.244 0.153 7.22 2.12 12.05
3/16/2021 1:15:00 PM 4.57 40.226 0.151 7.23 2.79 12.1
3/16/2021 1:30:00 PM 4.59 40.262 0.151 7.23 1.81 12.13
3/16/2021 1:45:00 PM 4.58 40.244 0.147 7.23 1.76 12.16
3/16/2021 2:00:00 PM 4.57 40.226 0.151 7.24 2.34 12.21
3/16/2021 2:15:00 PM 4.57 40.226 0.149 7.24 2.56 12.24
3/16/2021 2:30:00 PM 4.58 40.244 0.152 7.25 2.37 12.28
3/16/2021 2:45:00 PM 4.59 40.262 0.152 7.25 1.86 12.32
3/16/2021 3:00:00 PM 4.63 40.334 0.153 7.26 1.75 12.37
3/16/2021 3:15:00 PM 4.68 40.424 0.153 7.27 2.13 12.41
3/16/2021 3:30:00 PM 4.7 40.46 0.154 7.27 2.02 12.47
3/16/2021 3:45:00 PM 4.73 40.514 0.153 7.28 310.3 12.5
3/16/2021 4:00:00 PM 4.75 40.55 0.153 7.29 1.53 12.53
3/16/2021 4:15:00 PM 4.76 40.568 0.153 7.3 1.42 12.56
3/16/2021 4:30:00 PM 4.76 40.568 0.153 7.29 1.49 12.61
3/16/2021 4:45:00 PM 4.77 40.586 0.155 7.3 1.53 12.65
3/16/2021 5:00:00 PM 4.78 40.604 0.154 7.31 1.28 12.68
3/16/2021 5:15:00 PM 4.77 40.586 0.154 7.32 1.57 12.69
3/16/2021 5:30:00 PM 4.78 40.604 0.148 7.33 1.32 12.72
3/16/2021 5:45:00 PM 4.78 40.604 0.148 7.33 1.34 12.75
3/16/2021 6:00:00 PM 4.78 40.604 0.146 7.34 1.27 12.73
3/16/2021 6:15:00 PM 4.78 40.604 0.151 7.35 1.42 12.74
3/16/2021 6:30:00 PM 4.76 40.568 0.154 7.35 1.81 12.74
3/16/2021 6:45:00 PM 4.77 40.586 0.151 7.35 1.32 12.76
3/16/2021 7:00:00 PM 4.76 40.568 0.153 7.36 1.46 12.75
3/16/2021 7:15:00 PM 4.76 40.568 0.144 7.36 1.21 12.73
3/16/2021 7:30:00 PM 4.76 40.568 0.151 7.36 1.46 12.73
3/16/2021 7:45:00 PM 4.76 40.568 0.149 7.37 1.6 12.72
3/16/2021 8:00:00 PM 4.74 40.532 0.15 7.36 2.65 12.67
3/16/2021 8:15:00 PM 4.75 40.55 0.145 7.36 1.36 12.68
3/16/2021 8:30:00 PM 4.75 40.55 0.148 7.36 1.66 12.66
3/16/2021 8:45:00 PM 4.75 40.55 0.14 7.36 1.69 12.62
3/16/2021 9:00:00 PM 4.74 40.532 0.159 7.36 1.51 12.62
3/16/2021 9:15:00 PM 4.75 40.55 0.155 7.36 1.61 12.59
3/16/2021 9:30:00 PM 4.75 40.55 0.148 7.35 1.38 12.58
3/16/2021 9:45:00 PM 4.75 40.55 0.153 7.36 1.21 12.57
3/16/2021 10:00:00 PM 4.75 40.55 0.159 7.36 2.1 12.54
3/16/2021 10:15:00 PM 4.74 40.532 0.156 7.36 1.54 12.52
3/16/2021 10:30:00 PM 4.74 40.532 0.154 7.35 2.36 12.5
3/16/2021 10:45:00 PM 4.74 40.532 0.155 7.34 1.52 12.48
3/16/2021 11:00:00 PM 4.73 40.514 0.156 7.34 1.33 12.46
3/16/2021 11:15:00 PM 4.73 40.514 0.154 7.34 1.22 12.43
3/16/2021 11:30:00 PM 4.72 40.496 0.157 7.33 1.7 12.4
3/16/2021 11:45:00 PM 4.71 40.478 0.157 7.33 1.41 12.39
3/17/2021 12:00:00 AM 4.7 40.46 0.157 7.33 1.69 12.37
3/17/2021 12:15:00 AM 4.69 40.442 0.157 7.32 1.79 12.35
3/17/2021 12:30:00 AM 4.69 40.442 0.157 7.32 1.36 12.31
3/17/2021 12:45:00 AM 4.68 40.424 0.158 7.31 1.36 12.3
3/17/2021 1:00:00 AM 4.67 40.406 0.155 7.31 1.77 12.26
3/17/2021 1:15:00 AM 4.65 40.37 0.156 7.31 1.48 12.24
3/17/2021 1:30:00 AM 4.64 40.352 0.155 7.31 1.97 12.22
3/17/2021 1:45:00 AM 4.63 40.334 0.162 7.31 1.68 12.18
3/17/2021 2:00:00 AM 4.62 40.316 0.157 7.3 1.49 12.17
3/17/2021 2:15:00 AM 4.61 40.298 0.153 7.3 1.63 12.14
3/17/2021 2:30:00 AM 4.59 40.262 0.158 7.28 1.47 12.11
3/17/2021 2:45:00 AM 4.58 40.244 0.16 7.28 1.59 12.08
3/17/2021 3:00:00 AM 4.57 40.226 0.16 7.27 1.61 12.06
3/17/2021 3:15:00 AM 4.56 40.208 0.16 7.26 1.41 12.04
3/17/2021 3:30:00 AM 4.55 40.19 0.161 7.26 1.32 12.02
3/17/2021 3:45:00 AM 4.54 40.172 0.148 7.26 1.42 12.01
3/17/2021 4:00:00 AM 4.53 40.154 0.16 7.25 1.52 11.98
3/17/2021 4:15:00 AM 4.52 40.136 0.155 7.25 1.66 11.97
3/17/2021 4:30:00 AM 4.51 40.118 0.154 7.25 1.76 11.95
3/17/2021 4:45:00 AM 4.5 40.1 0.149 7.24 1.45 11.92
3/17/2021 5:00:00 AM 4.49 40.082 0.143 7.24 1.75 11.9
3/17/2021 5:15:00 AM 4.48 40.064 0.14 7.24 1.53 11.88
3/17/2021 5:30:00 AM 4.47 40.046 0.156 7.24 1.71 11.86
3/17/2021 5:45:00 AM 4.46 40.028 0.153 7.24 1.57 11.85
3/17/2021 6:00:00 AM 4.45 40.01 0.145 7.23 1.56 11.82
3/17/2021 6:15:00 AM 4.44 39.992 0.149 7.23 1.87 11.81
3/17/2021 6:30:00 AM 4.43 39.974 0.156 7.22 1.31 11.79
3/17/2021 6:45:00 AM 4.42 39.956 0.158 7.22 1.94 11.77
3/17/2021 7:00:00 AM 4.41 39.938 0.148 7.22 1.85 11.74
3/17/2021 7:15:00 AM 4.4 39.92 0.147 7.22 1.87 11.74
3/17/2021 7:30:00 AM 4.39 39.902 0.154 7.21 1.84 11.75
3/17/2021 7:45:00 AM 4.38 39.884 0.156 7.21 1.75 11.75
3/17/2021 8:00:00 AM 4.38 39.884 0.149 7.2 2.17 11.71
3/17/2021 8:15:00 AM 4.37 39.866 0.154 7.21 1.69 11.72
3/17/2021 8:30:00 AM 4.38 39.884 0.163 7.21 1.48 11.72
3/17/2021 8:45:00 AM 4.38 39.884 0.158 7.2 1.66 11.72
3/17/2021 9:00:00 AM 4.38 39.884 0.154 7.2 2.02 11.72
3/17/2021 9:15:00 AM 4.39 39.902 0.155 7.2 1.7 11.75
3/17/2021 9:30:00 AM 4.4 39.92 0.153 7.2 1.51 11.78
3/17/2021 9:45:00 AM 4.41 39.938 0.153 7.21 2.08 11.8
3/17/2021 10:00:00 AM 4.42 39.956 0.151 7.21 1.36 11.82
3/17/2021 10:15:00 AM 4.43 39.974 0.153 7.21 1.51 11.86
3/17/2021 10:30:00 AM 4.45 40.01 0.155 7.21 1.41 11.86
3/17/2021 10:45:00 AM 4.46 40.028 0.151 7.21 1.56 11.91
3/17/2021 11:00:00 AM 4.49 40.082 0.151 7.21 1.69 11.96
3/17/2021 11:15:00 AM 4.52 40.136 0.144 7.22 1.72 11.99
3/17/2021 11:30:00 AM 4.55 40.19 0.153 7.23 1.59 12.03
3/17/2021 11:45:00 AM 4.58 40.244 0.154 7.23 2.17 12.03
3/17/2021 12:00:00 PM 4.61 40.298 0.151 7.24 1.51 12.1
3/17/2021 12:15:00 PM 4.65 40.37 0.153 7.24 1.59 12.15
3/17/2021 12:30:00 PM 4.69 40.442 0.154 7.24 1.43 12.17
3/17/2021 12:45:00 PM 4.73 40.514 0.158 7.25 1.74 12.23
3/17/2021 1:00:00 PM 4.76 40.568 0.151 7.26 1.7 12.25
3/17/2021 1:15:00 PM 4.8 40.64 0.152 7.26 1.27 12.3
3/17/2021 1:30:00 PM 4.83 40.694 0.154 7.27 1.54 12.33
3/17/2021 1:45:00 PM 4.87 40.766 0.151 7.28 1.9 12.38
3/17/2021 2:00:00 PM 4.91 40.838 0.156 7.28 1.47 12.4
3/17/2021 2:15:00 PM 4.94 40.892 0.152 7.29 1.59 12.44
3/17/2021 2:30:00 PM 4.97 40.946 0.154 7.3 1.55 12.48
3/17/2021 2:45:00 PM 5 41 0.157 7.31 1.63 12.51
3/17/2021 3:00:00 PM 5.03 41.054 0.155 7.32 1.52 12.55
3/17/2021 3:15:00 PM 5.05 41.09 0.152 7.32 1.38 12.57
3/17/2021 3:30:00 PM 5.07 41.126 0.154 7.33 1.57 12.61
3/17/2021 3:45:00 PM 5.08 41.144 0.15 7.34 1.3 12.63
3/17/2021 4:00:00 PM 5.1 41.18 0.143 7.35 1.52 12.67
3/17/2021 4:15:00 PM 5.12 41.216 0.139 7.35 1.55 12.69
3/17/2021 4:30:00 PM 5.14 41.252 0.153 7.36 1.27 12.69
3/17/2021 4:45:00 PM 5.16 41.288 0.15 7.37 1.73 12.73
3/17/2021 5:00:00 PM 5.18 41.324 0.154 7.37 1.97 12.74
3/17/2021 5:15:00 PM 5.2 41.36 0.155 7.38 2.11 12.76
3/17/2021 5:30:00 PM 5.2 41.36 0.144 7.39 2.12 12.75
3/17/2021 5:45:00 PM 5.22 41.396 0.143 7.39 2.32 12.76
3/17/2021 6:00:00 PM 5.23 41.414 0.14 7.39 1.96 12.77
3/17/2021 6:15:00 PM 5.24 41.432 0.156 7.4 1.95 12.76
3/17/2021 6:30:00 PM 5.25 41.45 0.15 7.4 1.91 12.76
3/17/2021 6:45:00 PM 5.26 41.468 0.151 7.41 1.89 12.76
3/17/2021 7:00:00 PM 5.27 41.486 0.152 7.41 1.55 12.74
3/17/2021 7:15:00 PM 5.29 41.522 0.155 7.41 2.22 12.73
3/17/2021 7:30:00 PM 5.28 41.504 0.157 7.4 1.8 12.72
3/17/2021 7:45:00 PM 5.3 41.54 0.146 7.4 2.19 12.66
3/17/2021 8:00:00 PM 5.3 41.54 0.149 7.41 1.89 12.66
3/17/2021 8:15:00 PM 5.31 41.558 0.15 7.4 2.05 12.65
3/17/2021 8:30:00 PM 5.32 41.576 0.15 7.41 2.58 12.64
3/17/2021 8:45:00 PM 5.33 41.594 0.15 7.4 1.71 12.61
3/17/2021 9:00:00 PM 5.34 41.612 0.151 7.41 3.28 12.59
3/17/2021 9:15:00 PM 5.37 41.666 0.146 7.39 1.83 12.57
3/17/2021 9:30:00 PM 5.35 41.63 0.151 7.41 1.77 12.53
3/17/2021 9:45:00 PM 5.37 41.666 0.153 7.39 2.33 12.5
3/17/2021 10:00:00 PM 5.37 41.666 0.15 7.39 1.75 12.48
3/17/2021 10:15:00 PM 5.39 41.702 0.16 7.39 2.11 12.44
3/17/2021 10:30:00 PM 5.4 41.72 0.155 7.38 2.6 12.41
3/17/2021 10:45:00 PM 5.41 41.738 0.156 7.39 2.07 12.4
3/17/2021 11:00:00 PM 5.41 41.738 0.156 7.38 1.83 12.36
3/17/2021 11:15:00 PM 5.42 41.756 0.152 7.38 2.12 12.32
3/17/2021 11:30:00 PM 5.43 41.774 0.145 7.38 1.64 12.28
3/17/2021 11:45:00 PM 5.44 41.792 0.155 7.37 1.99 12.24
3/18/2021 12:00:00 AM 5.45 41.81 0.153 7.36 1.78 12.21
3/18/2021 12:15:00 AM 5.46 41.828 0.155 7.36 1249 12.17
3/18/2021 12:30:00 AM 5.47 41.846 0.149 7.35 1.75 12.15
3/18/2021 12:45:00 AM 5.47 41.846 0.146 7.35 1.59 12.1
3/18/2021 1:00:00 AM 5.49 41.882 0.153 7.34 1.33 12.05
3/18/2021 1:15:00 AM 5.49 41.882 0.158 7.34 1.36 12.04
3/18/2021 1:30:00 AM 5.49 41.882 0.153 7.34 1.87 12.01
3/18/2021 1:45:00 AM 5.5 41.9 0.14 7.33 1.6 11.96
3/18/2021 2:00:00 AM 5.51 41.918 0.141 7.32 1.56 11.92
3/18/2021 2:15:00 AM 5.5 41.9 0.141 7.33 1.98 11.91
3/18/2021 2:30:00 AM 5.5 41.9 0.156 7.32 1.29 11.89
3/18/2021 2:45:00 AM 5.51 41.918 0.145 7.31 1.54 11.83
3/18/2021 3:00:00 AM 5.52 41.936 0.147 7.31 1.47 11.8
3/18/2021 3:15:00 AM 5.52 41.936 0.147 7.31 1.7 11.77
3/18/2021 3:30:00 AM 5.53 41.954 0.158 7.3 1.58 11.72
3/18/2021 3:45:00 AM 5.53 41.954 0.155 7.29 1.27 11.7
3/18/2021 4:00:00 AM 5.54 41.972 0.152 7.29 1.65 11.66
3/18/2021 4:15:00 AM 5.53 41.954 0.145 7.29 1.57 11.65
3/18/2021 4:30:00 AM 5.54 41.972 0.145 7.28 1.52 11.61
3/18/2021 4:45:00 AM 5.54 41.972 0.141 7.28 1.53 11.59
3/18/2021 5:00:00 AM 5.54 41.972 0.143 7.27 1.59 11.57
3/18/2021 5:15:00 AM 5.54 41.972 0.144 7.27 1.93 11.54
3/18/2021 5:30:00 AM 5.55 41.99 0.16 7.27 1.79 11.5
3/18/2021 5:45:00 AM 5.55 41.99 0.145 7.26 2.79 11.47
3/18/2021 6:00:00 AM 5.55 41.99 0.153 7.26 1.25 11.46
3/18/2021 6:15:00 AM 5.55 41.99 0.143 7.26 1.53 11.44
3/18/2021 6:30:00 AM 5.56 42.008 0.162 7.25 1.5 11.41
3/18/2021 6:45:00 AM 5.57 42.026 0.152 7.25 1.84 11.36
3/18/2021 7:00:00 AM 5.57 42.026 0.154 7.24 1.85 11.33
3/18/2021 7:15:00 AM 5.57 42.026 0.145 7.24 2.06 11.34
3/18/2021 7:30:00 AM 5.57 42.026 0.151 7.24 1.86 11.32
3/18/2021 7:45:00 AM 5.58 42.044 0.156 7.23 1.87 11.29
3/18/2021 8:00:00 AM 5.57 42.026 0.15 7.22 1.8 11.3
3/18/2021 8:15:00 AM 5.58 42.044 0.152 7.23 2.02 11.29
3/18/2021 8:30:00 AM 5.59 42.062 0.144 7.23 1.96 11.26
3/18/2021 8:45:00 AM 5.59 42.062 0.145 7.22 2.12 11.27
3/18/2021 9:00:00 AM 5.61 42.098 0.149 7.22 2.64 11.24
3/18/2021 9:15:00 AM 5.61 42.098 0.154 7.22 2.9 11.23
3/18/2021 9:30:00 AM 5.63 42.134 0.158 7.22 3.42 11.22
3/18/2021 9:45:00 AM 5.64 42.152 0.154 7.22 3.61 11.22
3/18/2021 10:00:00 AM 5.66 42.188 0.159 7.23 3.4 11.23
3/18/2021 10:15:00 AM 5.69 42.242 0.143 7.23 4.27 11.21
3/18/2021 10:30:00 AM 5.71 42.278 0.158 7.23 5.08 11.22
3/18/2021 10:45:00 AM 5.75 42.35 0.159 7.24 5.73 11.21
3/18/2021 11:00:00 AM 5.76 42.368 0.15 7.24 6.1 11.24
3/18/2021 11:15:00 AM 5.84 42.512 0.159 7.25 12.23 11.24
3/18/2021 11:30:00 AM 5.85 42.53 0.15 7.26 18.55 11.26
3/18/2021 11:45:00 AM 5.86 42.548 0.151 7.26 20.45 11.24
3/18/2021 12:00:00 PM 5.87 42.566 0.146 7.27 23.28 11.24
3/18/2021 12:15:00 PM 5.93 42.674 0.147 7.27 33.71 11.22
3/18/2021 12:30:00 PM 5.96 42.728 0.147 7.27 34.49 11.21
3/18/2021 12:45:00 PM 5.97 42.746 0.149 7.27 38.26 11.21
3/18/2021 1:00:00 PM 6 42.8 0.159 7.26 40.51 11.18
3/18/2021 1:15:00 PM 6.02 42.836 0.161 7.26 36.79 11.22
3/18/2021 1:30:00 PM 6.05 42.89 0.15 7.26 39.77 11.18
3/18/2021 1:45:00 PM 6.05 42.89 0.15 7.26 36.68 11.22
3/18/2021 2:00:00 PM 6.1 42.98 0.159 7.26 35.41 11.19
3/18/2021 2:15:00 PM 6.12 43.016 0.159 7.27 35.66 11.23
3/18/2021 2:30:00 PM 6.08 42.944 0.159 7.27 29.07 11.25
3/18/2021 2:45:00 PM 6.17 43.106 0.151 7.26 34.59 11.19
3/18/2021 3:00:00 PM 6.14 43.052 0.148 7.27 32.63 11.24
3/18/2021 3:15:00 PM 6.24 43.232 0.149 7.27 40.39 11.16
3/18/2021 3:30:00 PM 6.21 43.178 0.151 7.27 36.17 11.23
3/18/2021 3:45:00 PM 6.26 43.268 0.147 7.26 41.78 11.19
3/18/2021 4:00:00 PM 6.31 43.358 0.145 7.26 43.04 11.15
3/18/2021 4:15:00 PM 6.34 43.412 0.155 7.27 46.53 11.13
3/18/2021 4:30:00 PM 6.37 43.466 0.15 7.27 55.59 11.12
3/18/2021 4:45:00 PM 6.41 43.538 0.153 7.26 62.25 11.02
3/18/2021 5:00:00 PM 6.42 43.556 0.152 7.26 68.01 11.03
3/18/2021 5:15:00 PM 6.43 43.574 0.155 7.26 80.63 11.04
3/18/2021 5:30:00 PM 6.38 43.484 0.16 7.27 68.89 11.05
3/18/2021 5:45:00 PM 6.44 43.592 0.146 7.27 80.03 11.01
3/18/2021 6:00:00 PM 6.49 43.682 0.154 7.26 87.73 10.94
3/18/2021 6:15:00 PM 6.47 43.646 0.154 7.26 315.9 10.95
3/18/2021 6:30:00 PM 6.48 43.664 0.15 7.27 78.64 10.93
3/18/2021 6:45:00 PM 6.49 43.682 0.152 7.27 83.87 10.93
3/18/2021 7:00:00 PM 6.49 43.682 0.16 7.26 81.99 10.95
3/18/2021 7:15:00 PM 6.49 43.682 0.163 7.27 71.41 10.91
3/18/2021 7:30:00 PM 6.49 43.682 0.158 7.28 70.95 10.91
3/18/2021 7:45:00 PM 6.51 43.718 0.155 7.28 69.64 10.86
3/18/2021 8:00:00 PM 6.47 43.646 0.15 7.28 60.36 10.95
3/18/2021 8:15:00 PM 6.46 43.628 0.155 7.29 57.52 10.92
3/18/2021 8:30:00 PM 6.45 43.61 0.162 7.3 53.67 10.95
3/18/2021 8:45:00 PM 6.45 43.61 0.171 7.3 52.63 10.94
3/18/2021 9:00:00 PM 6.44 43.592 0.172 7.31 46.18 10.94
3/18/2021 9:15:00 PM 6.44 43.592 0.159 7.31 46.39 10.96
3/18/2021 9:30:00 PM 6.42 43.556 0.167 7.31 44.5 11
3/18/2021 9:45:00 PM 6.42 43.556 0.173 7.32 43.57 11
3/18/2021 10:00:00 PM 6.42 43.556 0.176 7.32 45.39 10.98
3/18/2021 10:15:00 PM 6.42 43.556 0.166 7.33 47.53 10.97
3/18/2021 10:30:00 PM 6.41 43.538 0.164 7.33 47.69 10.99
3/18/2021 10:45:00 PM 6.41 43.538 0.168 7.33 43.59 10.95
3/18/2021 11:00:00 PM 6.41 43.538 0.175 7.34 43.29 10.93
3/18/2021 11:15:00 PM 6.4 43.52 0.177 7.33 47.22 10.94
3/18/2021 11:30:00 PM 6.4 43.52 0.172 7.33 45.36 10.95
3/18/2021 11:45:00 PM 6.4 43.52 0.172 7.33 40.1 10.93
3/19/2021 12:00:00 AM 6.4 43.52 0.184 7.34 41.02 10.88
3/19/2021 12:15:00 AM 6.4 43.52 0.176 7.33 55.75 10.89
3/19/2021 12:30:00 AM 6.41 43.538 0.186 7.34 43.38 10.87
3/19/2021 12:45:00 AM 6.42 43.556 0.181 7.34 45.98 10.84
3/19/2021 1:00:00 AM 6.42 43.556 0.184 7.34 43.12 10.82
3/19/2021 1:15:00 AM 6.43 43.574 0.189 7.33 49.4 10.8
3/19/2021 1:30:00 AM 6.43 43.574 0.186 7.33 47.85 10.77
3/19/2021 1:45:00 AM 6.43 43.574 0.187 7.33 45.64 10.73
3/19/2021 2:00:00 AM 6.43 43.574 0.18 7.33 49.5 10.71
3/19/2021 2:15:00 AM 6.44 43.592 0.188 7.33 46.5 10.69
3/19/2021 2:30:00 AM 6.43 43.574 0.184 7.33 55.61 10.66
3/19/2021 2:45:00 AM 6.42 43.556 0.179 7.32 53.66 10.64
3/19/2021 3:00:00 AM 6.41 43.538 0.179 7.32 54.46 10.64
3/19/2021 3:15:00 AM 6.4 43.52 0.175 7.32 57.24 10.63
3/19/2021 3:30:00 AM 6.38 43.484 0.185 7.31 54.96 10.61
3/19/2021 3:45:00 AM 6.36 43.448 0.175 7.31 59.82 10.61
3/19/2021 4:00:00 AM 6.34 43.412 0.181 7.31 72.67 10.57
3/19/2021 4:15:00 AM 6.32 43.376 0.168 7.31 67.99 10.59
3/19/2021 4:30:00 AM 6.3 43.34 0.178 7.31 68.58 10.57
3/19/2021 4:45:00 AM 6.28 43.304 0.183 7.31 63.39 10.56
3/19/2021 5:00:00 AM 6.26 43.268 0.182 7.31 60.54 10.55
3/19/2021 5:15:00 AM 6.23 43.214 0.175 7.3 61.24 10.54
3/19/2021 5:30:00 AM 6.21 43.178 0.172 7.29 60.15 10.54
3/19/2021 5:45:00 AM 6.18 43.124 0.165 7.29 63.52 10.54
3/19/2021 6:00:00 AM 6.16 43.088 0.169 7.28 73.01 10.54
3/19/2021 6:15:00 AM 6.13 43.034 0.162 7.28 67.76 10.54
3/19/2021 6:30:00 AM 6.1 42.98 0.163 7.27 61.96 10.52
3/19/2021 6:45:00 AM 6.07 42.926 0.17 7.28 64.66 10.53
3/19/2021 7:00:00 AM 6.05 42.89 0.166 7.27 66.68 10.53
3/19/2021 7:15:00 AM 6.02 42.836 0.149 7.26 70.17 10.53
3/19/2021 7:30:00 AM 5.99 42.782 0.151 7.26 72.76 10.53
3/19/2021 7:45:00 AM 5.97 42.746 0.157 7.25 64.21 10.53
3/19/2021 8:00:00 AM 5.94 42.692 0.155 7.25 59.1 10.53
3/19/2021 8:15:00 AM 5.92 42.656 0.155 7.25 65.28 10.54
3/19/2021 8:30:00 AM 5.9 42.62 0.163 7.24 59.44 10.56
3/19/2021 8:45:00 AM 5.88 42.584 0.165 7.24 49.17 10.56
3/19/2021 9:00:00 AM 5.86 42.548 0.154 7.24 60.29 10.58
3/19/2021 9:15:00 AM 5.83 42.494 0.153 7.24 58.83 10.59
3/19/2021 9:30:00 AM 5.81 42.458 0.154 7.23 68.71 10.6
3/19/2021 9:45:00 AM 5.79 42.422 0.148 7.23 54.68 10.62
3/19/2021 10:00:00 AM 5.79 42.422 0.149 7.23 68.61 10.61
3/19/2021 10:15:00 AM 5.8 42.44 0.155 7.22 60.52 10.64
3/19/2021 10:30:00 AM 5.79 42.422 0.147 7.22 65.36 10.66
3/19/2021 10:45:00 AM 5.81 42.458 0.158 7.22 65.23 10.67
3/19/2021 11:00:00 AM 5.84 42.512 0.149 7.22 54.6 10.7
3/19/2021 11:15:00 AM 5.85 42.53 0.15 7.22 58.27 10.71
3/19/2021 11:30:00 AM 5.85 42.53 0.149 7.22 59.02 10.72
3/19/2021 11:45:00 AM 5.89 42.602 0.15 7.22 58.7 10.74
3/19/2021 12:00:00 PM 5.93 42.674 0.146 7.22 62.27 10.77
3/19/2021 12:15:00 PM 5.99 42.782 0.15 7.21 66.4 10.77
3/19/2021 12:30:00 PM 6.04 42.872 0.144 7.21 67.5 10.8
3/19/2021 12:45:00 PM 6.09 42.962 0.141 7.21 67.45 10.8
3/19/2021 1:00:00 PM 6.16 43.088 0.142 7.21 59.99 10.85
3/19/2021 1:15:00 PM 6.21 43.178 0.141 7.21 59.3 10.86
3/19/2021 1:30:00 PM 6.27 43.286 0.141 7.21 59.7 10.89
3/19/2021 1:45:00 PM 6.33 43.394 0.146 7.21 60.88 10.9
3/19/2021 2:00:00 PM 6.38 43.484 0.142 7.21 61.26 10.92
3/19/2021 2:15:00 PM 6.45 43.61 0.139 7.21 60.03 10.93
3/19/2021 2:30:00 PM 6.51 43.718 0.143 7.21 61.66 10.95
3/19/2021 2:45:00 PM 6.57 43.826 0.148 7.21 61.24 10.97
3/19/2021 3:00:00 PM 6.6 43.88 0.156 7.21 62.4 10.99
3/19/2021 3:15:00 PM 6.64 43.952 0.144 7.21 59.7 11
3/19/2021 3:30:00 PM 6.67 44.006 0.147 7.21 62.93 11.02
3/19/2021 3:45:00 PM 6.71 44.078 0.138 7.21 60.83 11.02
3/19/2021 4:00:00 PM 6.74 44.132 0.143 7.21 57.01 11.04
3/19/2021 4:15:00 PM 6.77 44.186 0.144 7.22 61.05 11.05
3/19/2021 4:30:00 PM 6.78 44.204 0.152 7.22 59.18 11.06
3/19/2021 4:45:00 PM 6.8 44.24 0.146 7.21 58.36 11.07
3/19/2021 5:00:00 PM 6.82 44.276 0.145 7.21 57.72 11.09
3/19/2021 5:15:00 PM 6.81 44.258 0.15 7.21 62.26 11.09
3/19/2021 5:30:00 PM 6.82 44.276 0.152 7.21 62.09 11.08
3/19/2021 5:45:00 PM 6.83 44.294 0.141 7.2 61.01 11.12
3/19/2021 6:00:00 PM 6.82 44.276 0.144 7.2 64.67 11.12
3/19/2021 6:15:00 PM 6.81 44.258 0.148 7.21 62.09 11.12
3/19/2021 6:30:00 PM 6.84 44.312 0.141 7.21 56.98 11.12
3/19/2021 6:45:00 PM 6.83 44.294 0.138 7.21 59.26 11.14
3/19/2021 7:00:00 PM 6.82 44.276 0.152 7.2 60.67 11.14
3/19/2021 7:15:00 PM 6.81 44.258 0.143 7.21 61.99 11.14
3/19/2021 7:30:00 PM 6.81 44.258 0.142 7.2 59.87 11.15
3/19/2021 7:45:00 PM 6.8 44.24 0.144 7.21 63.09 11.17
3/19/2021 8:00:00 PM 6.81 44.258 0.142 7.2 54.82 11.15
3/19/2021 8:15:00 PM 6.82 44.276 0.145 7.2 60.2 11.16
3/19/2021 8:30:00 PM 6.79 44.222 0.147 7.2 57.61 11.18
3/19/2021 8:45:00 PM 6.77 44.186 0.14 7.2 49.96 11.18
3/19/2021 9:00:00 PM 6.76 44.168 0.142 7.2 51.4 11.19
3/19/2021 9:15:00 PM 6.74 44.132 0.144 7.2 54.78 11.19
3/19/2021 9:30:00 PM 6.72 44.096 0.143 7.2 51.27 11.2
3/19/2021 9:45:00 PM 6.71 44.078 0.144 7.21 47.01 11.2
3/19/2021 10:00:00 PM 6.68 44.024 0.147 7.2 44.78 11.21
3/19/2021 10:15:00 PM 6.66 43.988 0.147 7.2 46.2 11.21
3/19/2021 10:30:00 PM 6.64 43.952 0.147 7.2 49.66 11.21
3/19/2021 10:45:00 PM 6.63 43.934 0.144 7.2 53.54 11.2
3/19/2021 11:00:00 PM 6.59 43.862 0.144 7.2 50.25 11.21
3/19/2021 11:15:00 PM 6.55 43.79 0.148 7.21 48.98 11.19
3/19/2021 11:30:00 PM 6.53 43.754 0.15 7.2 45.92 11.21
3/19/2021 11:45:00 PM 6.5 43.7 0.139 7.2 48.62 11.19
3/20/2021 12:00:00 AM 6.46 43.628 0.136 7.2 45.38 11.19
3/20/2021 12:15:00 AM 6.42 43.556 0.139 7.2 45.65 11.2
3/20/2021 12:30:00 AM 6.39 43.502 0.142 7.19 43.41 11.19
3/20/2021 12:45:00 AM 6.34 43.412 0.148 7.2 40.96 11.19
3/20/2021 1:00:00 AM 6.3 43.34 0.154 7.19 39.48 11.19
3/20/2021 1:15:00 AM 6.25 43.25 0.145 7.19 35.91 11.2
3/20/2021 1:30:00 AM 6.21 43.178 0.151 7.19 37.51 11.17
3/20/2021 1:45:00 AM 6.16 43.088 0.149 7.19 35.77 11.19
3/20/2021 2:00:00 AM 6.11 42.998 0.152 7.19 37.95 11.2
3/20/2021 2:15:00 AM 6.06 42.908 0.151 7.19 34.91 11.21
3/20/2021 2:30:00 AM 6.01 42.818 0.144 7.19 38.14 11.22
3/20/2021 2:45:00 AM 5.96 42.728 0.149 7.19 40.3 11.2
3/20/2021 3:00:00 AM 5.9 42.62 0.144 7.19 35.8 11.21
3/20/2021 3:15:00 AM 5.86 42.548 0.148 7.19 40.68 11.22
3/20/2021 3:30:00 AM 5.8 42.44 0.15 7.18 37.25 11.23
3/20/2021 3:45:00 AM 5.76 42.368 0.153 7.18 37.35 11.22
3/20/2021 4:00:00 AM 5.71 42.278 0.153 7.18 34.55 11.23
3/20/2021 4:15:00 AM 5.66 42.188 0.148 7.17 41.79 11.23
3/20/2021 4:30:00 AM 5.62 42.116 0.152 7.17 39.52 11.22
3/20/2021 4:45:00 AM 5.58 42.044 0.141 7.17 41.61 11.24
3/20/2021 5:00:00 AM 5.53 41.954 0.149 7.17 38.06 11.24
3/20/2021 5:15:00 AM 5.48 41.864 0.14 7.17 36.52 11.25
3/20/2021 5:30:00 AM 5.44 41.792 0.154 7.17 44.63 11.25
3/20/2021 5:45:00 AM 5.41 41.738 0.147 7.16 37.39 11.26
3/20/2021 6:00:00 AM 5.36 41.648 0.146 7.16 35.74 11.24
3/20/2021 6:15:00 AM 5.32 41.576 0.148 7.16 30.8 11.27
3/20/2021 6:30:00 AM 5.26 41.468 0.152 7.16 33.62 11.27
3/20/2021 6:45:00 AM 5.22 41.396 0.143 7.16 34.29 11.27
3/20/2021 7:00:00 AM 5.19 41.342 0.14 7.16 38.31 11.29
3/20/2021 7:15:00 AM 5.14 41.252 0.14 7.16 35.45 11.3
3/20/2021 7:30:00 AM 5.1 41.18 0.14 7.15 32.81 11.31
3/20/2021 7:45:00 AM 5.07 41.126 0.141 7.15 25.93 11.31
3/20/2021 8:00:00 AM 5.02 41.036 0.139 7.16 28.02 11.33
3/20/2021 8:15:00 AM 5.01 41.018 0.141 7.16 30.77 11.33
3/20/2021 8:30:00 AM 4.98 40.964 0.142 7.16 31.41 11.33
3/20/2021 8:45:00 AM 4.96 40.928 0.141 7.15 26.43 11.36
3/20/2021 9:00:00 AM 4.95 40.91 0.151 7.15 24.87 11.37
3/20/2021 9:15:00 AM 4.94 40.892 0.143 7.15 25.57 11.39
3/20/2021 9:30:00 AM 4.92 40.856 0.151 7.15 26.17 11.4
3/20/2021 9:45:00 AM 4.92 40.856 0.144 7.16 25.06 11.44
3/20/2021 10:00:00 AM 4.98 40.964 0.141 7.15 24.63 11.45
3/20/2021 10:15:00 AM 5.01 41.018 0.148 7.15 23.22 11.47
3/20/2021 10:30:00 AM 5.05 41.09 0.149 7.15 26.51 11.51
3/20/2021 10:45:00 AM 5.11 41.198 0.151 7.15 23.55 11.54
3/20/2021 11:00:00 AM 5.18 41.324 0.148 7.16 18.96 11.58
3/20/2021 11:15:00 AM 5.25 41.45 0.145 7.16 16.48 11.61
3/20/2021 11:30:00 AM 5.37 41.666 0.14 7.16 16.65 11.65
3/20/2021 11:45:00 AM 5.47 41.846 0.144 7.16 21 11.67
3/20/2021 12:00:00 PM 5.58 42.044 0.144 7.17 21.54 11.7
3/20/2021 12:15:00 PM 5.67 42.206 0.15 7.17 18.62 11.75
3/20/2021 12:30:00 PM 5.82 42.476 0.155 7.18 19.97 11.79
3/20/2021 12:45:00 PM 5.94 42.692 0.155 7.18 35.5 11.81
3/20/2021 1:00:00 PM 6.09 42.962 0.154 7.2 22.08 11.84
3/20/2021 1:15:00 PM 6.19 43.142 0.153 7.2 38.09 11.89
3/20/2021 1:30:00 PM 6.32 43.376 0.154 7.21 18.48 11.91
3/20/2021 1:45:00 PM 6.44 43.592 0.153 7.22 16.93 11.94
3/20/2021 2:00:00 PM 6.55 43.79 0.152 7.22 16.74 11.98
3/20/2021 2:15:00 PM 6.66 43.988 0.147 7.23 17.52 12
3/20/2021 2:30:00 PM 6.76 44.168 0.149 7.24 22.1 12.06
3/20/2021 2:45:00 PM 6.84 44.312 0.153 7.25 18.3 12.08
3/20/2021 3:00:00 PM 6.94 44.492 0.156 7.26 25.47 12.1
3/20/2021 3:15:00 PM 7.04 44.672 0.147 7.26 18.82 12.13
3/20/2021 3:30:00 PM 7.09 44.762 0.152 7.27 20.23 12.15
3/20/2021 3:45:00 PM 7.17 44.906 0.153 7.28 22.09 12.18
3/20/2021 4:00:00 PM 7.24 45.032 0.151 7.28 19.4 12.2
3/20/2021 4:15:00 PM 7.27 45.086 0.156 7.3 13.6 12.21
3/20/2021 4:30:00 PM 7.31 45.158 0.156 7.3 13.66 12.22
3/20/2021 4:45:00 PM 7.36 45.248 0.157 7.31 15.7 12.22
3/20/2021 5:00:00 PM 7.37 45.266 0.157 7.31 24.07 12.24
3/20/2021 5:15:00 PM 7.37 45.266 0.149 7.32 18.03 12.25
3/20/2021 5:30:00 PM 7.39 45.302 0.15 7.32 11.61 12.25
3/20/2021 5:45:00 PM 7.41 45.338 0.152 7.32 16.69 12.24
3/20/2021 6:00:00 PM 7.42 45.356 0.15 7.32 23.75 12.23
3/20/2021 6:15:00 PM 7.4 45.32 0.149 7.33 14.59 12.21
3/20/2021 6:30:00 PM 7.42 45.356 0.154 7.33 17.48 12.2
3/20/2021 6:45:00 PM 7.4 45.32 0.147 7.33 22.12 12.17
3/20/2021 7:00:00 PM 7.39 45.302 0.151 7.33 21.47 12.16
3/20/2021 7:15:00 PM 7.4 45.32 0.15 7.34 22.81 12.14
3/20/2021 7:30:00 PM 7.38 45.284 0.158 7.33 16.01 12.13
3/20/2021 7:45:00 PM 7.41 45.338 0.152 7.33 18.27 12.09
3/20/2021 8:00:00 PM 7.42 45.356 0.16 7.33 15.79 12.06
3/20/2021 8:15:00 PM 7.4 45.32 0.159 7.33 14.09 12.04
3/20/2021 8:30:00 PM 7.39 45.302 0.147 7.33 11 12
3/20/2021 8:45:00 PM 7.38 45.284 0.141 7.32 15.65 11.98
3/20/2021 9:00:00 PM 7.38 45.284 0.144 7.32 17.34 11.96
3/20/2021 9:15:00 PM 7.38 45.284 0.14 7.32 14.53 11.92
3/20/2021 9:30:00 PM 7.37 45.266 0.155 7.32 20.64 11.89
3/20/2021 9:45:00 PM 7.35 45.23 0.142 7.32 14.4 11.86
3/20/2021 10:00:00 PM 7.33 45.194 0.15 7.31 24.21 11.83
3/20/2021 10:15:00 PM 7.31 45.158 0.149 7.31 30.95 11.8
3/20/2021 10:30:00 PM 7.29 45.122 0.146 7.31 27.05 11.76
3/20/2021 10:45:00 PM 7.27 45.086 0.142 7.31 29.63 11.72
3/20/2021 11:00:00 PM 7.25 45.05 0.145 7.31 44.5 11.7
3/20/2021 11:15:00 PM 7.21 44.978 0.143 7.31 48.4 11.67
3/20/2021 11:30:00 PM 7.2 44.96 0.154 7.31 53.77 11.61
3/20/2021 11:45:00 PM 7.17 44.906 0.142 7.31 110.4 11.57
3/21/2021 12:00:00 AM 7.15 44.87 0.142 7.3 56.19 11.54
3/21/2021 12:15:00 AM 7.12 44.816 0.14 7.3 36.32 11.53
3/21/2021 12:30:00 AM 7.09 44.762 0.152 7.29 103.2 11.48
3/21/2021 12:45:00 AM 7.05 44.69 0.154 7.29 56.91 11.45
3/21/2021 1:00:00 AM 7.01 44.618 0.143 7.28 28.45 11.42
3/21/2021 1:15:00 AM 6.98 44.564 0.143 7.28 20.38 11.37
3/21/2021 1:30:00 AM 6.95 44.51 0.141 7.27 32.44 11.36
3/21/2021 1:45:00 AM 6.88 44.384 0.142 7.27 21.74 11.38
3/21/2021 2:00:00 AM 6.85 44.33 0.142 7.26 24.84 11.32
3/21/2021 2:15:00 AM 6.8 44.24 0.14 7.26 28.39 11.32
3/21/2021 2:30:00 AM 6.75 44.15 0.14 7.25 109.9 11.29
3/21/2021 2:45:00 AM 6.7 44.06 0.156 7.25 118.3 11.28
3/21/2021 3:00:00 AM 6.64 43.952 0.152 7.25 64.47 11.25
3/21/2021 3:15:00 AM 6.59 43.862 0.15 7.24 108 11.25
3/21/2021 3:30:00 AM 6.53 43.754 0.144 7.24 41.46 11.25
3/21/2021 3:45:00 AM 6.48 43.664 0.153 7.23 54.36 11.23
3/21/2021 4:00:00 AM 6.42 43.556 0.15 7.23 30.29 11.2
3/21/2021 4:15:00 AM 6.37 43.466 0.151 7.23 28.56 11.21
3/21/2021 4:30:00 AM 6.31 43.358 0.153 7.23 43.59 11.2
3/21/2021 4:45:00 AM 6.26 43.268 0.144 7.22 41.24 11.18
3/21/2021 5:00:00 AM 6.2 43.16 0.141 7.22 57.53 11.18
3/21/2021 5:15:00 AM 6.15 43.07 0.154 7.22 27.68 11.18
3/21/2021 5:30:00 AM 6.09 42.962 0.15 7.22 27.53 11.16
3/21/2021 5:45:00 AM 6.04 42.872 0.151 7.21 39.36 11.16
3/21/2021 6:00:00 AM 6 42.8 0.142 7.21 27.9 11.17
3/21/2021 6:15:00 AM 5.95 42.71 0.156 7.2 38.2 11.17
3/21/2021 6:30:00 AM 5.91 42.638 0.155 7.2 77.67 11.16
3/21/2021 6:45:00 AM 5.85 42.53 0.158 7.2 52.34 11.16
3/21/2021 7:00:00 AM 5.8 42.44 0.151 7.2 38.4 11.15
3/21/2021 7:15:00 AM 5.77 42.386 0.154 7.19 124.9 11.17
3/21/2021 7:30:00 AM 5.72 42.296 0.166 7.19 84.95 11.17
3/21/2021 7:45:00 AM 5.68 42.224 0.146 7.18 177.1 11.18
3/21/2021 8:00:00 AM 5.65 42.17 0.149 7.19 31.03 11.17
3/21/2021 8:15:00 AM 5.6 42.08 0.147 7.19 93.92 11.17
3/21/2021 8:30:00 AM 5.6 42.08 0.148 7.18 44.32 11.2
3/21/2021 8:45:00 AM 5.56 42.008 0.146 7.18 71.18 11.2
3/21/2021 9:00:00 AM 5.56 42.008 0.144 7.18 68.08 11.23
3/21/2021 9:15:00 AM 5.53 41.954 0.144 7.18 40.06 11.25
3/21/2021 9:30:00 AM 5.53 41.954 0.144 7.18 52.66 11.27
3/21/2021 9:45:00 AM 5.56 42.008 0.155 7.18 77.35 11.31
3/21/2021 10:00:00 AM 5.59 42.062 0.143 7.18 51.74 11.33
3/21/2021 10:15:00 AM 5.65 42.17 0.145 7.19 113.6 11.39
3/21/2021 10:30:00 AM 5.68 42.224 0.149 7.19 76.88 11.42
3/21/2021 10:45:00 AM 5.76 42.368 0.15 7.2 52.99 11.45
3/21/2021 11:00:00 AM 5.87 42.566 0.147 7.19 36.49 11.5
3/21/2021 11:15:00 AM 5.95 42.71 0.145 7.2 31.14 11.54
3/21/2021 11:30:00 AM 6.07 42.926 0.146 7.21 32.31 11.59
3/21/2021 11:45:00 AM 6.2 43.16 0.159 7.21 46.87 11.63
3/21/2021 12:00:00 PM 6.34 43.412 0.148 7.22 33.45 11.67
3/21/2021 12:15:00 PM 6.45 43.61 0.145 7.23 73.6 11.71
3/21/2021 12:30:00 PM 6.62 43.916 0.145 7.23 31.13 11.74
3/21/2021 12:45:00 PM 6.74 44.132 0.144 7.23 32.33 11.78
3/21/2021 1:00:00 PM 6.91 44.438 0.15 7.24 33.73 11.81
3/21/2021 1:15:00 PM 7.07 44.726 0.146 7.25 33.07 11.83
3/21/2021 1:30:00 PM 7.21 44.978 0.142 7.26 34.22 11.87
3/21/2021 1:45:00 PM 7.36 45.248 0.144 7.26 33.52 11.9
3/21/2021 2:00:00 PM 7.48 45.464 0.149 7.27 34.05 11.94
3/21/2021 2:15:00 PM 7.61 45.698 0.144 7.27 39.79 11.97
3/21/2021 2:30:00 PM 7.74 45.932 0.14 7.29 55.96 11.98
3/21/2021 2:45:00 PM 7.83 46.094 0.155 7.3 37.49 12.02
3/21/2021 3:00:00 PM 7.95 46.31 0.154 7.31 45.84 12.03
3/21/2021 3:15:00 PM 8.05 46.49 0.143 7.32 63.63 12.05
3/21/2021 3:30:00 PM 8.14 46.652 0.155 7.33 49.13 12.09
3/21/2021 3:45:00 PM 8.24 46.832 0.152 7.34 73.05 12.1
3/21/2021 4:00:00 PM 8.29 46.922 0.144 7.34 94.03 12.11
3/21/2021 4:15:00 PM 8.35 47.03 0.14 7.35 34.63 12.11
3/21/2021 4:30:00 PM 8.4 47.12 0.14 7.35 58.91 12.15
3/21/2021 4:45:00 PM 8.43 47.174 0.14 7.36 41.38 12.14
3/21/2021 5:00:00 PM 8.47 47.246 0.139 7.37 33.56 12.1
3/21/2021 5:15:00 PM 8.48 47.264 0.141 7.38 38.77 12.14
3/21/2021 5:30:00 PM 8.52 47.336 0.162 7.39 34.73 12.12
3/21/2021 5:45:00 PM 8.51 47.318 0.155 7.39 34.16 12.12
3/21/2021 6:00:00 PM 8.51 47.318 0.154 7.39 53.42 12.1
3/21/2021 6:15:00 PM 8.54 47.372 0.152 7.4 33.75 12.07
3/21/2021 6:30:00 PM 8.5 47.3 0.148 7.4 60.41 12.05
3/21/2021 6:45:00 PM 8.54 47.372 0.147 7.4 74.94 12.02
3/21/2021 7:00:00 PM 8.53 47.354 0.15 7.4 91.82 11.98
3/21/2021 7:15:00 PM 8.54 47.372 0.147 7.4 92.33 11.95
3/21/2021 7:30:00 PM 8.56 47.408 0.156 7.4 41.86 11.91
3/21/2021 7:45:00 PM 8.52 47.336 0.153 7.4 39.52 11.88
3/21/2021 8:00:00 PM 8.54 47.372 0.147 7.4 52.56 11.85
3/21/2021 8:15:00 PM 8.54 47.372 0.148 7.4 34.7 11.79
3/21/2021 8:30:00 PM 8.52 47.336 0.156 7.4 32.89 11.77
3/21/2021 8:45:00 PM 8.5 47.3 0.152 7.39 36.23 11.73
3/21/2021 9:00:00 PM 8.52 47.336 0.158 7.39 36.75 11.7
3/21/2021 9:15:00 PM 8.5 47.3 0.14 7.38 42.05 11.66
3/21/2021 9:30:00 PM 8.49 47.282 0.156 7.38 75.31 11.64
3/21/2021 9:45:00 PM 8.49 47.282 0.158 7.38 34.99 11.59
3/21/2021 10:00:00 PM 8.45 47.21 0.161 7.37 92.17 11.55
3/21/2021 10:15:00 PM 8.43 47.174 0.151 7.37 55.93 11.52
3/21/2021 10:30:00 PM 8.41 47.138 0.156 7.37 48.77 11.47
3/21/2021 10:45:00 PM 8.38 47.084 0.153 7.36 69.4 11.43
3/21/2021 11:00:00 PM 8.34 47.012 0.149 7.35 43.71 11.43
3/21/2021 11:15:00 PM 8.33 46.994 0.156 7.36 50.53 11.36
3/21/2021 11:30:00 PM 8.29 46.922 0.159 7.35 36.79 11.33
3/21/2021 11:45:00 PM 8.26 46.868 0.163 7.34 35.13 11.29
3/22/2021 12:00:00 AM 8.23 46.814 0.15 7.33 35.55 11.25
3/22/2021 12:15:00 AM 8.2 46.76 0.16 7.33 65.63 11.21
3/22/2021 12:30:00 AM 8.17 46.706 0.157 7.33 158.8 11.16
3/22/2021 12:45:00 AM 8.13 46.634 0.149 7.32 37.71 11.14
3/22/2021 1:00:00 AM 8.09 46.562 0.163 7.32 42.45 11.1
3/22/2021 1:15:00 AM 8.05 46.49 0.162 7.31 50.9 11.08
3/22/2021 1:30:00 AM 8.03 46.454 0.164 7.3 33.78 11.01
3/22/2021 1:45:00 AM 7.97 46.346 0.163 7.3 50.61 10.99
3/22/2021 2:00:00 AM 7.93 46.274 0.163 7.3 39.68 10.98
3/22/2021 2:15:00 AM 7.88 46.184 0.164 7.29 35.86 10.94
3/22/2021 2:30:00 AM 7.83 46.094 0.163 7.28 52.35 10.93
3/22/2021 2:45:00 AM 7.78 46.004 0.163 7.28 89.56 10.91
3/22/2021 3:00:00 AM 7.73 45.914 0.163 7.28 138.1 10.9
3/22/2021 3:15:00 AM 7.68 45.824 0.163 7.27 164 10.89
3/22/2021 3:30:00 AM 7.62 45.716 0.164 7.26 57.03 10.85
3/22/2021 3:45:00 AM 7.56 45.608 0.164 7.26 38.03 10.83
3/22/2021 4:00:00 AM 7.51 45.518 0.164 7.25 31.28 10.84
3/22/2021 4:15:00 AM 7.45 45.41 0.163 7.25 31.71 10.85
3/22/2021 4:30:00 AM 7.39 45.302 0.163 7.25 43.93 10.82
3/22/2021 4:45:00 AM 7.33 45.194 0.163 7.25 32.44 10.81
3/22/2021 5:00:00 AM 7.27 45.086 0.164 7.24 30.8 10.8
3/22/2021 5:15:00 AM 7.2 44.96 0.164 7.24 33.28 10.79
3/22/2021 5:30:00 AM 7.14 44.852 0.164 7.23 32.62 10.79
3/22/2021 5:45:00 AM 7.09 44.762 0.164 7.23 34.99 10.79
3/22/2021 6:00:00 AM 7.02 44.636 0.164 7.22 34.5 10.78
3/22/2021 6:15:00 AM 6.97 44.546 0.164 7.22 34.76 10.77
3/22/2021 6:30:00 AM 6.93 44.474 0.164 7.21 34.54 10.76
3/22/2021 6:45:00 AM 6.85 44.33 0.164 7.21 32.74 10.76
3/22/2021 7:00:00 AM 6.8 44.24 0.164 7.21 32.2 10.74
3/22/2021 7:15:00 AM 6.77 44.186 0.164 7.2 29.54 10.76
3/22/2021 7:30:00 AM 6.71 44.078 0.164 7.2 30.27 10.76
3/22/2021 7:45:00 AM 6.67 44.006 0.164 7.2 30.06 10.78
3/22/2021 8:00:00 AM 6.63 43.934 0.164 7.19 29.82 10.79
3/22/2021 8:15:00 AM 6.6 43.88 0.163 7.19 30.45 10.8
3/22/2021 8:30:00 AM 6.56 43.808 0.164 7.19 30.63 10.79
3/22/2021 8:45:00 AM 6.55 43.79 0.163 7.19 30.58 10.83
3/22/2021 9:00:00 AM 6.52 43.736 0.164 7.19 40.31 10.86
3/22/2021 9:15:00 AM 6.53 43.754 0.163 7.19 29.37 10.87
3/22/2021 9:30:00 AM 6.53 43.754 0.163 7.19 31.41 10.91
3/22/2021 9:45:00 AM 6.57 43.826 0.163 7.19 32.81 10.95
3/22/2021 10:00:00 AM 6.6 43.88 0.163 7.19 32.12 10.99
3/22/2021 10:15:00 AM 6.63 43.934 0.163 7.2 32.88 11.03
3/22/2021 10:30:00 AM 6.69 44.042 0.163 7.2 33.27 11.07
3/22/2021 10:45:00 AM 6.76 44.168 0.163 7.2 31.71 11.12
3/22/2021 11:00:00 AM 6.87 44.366 0.162 7.21 33.86 11.16
3/22/2021 11:15:00 AM 6.94 44.492 0.163 7.21 32.67 11.21
3/22/2021 11:30:00 AM 7.05 44.69 0.163 7.22 37.08 11.27
3/22/2021 11:45:00 AM 7.19 44.942 0.163 7.22 33.66 11.32
3/22/2021 12:00:00 PM 7.32 45.176 0.163 7.23 32.71 11.37
3/22/2021 12:15:00 PM 7.44 45.392 0.163 7.24 34.24 11.41
3/22/2021 12:30:00 PM 7.58 45.644 0.163 7.24 33.72 11.46
3/22/2021 12:45:00 PM 7.74 45.932 0.162 7.26 34.84 11.5
3/22/2021 1:00:00 PM 7.9 46.22 0.162 7.27 36 11.55
3/22/2021 1:15:00 PM 8.04 46.472 0.162 7.27 38.48 11.57
3/22/2021 1:30:00 PM 8.19 46.742 0.162 7.28 36.21 11.61
3/22/2021 1:45:00 PM 8.32 46.976 0.162 7.29 37.04 11.65
3/22/2021 2:00:00 PM 8.46 47.228 0.162 7.3 38.5 11.69
3/22/2021 2:15:00 PM 8.59 47.462 0.162 7.31 46 11.71
3/22/2021 2:30:00 PM 8.71 47.678 0.162 7.32 46.06 11.74
3/22/2021 2:45:00 PM 8.82 47.876 0.162 7.33 47.46 11.78
3/22/2021 3:00:00 PM 8.91 48.038 0.162 7.34 46.8 11.83
3/22/2021 3:15:00 PM 8.98 48.164 0.162 7.35 45.6 11.85
3/22/2021 3:30:00 PM 9.08 48.344 0.162 7.36 45.26 11.86
3/22/2021 3:45:00 PM 9.14 48.452 0.162 7.37 48.92 11.88
3/22/2021 4:00:00 PM 9.22 48.596 0.162 7.38 48.08 11.89
3/22/2021 4:15:00 PM 9.28 48.704 0.162 7.39 52.94 11.94
3/22/2021 4:30:00 PM 9.3 48.74 0.162 7.41 52.12 11.9
3/22/2021 4:45:00 PM 9.34 48.812 0.162 7.41 55.28 11.94
3/22/2021 5:00:00 PM 9.41 48.938 0.163 7.42 50.46 11.91
3/22/2021 5:15:00 PM 9.38 48.884 0.162 7.43 49.59 11.93
3/22/2021 5:30:00 PM 9.41 48.938 0.162 7.43 52.72 11.92
3/22/2021 5:45:00 PM 9.42 48.956 0.162 7.44 45.7 11.91
3/22/2021 6:00:00 PM 9.41 48.938 0.162 7.44 48.83 11.9
3/22/2021 6:15:00 PM 9.38 48.884 0.162 7.45 48.88 11.87
3/22/2021 6:30:00 PM 9.42 48.956 0.162 7.45 55.81 11.83
3/22/2021 6:45:00 PM 9.43 48.974 0.163 7.45 52.74 11.81
3/22/2021 7:00:00 PM 9.4 48.92 0.162 7.46 51.29 11.78
3/22/2021 7:15:00 PM 9.39 48.902 0.162 7.45 57.75 11.74
3/22/2021 7:30:00 PM 9.39 48.902 0.162 7.46 57.09 11.7
3/22/2021 7:45:00 PM 9.37 48.866 0.162 7.45 53.95 11.67
3/22/2021 8:00:00 PM 9.38 48.884 0.162 7.44 49.67 11.63
3/22/2021 8:15:00 PM 9.37 48.866 0.162 7.45 61.9 11.57
3/22/2021 8:30:00 PM 9.35 48.83 0.162 7.45 54.34 11.55
3/22/2021 8:45:00 PM 9.36 48.848 0.163 7.44 55.72 11.5
3/22/2021 9:00:00 PM 9.34 48.812 0.163 7.43 54.61 11.47
3/22/2021 9:15:00 PM 9.32 48.776 0.163 7.44 53.83 11.42
3/22/2021 9:30:00 PM 9.31 48.758 0.163 7.43 56.07 11.37
3/22/2021 9:45:00 PM 9.29 48.722 0.163 7.43 57.35 11.33
3/22/2021 10:00:00 PM 9.27 48.686 0.163 7.42 58.62 11.3
3/22/2021 10:15:00 PM 9.25 48.65 0.163 7.42 56.81 11.26
3/22/2021 10:30:00 PM 9.22 48.596 0.163 7.41 60 11.24
3/22/2021 10:45:00 PM 9.19 48.542 0.163 7.41 62.05 11.19
3/22/2021 11:00:00 PM 9.17 48.506 0.163 7.4 61.58 11.14
3/22/2021 11:15:00 PM 9.13 48.434 0.163 7.39 57.49 11.12
3/22/2021 11:30:00 PM 9.09 48.362 0.164 7.39 60.09 11.07
3/22/2021 11:45:00 PM 9.06 48.308 0.163 7.38 58.29 11.03
3/23/2021 12:00:00 AM 9.03 48.254 0.164 7.37 58.75 10.99
3/23/2021 12:15:00 AM 9 48.2 0.164 7.37 57.99 10.93
3/23/2021 12:30:00 AM 8.96 48.128 0.165 7.36 58.96 10.9
3/23/2021 12:45:00 AM 8.92 48.056 0.164 7.35 63.57 10.88
3/23/2021 1:00:00 AM 8.88 47.984 0.164 7.35 61.76 10.84
3/23/2021 1:15:00 AM 8.84 47.912 0.164 7.34 57.91 10.8
3/23/2021 1:30:00 AM 8.8 47.84 0.165 7.34 63.13 10.77
3/23/2021 1:45:00 AM 8.76 47.768 0.164 7.33 66.55 10.75
3/23/2021 2:00:00 AM 8.71 47.678 0.165 7.32 65.09 10.7
3/23/2021 2:15:00 AM 8.67 47.606 0.165 7.32 63.29 10.66
3/23/2021 2:30:00 AM 8.63 47.534 0.164 7.31 64.99 10.66
3/23/2021 2:45:00 AM 8.58 47.444 0.165 7.31 71.18 10.63
3/23/2021 3:00:00 AM 8.54 47.372 0.165 7.3 61.02 10.61
3/23/2021 3:15:00 AM 8.49 47.282 0.165 7.29 63.25 10.58
3/23/2021 3:30:00 AM 8.44 47.192 0.165 7.29 61.15 10.57
3/23/2021 3:45:00 AM 8.4 47.12 0.165 7.29 70.77 10.56
3/23/2021 4:00:00 AM 8.33 46.994 0.165 7.28 63.1 10.54
3/23/2021 4:15:00 AM 8.28 46.904 0.165 7.28 66.57 10.52
3/23/2021 4:30:00 AM 8.21 46.778 0.165 7.27 62.43 10.5
3/23/2021 4:45:00 AM 8.16 46.688 0.165 7.27 60.06 10.48
3/23/2021 5:00:00 AM 8.11 46.598 0.165 7.27 72.33 10.49
3/23/2021 5:15:00 AM 8.04 46.472 0.165 7.26 62.88 10.48
3/23/2021 5:30:00 AM 7.97 46.346 0.166 7.26 66.13 10.47
3/23/2021 5:45:00 AM 7.93 46.274 0.165 7.25 66.61 10.47
3/23/2021 6:00:00 AM 7.85 46.13 0.165 7.25 67.59 10.45
3/23/2021 6:15:00 AM 7.8 46.04 0.165 7.24 65.88 10.45
3/23/2021 6:30:00 AM 7.74 45.932 0.166 7.24 65.62 10.46
3/23/2021 6:45:00 AM 7.66 45.788 0.166 7.24 61.17 10.45
3/23/2021 7:00:00 AM 7.61 45.698 0.166 7.23 65.53 10.45
3/23/2021 7:15:00 AM 7.56 45.608 0.166 7.22 63.83 10.45
3/23/2021 7:30:00 AM 7.52 45.536 0.166 7.23 60.29 10.45
3/23/2021 7:45:00 AM 7.46 45.428 0.166 7.23 61.33 10.46
3/23/2021 8:00:00 AM 7.44 45.392 0.166 7.22 62.36 10.46
3/23/2021 8:15:00 AM 7.38 45.284 0.166 7.22 63.26 10.48
3/23/2021 8:30:00 AM 7.37 45.266 0.166 7.21 61.27 10.49
3/23/2021 8:45:00 AM 7.36 45.248 0.166 7.22 60.57 10.53
3/23/2021 9:00:00 AM 7.34 45.212 0.166 7.22 69.15 10.56
3/23/2021 9:15:00 AM 7.33 45.194 0.166 7.21 69.22 10.59
3/23/2021 9:30:00 AM 7.33 45.194 0.166 7.21 69.79 10.61
3/23/2021 9:45:00 AM 7.34 45.212 0.166 7.22 73.29 10.66
3/23/2021 10:00:00 AM 7.39 45.302 0.166 7.22 68.4 10.71
3/23/2021 10:15:00 AM 7.44 45.392 0.166 7.23 74.72 10.74
3/23/2021 10:30:00 AM 7.53 45.554 0.166 7.22 71.46 10.8
3/23/2021 10:45:00 AM 7.59 45.662 0.166 7.23 72.55 10.86
3/23/2021 11:00:00 AM 7.64 45.752 0.167 7.24 82.54 10.9
3/23/2021 11:15:00 AM 7.76 45.968 0.166 7.24 83.97 10.96
3/23/2021 11:30:00 AM 7.88 46.184 0.165 7.25 85.6 11.01
3/23/2021 11:45:00 AM 7.99 46.382 0.166 7.26 84.91 11.07
3/23/2021 12:00:00 PM 8.1 46.58 0.166 7.27 65.79 11.12
3/23/2021 12:15:00 PM 8.25 46.85 0.166 7.27 66.79 11.19
3/23/2021 12:30:00 PM 8.39 47.102 0.167 7.28 70.39 11.24
3/23/2021 12:45:00 PM 8.54 47.372 0.166 7.29 64.85 11.29
3/23/2021 1:00:00 PM 8.68 47.624 0.167 7.3 68.65 11.34
3/23/2021 1:15:00 PM 8.82 47.876 0.167 7.31 69.57 11.39
3/23/2021 1:30:00 PM 8.93 48.074 0.166 7.33 68.92 11.42
3/23/2021 1:45:00 PM 9.05 48.29 0.167 7.33 107.2 11.49
3/23/2021 2:00:00 PM 9.14 48.452 0.167 7.34 144.3 11.54
3/23/2021 2:15:00 PM 9.27 48.686 0.166 7.35 76 11.56
3/23/2021 2:30:00 PM 9.37 48.866 0.166 7.36 141.2 11.61
3/23/2021 2:45:00 PM 9.42 48.956 0.166 7.37 77.19 11.67
3/23/2021 3:00:00 PM 9.46 49.028 0.166 7.39 115.6 11.71
3/23/2021 3:15:00 PM 9.51 49.118 0.166 7.4 176.2 11.74
3/23/2021 3:30:00 PM 9.62 49.316 0.166 7.41 83.47 11.79
3/23/2021 3:45:00 PM 9.68 49.424 0.166 7.42 81.21 11.81
3/23/2021 4:00:00 PM 9.76 49.568 0.166 7.43 75.32 11.84
3/23/2021 4:15:00 PM 9.77 49.586 0.166 7.44 78.43 11.83
3/23/2021 4:30:00 PM 9.8 49.64 0.166 7.45 221.1 11.88
3/23/2021 4:45:00 PM 9.82 49.676 0.166 7.46 79.62 11.89
3/23/2021 5:00:00 PM 9.84 49.712 0.166 7.46 170.3 11.9
3/23/2021 5:15:00 PM 9.9 49.82 0.166 7.47 89.26 11.9
3/23/2021 5:30:00 PM 9.91 49.838 0.166 7.49 109.2 11.92
3/23/2021 5:45:00 PM 9.95 49.91 0.166 7.49 84.89 11.9
3/23/2021 6:00:00 PM 9.93 49.874 0.165 7.5 84.97 11.9
3/23/2021 6:15:00 PM 9.96 49.928 0.166 7.5 147.5 11.9
3/23/2021 6:30:00 PM 10.01 50.018 0.166 7.51 113.6 11.84
3/23/2021 6:45:00 PM 9.99 49.982 0.165 7.51 94.66 11.84
3/23/2021 7:00:00 PM 10.01 50.018 0.166 7.52 84.28 11.82
3/23/2021 7:15:00 PM 10.02 50.036 0.166 7.52 102.7 11.76
3/23/2021 7:30:00 PM 10.02 50.036 0.166 7.52 90.23 11.7
3/23/2021 7:45:00 PM 10.02 50.036 0.165 7.52 97.35 11.69
3/23/2021 8:00:00 PM 10.03 50.054 0.166 7.52 93.79 11.65
3/23/2021 8:15:00 PM 10.04 50.072 0.166 7.52 107.9 11.6
3/23/2021 8:30:00 PM 10.03 50.054 0.166 7.51 112 11.54
3/23/2021 8:45:00 PM 10.03 50.054 0.166 7.51 97.92 11.51
3/23/2021 9:00:00 PM 10.04 50.072 0.166 7.5 96.43 11.46
3/23/2021 9:15:00 PM 10.02 50.036 0.166 7.49 100.2 11.41
3/23/2021 9:30:00 PM 10 50 0.166 7.49 98.24 11.38
3/23/2021 9:45:00 PM 10.01 50.018 0.167 7.49 103.4 11.31
3/23/2021 10:00:00 PM 9.98 49.964 0.166 7.48 102.8 11.28
3/23/2021 10:15:00 PM 9.98 49.964 0.166 7.47 166 11.24
3/23/2021 10:30:00 PM 9.95 49.91 0.166 7.47 117.7 11.21
3/23/2021 10:45:00 PM 9.94 49.892 0.166 7.46 142.5 11.15
3/23/2021 11:00:00 PM 9.92 49.856 0.166 7.45 108 11.1
3/23/2021 11:15:00 PM 9.91 49.838 0.166 7.45 114.1 11.08
3/23/2021 11:30:00 PM 9.9 49.82 0.166 7.44 121.6 11.02
3/23/2021 11:45:00 PM 9.88 49.784 0.166 7.43 115.8 10.97
3/24/2021 12:00:00 AM 9.87 49.766 0.166 7.43 129.1 10.92
3/24/2021 12:15:00 AM 9.85 49.73 0.166 7.42 140.1 10.88
3/24/2021 12:30:00 AM 9.82 49.676 0.166 7.41 115.1 10.85
3/24/2021 12:45:00 AM 9.81 49.658 0.166 7.41 122.5 10.78
3/24/2021 1:00:00 AM 9.79 49.622 0.166 7.39 119.3 10.74
3/24/2021 1:15:00 AM 9.78 49.604 0.166 7.39 121.2 10.7
3/24/2021 1:30:00 AM 9.77 49.586 0.167 7.38 130.4 10.67
3/24/2021 1:45:00 AM 9.75 49.55 0.166 7.38 130.6 10.65
3/24/2021 2:00:00 AM 9.75 49.55 0.167 7.37 209.3 10.59
3/24/2021 2:15:00 AM 9.74 49.532 0.167 7.36 137.1 10.54
3/24/2021 2:30:00 AM 9.73 49.514 0.167 7.35 148.3 10.5
3/24/2021 2:45:00 AM 9.72 49.496 0.168 7.35 128.3 10.46
3/24/2021 3:00:00 AM 9.71 49.478 0.168 7.34 138.6 10.41
3/24/2021 3:15:00 AM 9.69 49.442 0.168 7.34 203.1 10.38
3/24/2021 3:30:00 AM 9.68 49.424 0.167 7.34 166.8 10.36
3/24/2021 3:45:00 AM 9.67 49.406 0.168 7.33 139.3 10.33
3/24/2021 4:00:00 AM 9.65 49.37 0.167 7.33 138.4 10.31
3/24/2021 4:15:00 AM 9.64 49.352 0.168 7.31 147.7 10.26
3/24/2021 4:30:00 AM 9.63 49.334 0.167 7.31 145.2 10.26
3/24/2021 4:45:00 AM 9.61 49.298 0.167 7.3 144.4 10.21
3/24/2021 5:00:00 AM 9.59 49.262 0.167 7.3 141.8 10.2
3/24/2021 5:15:00 AM 9.58 49.244 0.168 7.3 144.4 10.16
3/24/2021 5:30:00 AM 9.56 49.208 0.167 7.29 150.5 10.16
3/24/2021 5:45:00 AM 9.54 49.172 0.167 7.28 156.3 10.13
3/24/2021 6:00:00 AM 9.52 49.136 0.168 7.29 172.9 10.11
3/24/2021 6:15:00 AM 9.5 49.1 0.168 7.28 153.9 10.09
3/24/2021 6:30:00 AM 9.48 49.064 0.161 7.28 169 10.07
3/24/2021 6:45:00 AM 9.46 49.028 0.161 7.27 205.3 10.06
3/24/2021 7:00:00 AM 9.45 49.01 0.161 7.27 157.4 10.04
3/24/2021 7:15:00 AM 9.42 48.956 0.168 7.26 156.8 10.03
3/24/2021 7:30:00 AM 9.41 48.938 0.158 7.26 160.3 10.01
3/24/2021 7:45:00 AM 9.4 48.92 0.168 7.26 164.6 9.99
3/24/2021 8:00:00 AM 9.38 48.884 0.168 7.26 168.1 9.96
3/24/2021 8:15:00 AM 9.37 48.866 0.153 7.25 171.9 9.96
3/24/2021 8:30:00 AM 9.36 48.848 0.168 7.26 174.3 9.95
3/24/2021 8:45:00 AM 9.35 48.83 0.167 7.25 185.9 9.95
3/24/2021 9:00:00 AM 9.34 48.812 0.155 7.25 203.6 9.96
3/24/2021 9:15:00 AM 9.33 48.794 0.166 7.24 199 9.94
3/24/2021 9:30:00 AM 9.33 48.794 0.167 7.25 230.2 9.96
3/24/2021 9:45:00 AM 9.32 48.776 0.157 7.24 211.1 9.96
3/24/2021 10:00:00 AM 9.32 48.776 0.153 7.24 235.7 9.97
3/24/2021 10:15:00 AM 9.32 48.776 0.167 7.25 248.9 9.98
3/24/2021 10:30:00 AM 9.31 48.758 0.167 7.25 250.8 9.99
3/24/2021 10:45:00 AM 9.31 48.758 0.168 7.25 269.9 10.02
3/24/2021 11:00:00 AM 9.3 48.74 0.169 7.25 252.5 10.04
3/24/2021 11:15:00 AM 9.29 48.722 0.17 7.27 307 10.07
3/24/2021 11:30:00 AM 9.27 48.686 0.17 7.27 264.2 10.12
3/24/2021 11:45:00 AM 9.27 48.686 0.17 7.28 278.4 10.18
3/24/2021 12:00:00 PM 9.26 48.668 0.168 7.28 303.9 10.18
3/24/2021 12:15:00 PM 9.26 48.668 0.164 7.29 351.1 10.18
3/24/2021 12:30:00 PM 9.27 48.686 0.163 7.28 404.3 10.2
3/24/2021 12:45:00 PM 9.26 48.668 0.161 7.29 457.8 10.19
3/24/2021 1:00:00 PM 9.27 48.686 0.16 7.27 562.1 10.18
3/24/2021 1:15:00 PM 9.29 48.722 0.16 7.28 679.8 10.17
3/24/2021 1:30:00 PM 9.32 48.776 0.16 7.28 695 10.17
3/24/2021 1:45:00 PM 9.32 48.776 0.151 7.28 799 10.14
3/24/2021 2:00:00 PM 9.35 48.83 0.148 7.27 527.5 10.18
3/24/2021 2:15:00 PM 9.35 48.83 0.157 7.27 1090 10.15
3/24/2021 2:30:00 PM 9.38 48.884 0.158 7.27 1012 10.17
3/24/2021 2:45:00 PM 9.41 48.938 0.15 7.27 1126 10.19
3/24/2021 3:00:00 PM 9.43 48.974 0.155 7.28 1184 10.17
3/24/2021 3:15:00 PM 9.46 49.028 0.16 7.27 1108 10.19
3/24/2021 3:30:00 PM 9.47 49.046 0.164 7.28 1616 10.25
3/24/2021 3:45:00 PM 9.49 49.082 0.152 7.28 800.9 10.22
3/24/2021 4:00:00 PM 9.52 49.136 0.157 7.29 770.5 10.27
3/24/2021 4:15:00 PM 9.54 49.172 0.159 7.29 784.3 10.28
3/24/2021 4:30:00 PM 9.56 49.208 0.169 7.3 719.8 10.3
3/24/2021 4:45:00 PM 9.59 49.262 0.169 7.29 760.8 10.28
3/24/2021 5:00:00 PM 9.6 49.28 0.171 7.31 605.9 10.32
3/24/2021 5:15:00 PM 9.64 49.352 0.169 7.32 641.1 10.29
3/24/2021 5:30:00 PM 9.64 49.352 0.173 7.31 588 10.28
3/24/2021 5:45:00 PM 9.64 49.352 0.175 7.33 636.8 10.28
3/24/2021 6:00:00 PM 9.64 49.352 0.177 7.33 670.5 10.28
3/24/2021 6:15:00 PM 9.66 49.388 0.172 7.34 686.8 10.24
3/24/2021 6:30:00 PM 9.66 49.388 0.171 7.34 439.8 10.23
3/24/2021 6:45:00 PM 9.68 49.424 0.178 7.34 441.6 10.23
3/24/2021 7:00:00 PM 9.68 49.424 0.179 7.34 443 10.2
3/24/2021 7:15:00 PM 9.69 49.442 0.179 7.35 457 10.21
3/24/2021 7:30:00 PM 9.7 49.46 0.178 7.35 458.1 10.18
3/24/2021 7:45:00 PM 9.71 49.478 0.178 7.35 370.2 10.19
3/24/2021 8:00:00 PM 9.71 49.478 0.175 7.35 419.1 10.19
3/24/2021 8:15:00 PM 9.73 49.514 0.167 7.35 401.7 10.17
3/24/2021 8:30:00 PM 9.73 49.514 0.171 7.34 435.5 10.19
3/24/2021 8:45:00 PM 9.74 49.532 0.168 7.35 496.8 10.16
3/24/2021 9:00:00 PM 9.75 49.55 0.177 7.35 490.7 10.17
3/24/2021 9:15:00 PM 9.75 49.55 0.173 7.35 468.7 10.15
3/24/2021 9:30:00 PM 9.76 49.568 0.175 7.35 476 10.16
3/24/2021 9:45:00 PM 9.76 49.568 0.17 7.35 489.9 10.16
3/24/2021 10:00:00 PM 9.76 49.568 0.174 7.34 552 10.13
3/24/2021 10:15:00 PM 9.76 49.568 0.174 7.35 591.1 10.12
3/24/2021 10:30:00 PM 9.76 49.568 0.174 7.35 664.1 10.1
3/24/2021 10:45:00 PM 9.75 49.55 0.174 7.34 472.6 10.08
3/24/2021 11:00:00 PM 9.74 49.532 0.174 7.34 397.5 10.06
3/24/2021 11:15:00 PM 9.73 49.514 0.177 7.34 417.8 10.05
3/24/2021 11:30:00 PM 9.73 49.514 0.175 7.34 553.4 10.03
3/24/2021 11:45:00 PM 9.71 49.478 0.18 7.34 522.8 10
3/25/2021 12:00:00 AM 9.71 49.478 0.182 7.33 554.6 9.98
3/25/2021 12:15:00 AM 9.69 49.442 0.184 7.33 536.6 9.96
3/25/2021 12:30:00 AM 9.68 49.424 0.185 7.34 569.5 9.95
3/25/2021 12:45:00 AM 9.68 49.424 0.186 7.33 548.6 9.93
3/25/2021 1:00:00 AM 9.67 49.406 0.187 7.32 625 9.92
3/25/2021 1:15:00 AM 9.66 49.388 0.188 7.32 440.2 9.9
3/25/2021 1:30:00 AM 9.66 49.388 0.188 7.32 454.8 9.89
3/25/2021 1:45:00 AM 9.65 49.37 0.189 7.32 960.8 9.89
3/25/2021 2:00:00 AM 9.65 49.37 0.188 7.32 192.5 9.86
3/25/2021 2:15:00 AM 9.66 49.388 0.187 7.32 177.7 9.86
3/25/2021 2:30:00 AM 9.65 49.37 0.187 7.32 162 9.86
3/25/2021 2:45:00 AM 9.66 49.388 0.186 7.32 166.3 9.85
3/25/2021 3:00:00 AM 9.65 49.37 0.185 7.32 159.4 9.84
3/25/2021 3:15:00 AM 9.65 49.37 0.184 7.31 155.7 9.81
3/25/2021 3:30:00 AM 9.65 49.37 0.182 7.31 160.4 9.83
3/25/2021 3:45:00 AM 9.64 49.352 0.181 7.31 171.4 9.83
3/25/2021 4:00:00 AM 9.64 49.352 0.179 7.31 175.7 9.82
3/25/2021 4:15:00 AM 9.63 49.334 0.178 7.31 184.4 9.8
3/25/2021 4:30:00 AM 9.62 49.316 0.176 7.31 186.9 9.81
3/25/2021 4:45:00 AM 9.62 49.316 0.175 7.3 192 9.81
3/25/2021 5:00:00 AM 9.6 49.28 0.173 7.3 183.2 9.81
3/25/2021 5:15:00 AM 9.59 49.262 0.172 7.29 205.8 9.82
3/25/2021 5:30:00 AM 9.58 49.244 0.17 7.29 192.7 9.8
3/25/2021 5:45:00 AM 9.56 49.208 0.169 7.29 188.7 9.81
3/25/2021 6:00:00 AM 9.55 49.19 0.168 7.29 187.1 9.82
3/25/2021 6:15:00 AM 9.54 49.172 0.167 7.29 187 9.81
3/25/2021 6:30:00 AM 9.53 49.154 0.166 7.27 201.4 9.82
3/25/2021 6:45:00 AM 9.51 49.118 0.166 7.27 199 9.81
3/25/2021 7:00:00 AM 9.51 49.118 0.165 7.27 216.2 9.82
3/25/2021 7:15:00 AM 9.49 49.082 0.165 7.26 208.9 9.81
3/25/2021 7:30:00 AM 9.48 49.064 0.164 7.27 197.4 9.82
3/25/2021 7:45:00 AM 9.48 49.064 0.164 7.26 199.6 9.82
3/25/2021 8:00:00 AM 9.47 49.046 0.164 7.26 193.7 9.8
3/25/2021 8:15:00 AM 9.47 49.046 0.164 7.26 210.1 9.81
3/25/2021 8:30:00 AM 9.47 49.046 0.164 7.26 386.5 9.83
3/25/2021 8:45:00 AM 9.48 49.064 0.165 7.26 175.7 9.82
3/25/2021 9:00:00 AM 9.48 49.064 0.165 7.26 181.6 9.83
3/25/2021 9:15:00 AM 9.49 49.082 0.165 7.26 193.8 9.83
3/25/2021 9:30:00 AM 9.5 49.1 0.165 7.25 198 9.83
3/25/2021 9:45:00 AM 9.52 49.136 0.165 7.26 200.1 9.84
3/25/2021 10:00:00 AM 9.52 49.136 0.165 7.25 175.2 9.85
3/25/2021 10:15:00 AM 9.54 49.172 0.165 7.25 189.7 9.86
3/25/2021 10:30:00 AM 9.55 49.19 0.165 7.25 172.5 9.86
3/25/2021 10:45:00 AM 9.57 49.226 0.165 7.25 172.3 9.88
3/25/2021 11:00:00 AM 9.58 49.244 0.165 7.25 190.8 9.88
3/25/2021 11:15:00 AM 9.6 49.28 0.165 7.25 181.9 9.9
3/25/2021 11:30:00 AM 9.61 49.298 0.165 7.26 170 9.91
3/25/2021 11:45:00 AM 9.63 49.334 0.165 7.25 167 9.93
3/25/2021 12:00:00 PM 9.66 49.388 0.166 7.26 149.5 9.93
3/25/2021 12:15:00 PM 9.69 49.442 0.166 7.25 201.5 9.97
3/25/2021 12:30:00 PM 9.71 49.478 0.165 7.26 187.6 9.97
3/25/2021 12:45:00 PM 9.73 49.514 0.166 7.26 208.3 9.99
3/25/2021 1:00:00 PM 9.75 49.55 0.165 7.26 175.8 9.99
3/25/2021 1:15:00 PM 9.76 49.568 0.165 7.26 173.3 10
3/25/2021 1:30:00 PM 9.79 49.622 0.165 7.26 200.8 10.02
3/25/2021 1:45:00 PM 9.82 49.676 0.165 7.26 174.8 10.01
3/25/2021 2:00:00 PM 9.85 49.73 0.165 7.26 188.5 10
3/25/2021 2:15:00 PM 9.88 49.784 0.165 7.27 203.5 10.02
3/25/2021 2:30:00 PM 9.91 49.838 0.165 7.26 193.6 10.02
3/25/2021 2:45:00 PM 9.95 49.91 0.165 7.27 226.5 10.02
3/25/2021 3:00:00 PM 9.98 49.964 0.165 7.27 220.5 10.03
3/25/2021 3:15:00 PM 10.01 50.018 0.166 7.27 251.3 10.04
3/25/2021 3:30:00 PM 10.06 50.108 0.167 7.27 255.6 10.05
3/25/2021 3:45:00 PM 10.08 50.144 0.164 7.27 253.2 10.05
3/25/2021 4:00:00 PM 10.15 50.27 0.168 7.27 236.9 10.06
3/25/2021 4:15:00 PM 10.18 50.324 0.165 7.27 270.2 10.07
3/25/2021 4:30:00 PM 10.22 50.396 0.163 7.27 283.5 10.09
3/25/2021 4:45:00 PM 10.25 50.45 0.158 7.27 307.3 10.11
3/25/2021 5:00:00 PM 10.25 50.45 0.165 7.27 309.7 10.1
3/25/2021 5:15:00 PM 10.27 50.486 0.165 7.27 306.1 10.12
3/25/2021 5:30:00 PM 10.29 50.522 0.163 7.28 294.3 10.12
3/25/2021 5:45:00 PM 10.31 50.558 0.161 7.28 411.6 10.12
3/25/2021 6:00:00 PM 10.31 50.558 0.158 7.27 342.5 10.13
3/25/2021 6:15:00 PM 10.33 50.594 0.163 7.28 294.6 10.16
3/25/2021 6:30:00 PM 10.35 50.63 0.161 7.28 366.1 10.16
3/25/2021 6:45:00 PM 10.36 50.648 0.152 7.29 616.5 10.14
3/25/2021 7:00:00 PM 10.35 50.63 0.153 7.29 663.1 10.15
3/25/2021 7:15:00 PM 10.37 50.666 0.16 7.29 1094 10.15
3/25/2021 7:30:00 PM 10.39 50.702 0.161 7.29 1670 10.13
3/25/2021 7:45:00 PM 10.42 50.756 0.16 7.29 1447 10.14
3/25/2021 8:00:00 PM 10.41 50.738 0.148 7.29 1049 10.15
3/25/2021 8:15:00 PM 10.45 50.81 0.162 7.3 2186 10.13
3/25/2021 8:30:00 PM 10.46 50.828 0.16 7.3 2649 10.13
3/25/2021 8:45:00 PM 10.45 50.81 0.161 7.3 2942 10.13
3/25/2021 9:00:00 PM 10.46 50.828 0.161 7.3 4140 10.13
3/25/2021 9:15:00 PM 10.46 50.828 0.161 7.3 490.9 10.12
3/25/2021 9:30:00 PM 10.49 50.882 0.161 7.3 19.73 10.11
3/25/2021 9:45:00 PM 10.49 50.882 0.161 7.3 18.46 10.09
3/25/2021 10:00:00 PM 10.52 50.936 0.161 7.3 17.25 10.08
3/25/2021 10:15:00 PM 10.53 50.954 0.161 7.31 16.26 10.07
3/25/2021 10:30:00 PM 10.54 50.972 0.161 7.3 17.3 10.07
3/25/2021 10:45:00 PM 10.53 50.954 0.161 7.3 14.95 10.03
3/25/2021 11:00:00 PM 10.57 51.026 0.161 7.3 15.93 10.02
3/25/2021 11:15:00 PM 10.56 51.008 0.161 7.3 15.25 10.02
3/25/2021 11:30:00 PM 10.6 51.08 0.161 7.29 15.79 9.96
3/25/2021 11:45:00 PM 10.58 51.044 0.161 7.3 16.67 9.98
3/26/2021 12:00:00 AM 10.59 51.062 0.161 7.29 61.91 9.96
3/26/2021 12:15:00 AM 10.57 51.026 0.161 7.3 14.31 9.96
3/26/2021 12:30:00 AM 10.6 51.08 0.162 7.29 14.93 9.9
3/26/2021 12:45:00 AM 10.6 51.08 0.162 7.29 15.33 9.91
3/26/2021 1:00:00 AM 10.58 51.044 0.161 7.29 14.01 9.91
3/26/2021 1:15:00 AM 10.59 51.062 0.162 7.29 16.73 9.88
3/26/2021 1:30:00 AM 10.61 51.098 0.162 7.28 14.74 9.86
3/26/2021 1:45:00 AM 10.6 51.08 0.16 7.28 15.19 9.85
3/26/2021 2:00:00 AM 10.62 51.116 0.162 7.28 17.44 9.84
3/26/2021 2:15:00 AM 10.61 51.098 0.162 7.28 14.22 9.82
3/26/2021 2:30:00 AM 10.6 51.08 0.162 7.28 14.22 9.81
3/26/2021 2:45:00 AM 10.62 51.116 0.163 7.28 16.43 9.79
3/26/2021 3:00:00 AM 10.61 51.098 0.163 7.28 13.36 9.79
3/26/2021 3:15:00 AM 10.63 51.134 0.163 7.28 13.83 9.76
3/26/2021 3:30:00 AM 10.62 51.116 0.163 7.28 13.65 9.78
3/26/2021 3:45:00 AM 10.63 51.134 0.163 7.28 16.16 9.75
3/26/2021 4:00:00 AM 10.63 51.134 0.163 7.28 15.95 9.73
3/26/2021 4:15:00 AM 10.62 51.116 0.163 7.27 12.5 9.73
3/26/2021 4:30:00 AM 10.62 51.116 0.163 7.28 19.07 9.72
3/26/2021 4:45:00 AM 10.63 51.134 0.164 7.27 13.55 9.71
3/26/2021 5:00:00 AM 10.63 51.134 0.164 7.27 14.64 9.69
3/26/2021 5:15:00 AM 10.61 51.098 0.164 7.27 16.84 9.67
3/26/2021 5:30:00 AM 10.62 51.116 0.164 7.28 11.15 9.65
3/26/2021 5:45:00 AM 10.6 51.08 0.164 7.27 12.49 9.66
3/26/2021 6:00:00 AM 10.61 51.098 0.165 7.27 15.63 9.62
3/26/2021 6:15:00 AM 10.59 51.062 0.164 7.27 13.78 9.64
3/26/2021 6:30:00 AM 10.58 51.044 0.164 7.26 13.06 9.58
3/26/2021 6:45:00 AM 10.58 51.044 0.165 7.27 10.37 9.58
3/26/2021 7:00:00 AM 10.58 51.044 0.165 7.26 16.72 9.57
3/26/2021 7:15:00 AM 10.6 51.08 0.166 7.26 13.33 9.55
3/26/2021 7:30:00 AM 10.58 51.044 0.165 7.26 13.24 9.54
3/26/2021 7:45:00 AM 10.58 51.044 0.165 7.26 10.57 9.54
3/26/2021 8:00:00 AM 10.59 51.062 0.165 7.26 10.17 9.52
3/26/2021 8:15:00 AM 10.59 51.062 0.165 7.26 13.14 9.55
3/26/2021 8:30:00 AM 10.6 51.08 0.165 7.26 48.9 9.56
3/26/2021 8:45:00 AM 10.63 51.134 0.166 7.26 9.78 9.51
3/26/2021 9:00:00 AM 10.65 51.17 0.166 7.26 8.82 9.56
3/26/2021 9:15:00 AM 10.7 51.26 0.166 7.26 8.39 9.57
3/26/2021 9:30:00 AM 10.75 51.35 0.166 7.26 14.94 9.6
3/26/2021 9:45:00 AM 10.79 51.422 0.166 7.26 7.87 9.62
3/26/2021 10:00:00 AM 10.85 51.53 0.166 7.27 7.34 9.64
3/26/2021 10:15:00 AM 10.92 51.656 0.166 7.27 5.61 9.69
3/26/2021 10:30:00 AM 11.03 51.854 0.166 7.27 8.74 9.7
3/26/2021 10:45:00 AM 11.15 52.07 0.166 7.28 6.38 9.74
3/26/2021 11:00:00 AM 11.24 52.232 0.166 7.29 7.43 9.77
3/26/2021 11:15:00 AM 11.38 52.484 0.167 7.3 6.03 9.8
3/26/2021 11:30:00 AM 11.5 52.7 0.167 7.3 6.57 9.83
3/26/2021 11:45:00 AM 11.63 52.934 0.167 7.31 7.14 9.88
3/26/2021 12:00:00 PM 11.8 53.24 0.167 7.33 7.28 9.92
3/26/2021 12:15:00 PM 11.97 53.546 0.167 7.33 7.24 9.96
3/26/2021 12:30:00 PM 12.14 53.852 0.168 7.35 9.46 10.02
3/26/2021 12:45:00 PM 12.31 54.158 0.168 7.36 8.23 10.05
3/26/2021 1:00:00 PM 12.48 54.464 0.168 7.37 7.63 10.08
3/26/2021 1:15:00 PM 12.61 54.698 0.168 7.38 7.04 10.14
3/26/2021 1:30:00 PM 12.69 54.842 0.168 7.39 20.1 10.16
3/26/2021 1:45:00 PM 12.76 54.968 0.167 7.4 9.68 10.17
3/26/2021 2:00:00 PM 12.91 55.238 0.165 7.4 9.92 10.2
3/26/2021 2:15:00 PM 13.02 55.436 0.167 7.41 9.78 10.25
3/26/2021 2:30:00 PM 13.14 55.652 0.168 7.43 10.78 10.26
3/26/2021 2:45:00 PM 13.26 55.868 0.167 7.44 9.6 10.31
3/26/2021 3:00:00 PM 13.35 56.03 0.167 7.45 9.21 10.32
3/26/2021 3:15:00 PM 13.4 56.12 0.167 7.47 6.4 10.36
3/26/2021 3:30:00 PM 13.48 56.264 0.167 7.48 9.14 10.36
3/26/2021 3:45:00 PM 13.56 56.408 0.167 7.48 7.53 10.39
3/26/2021 4:00:00 PM 13.66 56.588 0.167 7.5 52.39 10.41
3/26/2021 4:15:00 PM 13.75 56.75 0.167 7.51 69.42 10.42
3/26/2021 4:30:00 PM 13.8 56.84 0.167 7.52 40.95 10.43
3/26/2021 4:45:00 PM 13.86 56.948 0.167 7.54 40.79 10.42
3/26/2021 5:00:00 PM 13.84 56.912 0.166 7.54 38.63 10.45
3/26/2021 5:15:00 PM 13.85 56.93 0.167 7.54 234.2 10.44
3/26/2021 5:30:00 PM 13.89 57.002 0.167 7.56 193.7 10.42
3/26/2021 5:45:00 PM 13.79 56.822 0.167 7.57 335 10.39
3/26/2021 6:00:00 PM 13.79 56.822 0.167 7.57 6.95 10.37
3/26/2021 6:15:00 PM 13.79 56.822 0.167 7.57 5.76 10.35
3/26/2021 6:30:00 PM 13.77 56.786 0.167 7.57 7.28 10.31
3/26/2021 6:45:00 PM 13.74 56.732 0.167 7.56 7.19 10.28
3/26/2021 7:00:00 PM 13.73 56.714 0.167 7.56 6.49 10.26
3/26/2021 7:15:00 PM 13.73 56.714 0.167 7.55 5.44 10.21
3/26/2021 7:30:00 PM 13.68 56.624 0.168 7.56 5.92 10.19
3/26/2021 7:45:00 PM 13.7 56.66 0.166 7.55 7.11 10.16
3/26/2021 8:00:00 PM 13.71 56.678 0.167 7.53 5.41 10.11
3/26/2021 8:15:00 PM 13.68 56.624 0.167 7.53 5.76 10.1
3/26/2021 8:30:00 PM 13.68 56.624 0.167 7.53 4.75 10.06
3/26/2021 8:45:00 PM 13.65 56.57 0.167 7.54 7.27 10.05
3/26/2021 9:00:00 PM 13.63 56.534 0.167 7.53 5.88 10.01
3/26/2021 9:15:00 PM 13.58 56.444 0.166 7.52 5.17 10
3/26/2021 9:30:00 PM 13.57 56.426 0.167 7.51 5.28 9.95
3/26/2021 9:45:00 PM 13.54 56.372 0.166 7.5 23.81 9.92
3/26/2021 10:00:00 PM 13.5 56.3 0.165 7.5 5.64 9.89
3/26/2021 10:15:00 PM 13.51 56.318 0.166 7.5 5.55 9.83
3/26/2021 10:30:00 PM 13.48 56.264 0.169 7.49 5.82 9.81
3/26/2021 10:45:00 PM 13.44 56.192 0.167 7.49 5.11 9.78
3/26/2021 11:00:00 PM 13.41 56.138 0.166 7.48 5.07 9.75
3/26/2021 11:15:00 PM 13.4 56.12 0.166 7.47 6.14 9.7
3/26/2021 11:30:00 PM 13.38 56.084 0.166 7.47 4.77 9.66
3/26/2021 11:45:00 PM 13.36 56.048 0.166 7.46 5.21 9.62
3/27/2021 12:00:00 AM 13.33 55.994 0.166 7.46 5.39 9.59
3/27/2021 12:15:00 AM 13.3 55.94 0.166 7.45 5.61 9.57
3/27/2021 12:30:00 AM 13.29 55.922 0.167 7.44 6.57 9.5
3/27/2021 12:45:00 AM 13.25 55.85 0.166 7.44 6.27 9.49
3/27/2021 1:00:00 AM 13.22 55.796 0.167 7.43 7.44 9.44
3/27/2021 1:15:00 AM 13.19 55.742 0.167 7.42 7.09 9.41
3/27/2021 1:30:00 AM 13.16 55.688 0.171 7.41 6.71 9.38
3/27/2021 1:45:00 AM 13.13 55.634 0.167 7.41 6.5 9.36
3/27/2021 2:00:00 AM 13.1 55.58 0.168 7.4 6.28 9.3
3/27/2021 2:15:00 AM 13.06 55.508 0.167 7.4 6.22 9.3
3/27/2021 2:30:00 AM 13.02 55.436 0.167 7.39 6.82 9.29
3/27/2021 2:45:00 AM 12.98 55.364 0.168 7.38 7.32 9.25
3/27/2021 3:00:00 AM 12.94 55.292 0.167 7.39 6.19 9.23
3/27/2021 3:15:00 AM 12.89 55.202 0.166 7.38 5.99 9.23
3/27/2021 3:30:00 AM 12.84 55.112 0.166 7.37 7.04 9.19
3/27/2021 3:45:00 AM 12.79 55.022 0.167 7.37 5.7 9.17
3/27/2021 4:00:00 AM 12.73 54.914 0.166 7.36 5.95 9.16
3/27/2021 4:15:00 AM 12.68 54.824 0.166 7.36 5.67 9.15
3/27/2021 4:30:00 AM 12.61 54.698 0.167 7.35 5.21 9.12
3/27/2021 4:45:00 AM 12.57 54.626 0.166 7.35 5.32 9.12
3/27/2021 5:00:00 AM 12.51 54.518 0.166 7.34 4.96 9.11
3/27/2021 5:15:00 AM 12.44 54.392 0.166 7.34 5.39 9.1
3/27/2021 5:30:00 AM 12.39 54.302 0.166 7.34 5.51 9.09
3/27/2021 5:45:00 AM 12.32 54.176 0.169 7.34 5.51 9.08
3/27/2021 6:00:00 AM 12.27 54.086 0.166 7.33 5.53 9.06
3/27/2021 6:15:00 AM 12.2 53.96 0.166 7.32 4.59 9.05
3/27/2021 6:30:00 AM 12.15 53.87 0.165 7.32 5.35 9.05
3/27/2021 6:45:00 AM 12.09 53.762 0.166 7.31 6.22 9.04
3/27/2021 7:00:00 AM 12.03 53.654 0.166 7.31 5.08 9.05
3/27/2021 7:15:00 AM 11.98 53.564 0.166 7.31 6.25 9.05
3/27/2021 7:30:00 AM 11.94 53.492 0.166 7.3 6.67 9.04
3/27/2021 7:45:00 AM 11.88 53.384 0.166 7.29 5.55 9.04
3/27/2021 8:00:00 AM 11.85 53.33 0.166 7.3 6.37 9.05
3/27/2021 8:15:00 AM 11.81 53.258 0.166 7.29 6.18 9.07
3/27/2021 8:30:00 AM 11.78 53.204 0.166 7.29 5.65 9.07
3/27/2021 8:45:00 AM 11.77 53.186 0.165 7.29 7.58 9.09
3/27/2021 9:00:00 AM 11.75 53.15 0.165 7.29 5.77 9.12
3/27/2021 9:15:00 AM 11.71 53.078 0.166 7.28 6.38 9.14
3/27/2021 9:30:00 AM 11.74 53.132 0.165 7.29 5.51 9.18
3/27/2021 9:45:00 AM 11.73 53.114 0.165 7.28 5.19 9.22
3/27/2021 10:00:00 AM 11.75 53.15 0.165 7.28 5.1 9.27
3/27/2021 10:15:00 AM 11.78 53.204 0.165 7.29 4.51 9.31
3/27/2021 10:30:00 AM 11.8 53.24 0.165 7.29 4.86 9.36
3/27/2021 10:45:00 AM 11.84 53.312 0.165 7.3 4.84 9.4
3/27/2021 11:00:00 AM 11.9 53.42 0.165 7.31 4.8 9.47
3/27/2021 11:15:00 AM 11.96 53.528 0.165 7.31 5.2 9.51
3/27/2021 11:30:00 AM 12.08 53.744 0.165 7.32 4.6 9.6
3/27/2021 11:45:00 AM 12.18 53.924 0.165 7.33 4.21 9.66
3/27/2021 12:00:00 PM 12.3 54.14 0.165 7.34 4.62 9.73
3/27/2021 12:15:00 PM 12.45 54.41 0.165 7.35 4.08 9.79
3/27/2021 12:30:00 PM 12.59 54.662 0.165 7.36 4.81 9.84
3/27/2021 12:45:00 PM 12.72 54.896 0.165 7.37 5.57 9.9
3/27/2021 1:00:00 PM 12.82 55.076 0.165 7.39 6.33 9.94
3/27/2021 1:15:00 PM 12.94 55.292 0.165 7.39 4.16 10.01
3/27/2021 1:30:00 PM 13.05 55.49 0.165 7.4 4.67 10.07
3/27/2021 1:45:00 PM 13.15 55.67 0.165 7.41 4.47 10.12
3/27/2021 2:00:00 PM 13.23 55.814 0.165 7.43 5.99 10.17
3/27/2021 2:15:00 PM 13.3 55.94 0.165 7.44 4.67 10.21
3/27/2021 2:30:00 PM 13.38 56.084 0.165 7.45 4.64 10.26
3/27/2021 2:45:00 PM 13.43 56.174 0.165 7.46 4.35 10.29
3/27/2021 3:00:00 PM 13.5 56.3 0.165 7.48 4.08 10.34
3/27/2021 3:15:00 PM 13.54 56.372 0.165 7.49 4.29 10.39
3/27/2021 3:30:00 PM 13.59 56.462 0.165 7.51 4.93 10.43
3/27/2021 3:45:00 PM 13.61 56.498 0.165 7.52 5.01 10.47
3/27/2021 4:00:00 PM 13.61 56.498 0.164 7.53 4.77 10.5
3/27/2021 4:15:00 PM 13.65 56.57 0.164 7.54 5.11 10.52
3/27/2021 4:30:00 PM 13.65 56.57 0.165 7.55 4.85 10.54
3/27/2021 4:45:00 PM 13.65 56.57 0.165 7.56 4.95 10.56
3/27/2021 5:00:00 PM 13.66 56.588 0.165 7.56 4.08 10.57
3/27/2021 5:15:00 PM 13.66 56.588 0.165 7.58 4.92 10.57
3/27/2021 5:30:00 PM 13.65 56.57 0.165 7.58 3.63 10.56
3/27/2021 5:45:00 PM 13.67 56.606 0.165 7.59 3.67 10.56
3/27/2021 6:00:00 PM 13.66 56.588 0.165 7.59 3.74 10.55
3/27/2021 6:15:00 PM 13.68 56.624 0.165 7.6 4.34 10.53
3/27/2021 6:30:00 PM 13.67 56.606 0.165 7.6 5.05 10.51
3/27/2021 6:45:00 PM 13.67 56.606 0.165 7.6 5.19 10.5
3/27/2021 7:00:00 PM 13.64 56.552 0.165 7.6 5.97 10.45
3/27/2021 7:15:00 PM 13.65 56.57 0.166 7.6 4.13 10.44
3/27/2021 7:30:00 PM 13.64 56.552 0.165 7.59 4.67 10.42
3/27/2021 7:45:00 PM 13.61 56.498 0.165 7.59 4.98 10.37
3/27/2021 8:00:00 PM 13.6 56.48 0.165 7.58 4.72 10.36
3/27/2021 8:15:00 PM 13.59 56.462 0.166 7.58 5.33 10.3
3/27/2021 8:30:00 PM 13.55 56.39 0.166 7.57 5.09 10.28
3/27/2021 8:45:00 PM 13.52 56.336 0.166 7.56 5.36 10.24
3/27/2021 9:00:00 PM 13.51 56.318 0.166 7.55 5.18 10.22
3/27/2021 9:15:00 PM 13.47 56.246 0.166 7.54 4.37 10.18
3/27/2021 9:30:00 PM 13.44 56.192 0.159 7.54 4.71 10.14
3/27/2021 9:45:00 PM 13.42 56.156 0.166 7.53 4.54 10.12
3/27/2021 10:00:00 PM 13.41 56.138 0.166 7.52 4.37 10.06
3/27/2021 10:15:00 PM 13.38 56.084 0.166 7.51 6.25 10.02
3/27/2021 10:30:00 PM 13.32 55.976 0.166 7.51 5.19 10
3/27/2021 10:45:00 PM 13.31 55.958 0.162 7.5 6.07 9.96
3/27/2021 11:00:00 PM 13.27 55.886 0.162 7.49 5.17 9.94
3/27/2021 11:15:00 PM 13.25 55.85 0.162 7.48 5.34 9.89
3/27/2021 11:30:00 PM 13.2 55.76 0.164 7.47 6.81 9.85
3/27/2021 11:45:00 PM 13.17 55.706 0.165 7.46 5.56 9.82
3/28/2021 12:00:00 AM 13.14 55.652 0.167 7.46 6.03 9.76
3/28/2021 12:15:00 AM 13.1 55.58 0.158 7.45 5.72 9.75
3/28/2021 12:30:00 AM 13.07 55.526 0.167 7.44 6.13 9.69
3/28/2021 12:45:00 AM 13.03 55.454 0.163 7.43 6.66 9.67
3/28/2021 1:00:00 AM 13 55.4 0.168 7.42 6.46 9.62
3/28/2021 1:15:00 AM 12.96 55.328 0.159 7.41 5.88 9.58
3/28/2021 1:30:00 AM 12.92 55.256 0.166 7.41 6.34 9.55
3/28/2021 1:45:00 AM 12.88 55.184 0.164 7.39 6.71 9.53
3/28/2021 2:00:00 AM 12.85 55.13 0.166 7.39 6.38 9.44
3/28/2021 2:15:00 AM 12.81 55.058 0.167 7.38 6.09 9.43
3/28/2021 2:30:00 AM 12.78 55.004 0.167 7.37 6.11 9.4
3/28/2021 2:45:00 AM 12.75 54.95 0.157 7.37 5.33 9.36
3/28/2021 3:00:00 AM 12.71 54.878 0.167 7.36 5.6 9.37
3/28/2021 3:15:00 AM 12.68 54.824 0.167 7.36 7.28 9.33
3/28/2021 3:30:00 AM 12.65 54.77 0.166 7.35 56.64 9.33
3/28/2021 3:45:00 AM 12.62 54.716 0.165 7.35 5.79 9.3
3/28/2021 4:00:00 AM 12.58 54.644 0.167 7.33 5.33 9.28
3/28/2021 4:15:00 AM 12.55 54.59 0.165 7.33 4.99 9.28
3/28/2021 4:30:00 AM 12.51 54.518 0.164 7.32 5.93 9.24
3/28/2021 4:45:00 AM 12.47 54.446 0.158 7.31 5.8 9.23
3/28/2021 5:00:00 AM 12.44 54.392 0.167 7.32 6.2 9.23
3/28/2021 5:15:00 AM 12.41 54.338 0.167 7.31 5.96 9.22
3/28/2021 5:30:00 AM 12.38 54.284 0.16 7.3 6.1 9.19
3/28/2021 5:45:00 AM 12.34 54.212 0.167 7.3 5.89 9.19
3/28/2021 6:00:00 AM 12.32 54.176 0.167 7.28 5.29 9.19
3/28/2021 6:15:00 AM 12.28 54.104 0.16 7.29 5.66 9.17
3/28/2021 6:30:00 AM 12.26 54.068 0.17 7.28 7.54 9.16
3/28/2021 6:45:00 AM 12.23 54.014 0.168 7.27 5.87 9.14
3/28/2021 7:00:00 AM 12.2 53.96 0.157 7.27 5.4 9.14
3/28/2021 7:15:00 AM 12.17 53.906 0.177 7.26 5.57 9.13
3/28/2021 7:30:00 AM 12.15 53.87 0.169 7.24 5.6 9.13
3/28/2021 7:45:00 AM 12.12 53.816 0.169 7.25 5.72 9.11
3/28/2021 8:00:00 AM 12.09 53.762 0.162 7.25 6.33 9.1
3/28/2021 8:15:00 AM 12.06 53.708 0.161 7.25 7.27 9.1
3/28/2021 8:30:00 AM 12.05 53.69 0.158 7.25 5.91 9.09
3/28/2021 8:45:00 AM 12.03 53.654 0.158 7.25 6.25 9.11
3/28/2021 9:00:00 AM 12 53.6 0.157 7.24 6.72 9.09
3/28/2021 9:15:00 AM 11.98 53.564 0.16 7.24 5.41 9.1
3/28/2021 9:30:00 AM 11.96 53.528 0.167 7.24 6.37 9.1
3/28/2021 9:45:00 AM 11.95 53.51 0.166 7.24 5.38 9.13
3/28/2021 10:00:00 AM 11.91 53.438 0.153 7.23 6.64 9.13
3/28/2021 10:15:00 AM 11.89 53.402 0.169 7.24 8.54 9.14
3/28/2021 10:30:00 AM 11.87 53.366 0.166 7.24 10.34 9.14
3/28/2021 10:45:00 AM 11.83 53.294 0.164 7.24 14.84 9.21
3/28/2021 11:00:00 AM 11.77 53.186 0.166 7.24 11.46 9.22
3/28/2021 11:15:00 AM 11.72 53.096 0.165 7.24 25.92 9.25
3/28/2021 11:30:00 AM 11.66 52.988 0.163 7.24 48.08 9.25
3/28/2021 11:45:00 AM 11.55 52.79 0.159 7.24 65.42 9.24
3/28/2021 12:00:00 PM 11.54 52.772 0.161 7.24 61.32 9.2
3/28/2021 12:15:00 PM 11.58 52.844 0.158 7.23 60.65 9.21
3/28/2021 12:30:00 PM 11.57 52.826 0.156 7.22 64.5 9.2
3/28/2021 12:45:00 PM 11.57 52.826 0.158 7.22 66.54 9.21
3/28/2021 1:00:00 PM 11.57 52.826 0.157 7.22 62.19 9.21
3/28/2021 1:15:00 PM 11.62 52.916 0.157 7.22 46.39 9.23
3/28/2021 1:30:00 PM 11.64 52.952 0.166 7.21 43.4 9.24
3/28/2021 1:45:00 PM 11.65 52.97 0.164 7.22 45.44 9.25
3/28/2021 2:00:00 PM 11.66 52.988 0.16 7.28 53.5 9.26
3/28/2021 2:15:00 PM 11.68 53.024 0.173 7.28 34.56 9.28
3/28/2021 2:30:00 PM 11.68 53.024 0.164 7.29 36.69 9.3
3/28/2021 2:45:00 PM 11.68 53.024 0.167 7.3 86.42 9.31
3/28/2021 3:00:00 PM 11.68 53.024 0.154 7.31 29.84 9.29
3/28/2021 3:15:00 PM 11.68 53.024 0.162 7.31 29.49 9.29
3/28/2021 3:30:00 PM 11.68 53.024 0.155 7.31 31.99 9.3
3/28/2021 3:45:00 PM 11.69 53.042 0.157 7.32 29.13 9.28
3/28/2021 4:00:00 PM 11.7 53.06 0.164 7.32 30.8 9.28
3/28/2021 4:15:00 PM 11.72 53.096 0.172 7.33 28.6 9.29
3/28/2021 4:30:00 PM 11.74 53.132 0.167 7.33 29.9 9.28
3/28/2021 4:45:00 PM 11.74 53.132 0.175 7.33 39.54 9.27
3/28/2021 5:00:00 PM 11.76 53.168 0.174 7.34 30.68 9.26
3/28/2021 5:15:00 PM 11.77 53.186 0.176 7.33 28.41 9.28
3/28/2021 5:30:00 PM 11.78 53.204 0.174 7.34 89.13 9.28
3/28/2021 5:45:00 PM 11.8 53.24 0.174 7.35 47.67 9.27
3/28/2021 6:00:00 PM 11.8 53.24 0.172 7.35 60.76 9.27
3/28/2021 6:15:00 PM 11.81 53.258 0.172 7.34 28.91 9.27
3/28/2021 6:30:00 PM 11.83 53.294 0.171 7.34 66.79 9.23
3/28/2021 6:45:00 PM 11.83 53.294 0.169 7.34 33.52 9.23
3/28/2021 7:00:00 PM 11.82 53.276 0.164 7.34 32.18 9.23
3/28/2021 7:15:00 PM 11.8 53.24 0.178 7.34 73.39 9.21
3/28/2021 7:30:00 PM 11.77 53.186 0.169 7.33 30.68 9.23
3/28/2021 7:45:00 PM 11.74 53.132 0.167 7.34 28.53 9.23
3/28/2021 8:00:00 PM 11.71 53.078 0.173 7.34 29.22 9.24
3/28/2021 8:15:00 PM 11.68 53.024 0.179 7.34 27.76 9.24
3/28/2021 8:30:00 PM 11.65 52.97 0.183 7.34 30.2 9.24
3/28/2021 8:45:00 PM 11.61 52.898 0.195 7.34 29.52 9.26
3/28/2021 9:00:00 PM 11.57 52.826 0.182 7.34 29.96 9.27
3/28/2021 9:15:00 PM 11.52 52.736 0.194 7.34 29 9.23
3/28/2021 9:30:00 PM 11.48 52.664 0.197 7.34 30.43 9.24
3/28/2021 9:45:00 PM 11.43 52.574 0.198 7.35 32.62 9.24
3/28/2021 10:00:00 PM 11.4 52.52 0.195 7.36 40.42 9.21
3/28/2021 10:15:00 PM 11.35 52.43 0.199 7.34 35.39 9.22
3/28/2021 10:30:00 PM 11.32 52.376 0.169 7.35 37.13 9.21
3/28/2021 10:45:00 PM 11.28 52.304 0.207 7.35 40.52 9.19
3/28/2021 11:00:00 PM 11.24 52.232 0.198 7.35 41.13 9.19
3/28/2021 11:15:00 PM 11.2 52.16 0.179 7.36 44.97 9.18
3/28/2021 11:30:00 PM 11.17 52.106 0.206 7.35 44.68 9.18
3/28/2021 11:45:00 PM 11.14 52.052 0.186 7.36 44.7 9.17
3/29/2021 12:00:00 AM 11.11 51.998 0.189 7.36 39.35 9.17
3/29/2021 12:15:00 AM 11.07 51.926 0.197 7.36 46.54 9.15
3/29/2021 12:30:00 AM 11.02 51.836 0.201 7.37 47.7 9.16
3/29/2021 12:45:00 AM 10.98 51.764 0.178 7.36 54.83 9.15
3/29/2021 1:00:00 AM 10.94 51.692 0.19 7.37 57.99 9.17
3/29/2021 1:15:00 AM 10.89 51.602 0.194 7.36 52.17 9.16
3/29/2021 1:30:00 AM 10.85 51.53 0.173 7.36 59.59 9.18
3/29/2021 1:45:00 AM 10.81 51.458 0.183 7.36 57.76 9.18
3/29/2021 2:00:00 AM 10.75 51.35 0.184 7.36 60.66 9.19
3/29/2021 2:15:00 AM 10.72 51.296 0.179 7.36 62.1 9.18
3/29/2021 2:30:00 AM 10.66 51.188 0.186 7.36 62.4 9.18
3/29/2021 2:45:00 AM 10.62 51.116 0.182 7.36 68.77 9.18
3/29/2021 3:00:00 AM 10.57 51.026 0.179 7.35 59.83 9.19
3/29/2021 3:15:00 AM 10.52 50.936 0.175 7.35 66.7 9.19
3/29/2021 3:30:00 AM 10.48 50.864 0.172 7.35 64.44 9.19
3/29/2021 3:45:00 AM 10.45 50.81 0.196 7.35 143.8 9.18
3/29/2021 4:00:00 AM 10.4 50.72 0.181 7.35 72.59 9.19
3/29/2021 4:15:00 AM 10.34 50.612 0.181 7.35 77.6 9.19
3/29/2021 4:30:00 AM 10.3 50.54 0.175 7.34 64.09 9.22
3/29/2021 4:45:00 AM 10.26 50.468 0.175 7.33 64.28 9.22
3/29/2021 5:00:00 AM 10.2 50.36 0.176 7.34 63.3 9.23
3/29/2021 5:15:00 AM 10.15 50.27 0.178 7.34 64.56 9.23
3/29/2021 5:30:00 AM 10.11 50.198 0.166 7.34 66.36 9.23
3/29/2021 5:45:00 AM 10.06 50.108 0.166 7.33 67.04 9.24
3/29/2021 6:00:00 AM 10.01 50.018 0.178 7.32 1326 9.25
3/29/2021 6:15:00 AM 9.96 49.928 0.168 7.33 61.94 9.26
3/29/2021 6:30:00 AM 9.91 49.838 0.174 7.33 3704 9.26
3/29/2021 6:45:00 AM 9.87 49.766 0.171 7.33 573.7 9.29
3/29/2021 7:00:00 AM 9.82 49.676 0.175 7.33 58.8 9.29
3/29/2021 7:15:00 AM 9.79 49.622 0.175 7.32 57.96 9.32
3/29/2021 7:30:00 AM 9.73 49.514 0.171 7.33 55.1 9.33
3/29/2021 7:45:00 AM 9.68 49.424 0.177 7.33 54.27 9.34
3/29/2021 8:00:00 AM 9.63 49.334 0.169 7.33 57.26 9.36
3/29/2021 8:15:00 AM 9.59 49.262 0.172 7.33 53.03 9.4
3/29/2021 8:30:00 AM 9.57 49.226 0.172 7.34 52.47 9.4
3/29/2021 8:45:00 AM 9.52 49.136 0.169 7.33 49.94 9.42
3/29/2021 9:00:00 AM 9.5 49.1 0.168 7.32 48.21 9.44
3/29/2021 9:15:00 AM 9.46 49.028 0.167 7.33 60.72 9.45
3/29/2021 9:30:00 AM 9.41 48.938 0.167 7.34 51.19 9.49
3/29/2021 9:45:00 AM 9.41 48.938 0.167 7.33 47.05 9.49
3/29/2021 10:00:00 AM 9.39 48.902 0.166 7.32 51.43 9.53
3/29/2021 10:15:00 AM 9.37 48.866 0.158 7.32 45.23 9.54
3/29/2021 10:30:00 AM 9.36 48.848 0.165 7.31 43.68 9.57
3/29/2021 10:45:00 AM 9.37 48.866 0.165 7.32 42.41 9.58
3/29/2021 11:00:00 AM 9.36 48.848 0.166 7.33 39.5 9.61
3/29/2021 11:15:00 AM 9.42 48.956 0.165 7.32 40.6 9.64
3/29/2021 11:30:00 AM 9.45 49.01 0.165 7.32 39.52 9.66
3/29/2021 11:45:00 AM 9.49 49.082 0.165 7.33 39.77 9.68
3/29/2021 12:00:00 PM 9.56 49.208 0.165 7.33 38.21 9.7
3/29/2021 12:15:00 PM 9.63 49.334 0.165 7.32 39.16 9.71
3/29/2021 12:30:00 PM 9.65 49.37 0.165 7.33 37.26 9.74
3/29/2021 12:45:00 PM 9.74 49.532 0.165 7.32 38.46 9.77
3/29/2021 1:00:00 PM 9.83 49.694 0.165 7.32 36.36 9.8
3/29/2021 1:15:00 PM 9.89 49.802 0.164 7.32 37.9 9.83
3/29/2021 1:30:00 PM 9.98 49.964 0.165 7.33 35.89 9.84
3/29/2021 1:45:00 PM 10.05 50.09 0.164 7.33 35.32 9.86
3/29/2021 2:00:00 PM 10.13 50.234 0.165 7.34 34.57 9.89
3/29/2021 2:15:00 PM 10.2 50.36 0.164 7.33 36.09 9.91
3/29/2021 2:30:00 PM 10.24 50.432 0.165 7.33 35.99 9.94
3/29/2021 2:45:00 PM 10.34 50.612 0.164 7.34 31.6 9.95
3/29/2021 3:00:00 PM 10.37 50.666 0.164 7.34 30.07 9.97
3/29/2021 3:15:00 PM 10.42 50.756 0.164 7.34 32.3 9.98
3/29/2021 3:30:00 PM 10.46 50.828 0.164 7.35 30.88 10.02
3/29/2021 3:45:00 PM 10.5 50.9 0.164 7.35 32.33 10.02
3/29/2021 4:00:00 PM 10.54 50.972 0.164 7.34 28.34 10.05
3/29/2021 4:15:00 PM 10.58 51.044 0.164 7.36 29.99 10.08
3/29/2021 4:30:00 PM 10.62 51.116 0.164 7.36 27.67 10.1
3/29/2021 4:45:00 PM 10.66 51.188 0.164 7.36 26.79 10.1
3/29/2021 5:00:00 PM 10.67 51.206 0.163 7.35 26.76 10.11
3/29/2021 5:15:00 PM 10.69 51.242 0.164 7.35 27.28 10.14
3/29/2021 5:30:00 PM 10.69 51.242 0.163 7.36 27.59 10.12
3/29/2021 5:45:00 PM 10.69 51.242 0.163 7.36 25.88 10.13
3/29/2021 6:00:00 PM 10.67 51.206 0.163 7.36 26.16 10.13
3/29/2021 6:15:00 PM 10.66 51.188 0.163 7.36 24.08 10.14
3/29/2021 6:30:00 PM 10.65 51.17 0.163 7.37 25.66 10.15
3/29/2021 6:45:00 PM 10.63 51.134 0.163 7.37 24.94 10.13
3/29/2021 7:00:00 PM 10.62 51.116 0.163 7.35 24.7 10.12
3/29/2021 7:15:00 PM 10.62 51.116 0.163 7.35 24.27 10.13
3/29/2021 7:30:00 PM 10.6 51.08 0.163 7.35 25.2 10.13
3/29/2021 7:45:00 PM 10.61 51.098 0.163 7.34 23.03 10.13
3/29/2021 8:00:00 PM 10.6 51.08 0.163 7.34 23.93 10.12
3/29/2021 8:15:00 PM 10.57 51.026 0.162 7.34 23.57 10.12
3/29/2021 8:30:00 PM 10.55 50.99 0.17 7.36 22.96 10.12
3/29/2021 8:45:00 PM 10.55 50.99 0.163 7.37 22.08 10.13
3/29/2021 9:00:00 PM 10.53 50.954 0.163 7.37 20.6 10.13
3/29/2021 9:15:00 PM 10.52 50.936 0.163 7.36 20.13 10.14
3/29/2021 9:30:00 PM 10.47 50.846 0.163 7.36 20.24 10.16
3/29/2021 9:45:00 PM 10.43 50.774 0.163 7.36 21.19 10.17
3/29/2021 10:00:00 PM 10.41 50.738 0.163 7.35 19.38 10.17
3/29/2021 10:15:00 PM 10.36 50.648 0.163 7.35 19.93 10.19
3/29/2021 10:30:00 PM 10.32 50.576 0.163 7.35 18.06 10.2
3/29/2021 10:45:00 PM 10.3 50.54 0.163 7.35 17.96 10.19
3/29/2021 11:00:00 PM 10.26 50.468 0.163 7.35 16.96 10.19
3/29/2021 11:15:00 PM 10.2 50.36 0.163 7.35 17.21 10.21
3/29/2021 11:30:00 PM 10.17 50.306 0.163 7.34 17.32 10.2
3/29/2021 11:45:00 PM 10.14 50.252 0.163 7.34 16.26 10.2
3/30/2021 12:00:00 AM 10.09 50.162 0.163 7.34 18.04 10.19
3/30/2021 12:15:00 AM 10.03 50.054 0.163 7.34 15.6 10.2
3/30/2021 12:30:00 AM 9.99 49.982 0.163 7.33 15.68 10.19
3/30/2021 12:45:00 AM 9.95 49.91 0.164 7.33 17.05 10.17
3/30/2021 1:00:00 AM 9.9 49.82 0.163 7.33 15.76 10.19
3/30/2021 1:15:00 AM 9.85 49.73 0.164 7.34 15.93 10.17
3/30/2021 1:30:00 AM 9.78 49.604 0.164 7.33 14.47 10.16
3/30/2021 1:45:00 AM 9.73 49.514 0.163 7.33 14.69 10.18
3/30/2021 2:00:00 AM 9.67 49.406 0.164 7.32 15.51 10.17
3/30/2021 2:15:00 AM 9.61 49.298 0.164 7.32 15.28 10.18
3/30/2021 2:30:00 AM 9.55 49.19 0.164 7.33 14.3 10.17
3/30/2021 2:45:00 AM 9.49 49.082 0.163 7.32 13.34 10.18
3/30/2021 3:00:00 AM 9.43 48.974 0.163 7.32 13.23 10.17
3/30/2021 3:15:00 AM 9.36 48.848 0.164 7.31 12.5 10.18
3/30/2021 3:30:00 AM 9.3 48.74 0.164 7.31 12.34 10.17
3/30/2021 3:45:00 AM 9.25 48.65 0.164 7.31 13.38 10.16
3/30/2021 4:00:00 AM 9.19 48.542 0.163 7.3 12.34 10.16
3/30/2021 4:15:00 AM 9.13 48.434 0.163 7.3 11.83 10.16
3/30/2021 4:30:00 AM 9.07 48.326 0.164 7.3 11.91 10.15
3/30/2021 4:45:00 AM 9.02 48.236 0.164 7.3 13.05 10.16
3/30/2021 5:00:00 AM 8.96 48.128 0.164 7.3 11.88 10.16
3/30/2021 5:15:00 AM 8.9 48.02 0.164 7.29 11.35 10.17
3/30/2021 5:30:00 AM 8.84 47.912 0.164 7.3 11.06 10.16
3/30/2021 5:45:00 AM 8.79 47.822 0.163 7.28 10.96 10.18
3/30/2021 6:00:00 AM 8.74 47.732 0.163 7.28 10.76 10.18
3/30/2021 6:15:00 AM 8.69 47.642 0.164 7.29 10.89 10.18
3/30/2021 6:30:00 AM 8.63 47.534 0.164 7.28 10.35 10.19
3/30/2021 6:45:00 AM 8.56 47.408 0.164 7.28 9.55 10.19
3/30/2021 7:00:00 AM 8.52 47.336 0.164 7.27 9.58 10.2
3/30/2021 7:15:00 AM 8.43 47.174 0.164 7.26 9.92 10.21
3/30/2021 7:30:00 AM 8.41 47.138 0.164 7.26 10.07 10.21
3/30/2021 7:45:00 AM 8.38 47.084 0.164 7.26 10.05 10.21
3/30/2021 8:00:00 AM 8.35 47.03 0.164 7.26 9.51 10.23
3/30/2021 8:15:00 AM 8.29 46.922 0.164 7.25 9.68 10.23
3/30/2021 8:30:00 AM 8.31 46.958 0.163 7.25 9.03 10.25
3/30/2021 8:45:00 AM 8.27 46.886 0.164 7.25 9.96 10.25
3/30/2021 9:00:00 AM 8.24 46.832 0.164 7.25 8.3 10.28
3/30/2021 9:15:00 AM 8.25 46.85 0.164 7.25 9.18 10.29
3/30/2021 9:30:00 AM 8.27 46.886 0.164 7.25 8.07 10.32
3/30/2021 9:45:00 AM 8.27 46.886 0.164 7.26 7.62 10.32
3/30/2021 10:00:00 AM 8.31 46.958 0.164 7.25 7.66 10.37
3/30/2021 10:15:00 AM 8.35 47.03 0.164 7.25 7.35 10.39
3/30/2021 10:30:00 AM 8.44 47.192 0.164 7.25 7.49 10.41
3/30/2021 10:45:00 AM 8.49 47.282 0.164 7.25 6.65 10.45
3/30/2021 11:00:00 AM 8.57 47.426 0.164 7.26 6.59 10.48
3/30/2021 11:15:00 AM 8.69 47.642 0.164 7.26 6.88 10.51
3/30/2021 11:30:00 AM 8.78 47.804 0.164 7.26 6.76 10.55
3/30/2021 11:45:00 AM 8.9 48.02 0.164 7.28 6.93 10.58
3/30/2021 12:00:00 PM 9 48.2 0.164 7.28 6.39 10.62
3/30/2021 12:15:00 PM 9.14 48.452 0.164 7.28 6.64 10.65
3/30/2021 12:30:00 PM 9.27 48.686 0.164 7.29 7.22 10.67
3/30/2021 12:45:00 PM 9.38 48.884 0.164 7.3 111.7 10.69
3/30/2021 1:00:00 PM 9.51 49.118 0.164 7.31 6.43 10.74
3/30/2021 1:15:00 PM 9.64 49.352 0.164 7.33 5.85 10.77
3/30/2021 1:30:00 PM 9.75 49.55 0.164 7.33 5.97 10.81
3/30/2021 1:45:00 PM 9.87 49.766 0.164 7.35 5.63 10.84
3/30/2021 2:00:00 PM 9.98 49.964 0.165 7.36 6.02 10.88
3/30/2021 2:15:00 PM 10.08 50.144 0.164 7.36 6.37 10.9
3/30/2021 2:30:00 PM 10.2 50.36 0.165 7.37 5.71 10.93
3/30/2021 2:45:00 PM 10.32 50.576 0.165 7.37 5.74 10.96
3/30/2021 3:00:00 PM 10.39 50.702 0.165 7.39 5.87 10.97
3/30/2021 3:15:00 PM 10.48 50.864 0.165 7.4 5.5 11.02
3/30/2021 3:30:00 PM 10.56 51.008 0.165 7.41 5.83 11.02
3/30/2021 3:45:00 PM 10.66 51.188 0.165 7.42 5.23 11.05
3/30/2021 4:00:00 PM 10.72 51.296 0.165 7.41 5.29 11.08
3/30/2021 4:15:00 PM 10.75 51.35 0.165 7.41 4.56 11.09
3/30/2021 4:30:00 PM 10.81 51.458 0.165 7.44 5.03 11.08
3/30/2021 4:45:00 PM 10.87 51.566 0.165 7.45 5.29 11.1
3/30/2021 5:00:00 PM 10.86 51.548 0.165 7.46 4.48 11.11
3/30/2021 5:15:00 PM 10.9 51.62 0.165 7.46 6.1 11.11
3/30/2021 5:30:00 PM 10.9 51.62 0.165 7.46 4.59 11.11
3/30/2021 5:45:00 PM 10.92 51.656 0.165 7.46 6.09 11.1
3/30/2021 6:00:00 PM 10.93 51.674 0.165 7.46 4.47 11.08
3/30/2021 6:15:00 PM 10.92 51.656 0.165 7.47 4.58 11.07
3/30/2021 6:30:00 PM 10.92 51.656 0.165 7.44 4.37 11.07
3/30/2021 6:45:00 PM 10.92 51.656 0.165 7.45 4.17 11.06
3/30/2021 7:00:00 PM 10.95 51.71 0.166 7.45 4.41 11.04
3/30/2021 7:15:00 PM 10.94 51.692 0.165 7.44 4.25 11.01
3/30/2021 7:30:00 PM 10.93 51.674 0.165 7.45 4.36 11
3/30/2021 7:45:00 PM 10.94 51.692 0.166 7.46 4.57 10.97
3/30/2021 8:00:00 PM 10.94 51.692 0.166 7.46 4.31 10.94
3/30/2021 8:15:00 PM 10.92 51.656 0.165 7.46 3.82 10.93
3/30/2021 8:30:00 PM 10.95 51.71 0.166 7.45 5.45 10.89
3/30/2021 8:45:00 PM 10.95 51.71 0.166 7.45 4.49 10.87
3/30/2021 9:00:00 PM 10.92 51.656 0.166 7.45 4.81 10.86
3/30/2021 9:15:00 PM 10.92 51.656 0.166 7.45 5.01 10.82
3/30/2021 9:30:00 PM 10.96 51.728 0.166 7.44 5.1 10.77
3/30/2021 9:45:00 PM 10.91 51.638 0.165 7.44 3.91 10.76
3/30/2021 10:00:00 PM 10.93 51.674 0.166 7.44 4.39 10.72
3/30/2021 10:15:00 PM 10.91 51.638 0.165 7.44 4.25 10.69
3/30/2021 10:30:00 PM 10.9 51.62 0.165 7.43 4.34 10.66
3/30/2021 10:45:00 PM 10.89 51.602 0.166 7.44 4.44 10.62
3/30/2021 11:00:00 PM 10.85 51.53 0.165 7.42 4.41 10.6
3/30/2021 11:15:00 PM 10.86 51.548 0.165 7.42 4.21 10.55
3/30/2021 11:30:00 PM 10.84 51.512 0.165 7.42 4.45 10.53
3/30/2021 11:45:00 PM 10.84 51.512 0.166 7.41 4.32 10.49
3/31/2021 12:00:00 AM 10.83 51.494 0.166 7.41 4.13 10.42
3/31/2021 12:15:00 AM 10.8 51.44 0.165 7.39 4.37 10.42
3/31/2021 12:30:00 AM 10.76 51.368 0.165 7.39 4.36 10.39
3/31/2021 12:45:00 AM 10.75 51.35 0.165 7.39 4.92 10.35
3/31/2021 1:00:00 AM 10.73 51.314 0.165 7.39 4.78 10.32
3/31/2021 1:15:00 AM 10.71 51.278 0.165 7.38 4.81 10.28
3/31/2021 1:30:00 AM 10.68 51.224 0.165 7.38 5.11 10.26
3/31/2021 1:45:00 AM 10.66 51.188 0.166 7.37 4.45 10.23
3/31/2021 2:00:00 AM 10.63 51.134 0.166 7.38 4.76 10.19
3/31/2021 2:15:00 AM 10.59 51.062 0.166 7.35 4.04 10.2
3/31/2021 2:30:00 AM 10.55 50.99 0.165 7.35 4.17 10.16
3/31/2021 2:45:00 AM 10.52 50.936 0.166 7.34 4.51 10.15
3/31/2021 3:00:00 AM 10.49 50.882 0.166 7.34 5.04 10.12
3/31/2021 3:15:00 AM 10.45 50.81 0.165 7.33 4.3 10.1
3/31/2021 3:30:00 AM 10.42 50.756 0.166 7.34 4.82 10.05
3/31/2021 3:45:00 AM 10.39 50.702 0.166 7.33 4.77 10.04
3/31/2021 4:00:00 AM 10.34 50.612 0.165 7.33 4.26 10.02
3/31/2021 4:15:00 AM 10.31 50.558 0.165 7.32 4.32 10.04
3/31/2021 4:30:00 AM 10.28 50.504 0.166 7.32 4.39 10
3/31/2021 4:45:00 AM 10.25 50.45 0.166 7.31 4.34 9.98
3/31/2021 5:00:00 AM 10.21 50.378 0.166 7.32 3.97 9.97
3/31/2021 5:15:00 AM 10.18 50.324 0.166 7.32 4.37 9.94
3/31/2021 5:30:00 AM 10.15 50.27 0.165 7.31 4.52 9.95
3/31/2021 5:45:00 AM 10.12 50.216 0.165 7.3 3.83 9.93
3/31/2021 6:00:00 AM 10.09 50.162 0.165 7.3 4.08 9.9
3/31/2021 6:15:00 AM 10.06 50.108 0.165 7.29 4.01 9.89
3/31/2021 6:30:00 AM 10.03 50.054 0.165 7.28 4.38 9.88
3/31/2021 6:45:00 AM 10 50 0.165 7.29 4.01 9.87
3/31/2021 7:00:00 AM 9.97 49.946 0.165 7.28 4.23 9.87
3/31/2021 7:15:00 AM 9.94 49.892 0.166 7.27 4.98 9.84
3/31/2021 7:30:00 AM 9.92 49.856 0.165 7.27 4.21 9.84
3/31/2021 7:45:00 AM 9.89 49.802 0.166 7.27 5.48 9.84
3/31/2021 8:00:00 AM 9.89 49.802 0.165 7.26 4.41 9.84
3/31/2021 8:15:00 AM 9.87 49.766 0.166 7.26 3.94 9.84
3/31/2021 8:30:00 AM 9.88 49.784 0.165 7.26 3.77 9.85
3/31/2021 8:45:00 AM 9.9 49.82 0.165 7.26 3.96 9.86
3/31/2021 9:00:00 AM 9.89 49.802 0.165 7.25 3.46 9.87
3/31/2021 9:15:00 AM 9.88 49.784 0.166 7.26 4.02 9.87
3/31/2021 9:30:00 AM 9.88 49.784 0.166 7.27 2.89 9.88
3/31/2021 9:45:00 AM 9.89 49.802 0.166 7.26 3.13 9.88
3/31/2021 10:00:00 AM 9.91 49.838 0.166 7.27 3.22 9.9
3/31/2021 10:15:00 AM 9.91 49.838 0.166 7.28 3.4 9.91
3/31/2021 10:30:00 AM 9.92 49.856 0.166 7.27 3.46 9.93
3/31/2021 10:45:00 AM 9.95 49.91 0.166 7.28 2.76 9.96
3/31/2021 11:00:00 AM 9.97 49.946 0.166 7.27 3.29 9.97
3/31/2021 11:15:00 AM 9.95 49.91 0.166 7.29 2.99 10
3/31/2021 11:30:00 AM 10 50 0.166 7.29 2.72 10.02
3/31/2021 11:45:00 AM 10.02 50.036 0.166 7.27 2.76 10.06
3/31/2021 12:00:00 PM 10.05 50.09 0.166 7.29 2.65 10.07
3/31/2021 12:15:00 PM 10.06 50.108 0.166 7.29 2.74 10.1
3/31/2021 12:30:00 PM 10.09 50.162 0.166 7.3 3.34 10.13
3/31/2021 12:45:00 PM 10.12 50.216 0.166 7.31 2.8 10.15
3/31/2021 1:00:00 PM 10.13 50.234 0.166 7.31 2.48 10.16
3/31/2021 1:15:00 PM 10.17 50.306 0.166 7.31 2.66 10.19
3/31/2021 1:30:00 PM 10.2 50.36 0.166 7.32 2.53 10.22
3/31/2021 1:45:00 PM 10.23 50.414 0.166 7.33 3.05 10.25
3/31/2021 2:00:00 PM 10.28 50.504 0.166 7.33 2.45 10.27
3/31/2021 2:15:00 PM 10.3 50.54 0.166 7.33 2.77 10.29
3/31/2021 2:30:00 PM 10.33 50.594 0.166 7.34 2.49 10.31
3/31/2021 2:45:00 PM 10.37 50.666 0.166 7.35 2.71 10.32
3/31/2021 3:00:00 PM 10.4 50.72 0.166 7.35 2.05 10.35
3/31/2021 3:15:00 PM 10.43 50.774 0.165 7.34 1.97 10.36
3/31/2021 3:30:00 PM 10.45 50.81 0.166 7.35 2.05 10.37
3/31/2021 3:45:00 PM 10.48 50.864 0.166 7.35 2.33 10.36
3/31/2021 4:00:00 PM 10.5 50.9 0.166 7.36 2.12 10.36
3/31/2021 4:15:00 PM 10.51 50.918 0.166 7.36 2.19 10.37
3/31/2021 4:30:00 PM 10.53 50.954 0.166 7.37 2.61 10.37
3/31/2021 4:45:00 PM 10.55 50.99 0.166 7.36 2.35 10.38
3/31/2021 5:00:00 PM 10.57 51.026 0.166 7.37 2.42 10.38
3/31/2021 5:15:00 PM 10.6 51.08 0.166 7.36 2.37 10.39
3/31/2021 5:30:00 PM 10.62 51.116 0.166 7.38 2.25 10.37
3/31/2021 5:45:00 PM 10.64 51.152 0.166 7.39 2.3 10.37
3/31/2021 6:00:00 PM 10.65 51.17 0.166 7.38 2.42 10.35
3/31/2021 6:15:00 PM 10.66 51.188 0.166 7.38 2.01 10.36
3/31/2021 6:30:00 PM 10.66 51.188 0.166 7.39 2.18 10.34
3/31/2021 6:45:00 PM 10.67 51.206 0.166 7.39 2.65 10.35
3/31/2021 7:00:00 PM 10.68 51.224 0.166 7.38 2.71 10.32
3/31/2021 7:15:00 PM 10.69 51.242 0.166 7.4 2.64 10.32
3/31/2021 7:30:00 PM 10.68 51.224 0.166 7.39 2.57 10.31
3/31/2021 7:45:00 PM 10.69 51.242 0.166 7.39 2.74 10.29
3/31/2021 8:00:00 PM 10.68 51.224 0.166 7.39 2.5 10.27
3/31/2021 8:15:00 PM 10.71 51.278 0.166 7.38 3.15 10.25
3/31/2021 8:30:00 PM 10.72 51.296 0.166 7.38 3.15 10.24
3/31/2021 8:45:00 PM 10.68 51.224 0.166 7.38 3.2 10.22
3/31/2021 9:00:00 PM 10.68 51.224 0.166 7.4 2.73 10.22
3/31/2021 9:15:00 PM 10.68 51.224 0.166 7.4 3.29 10.19
3/31/2021 9:30:00 PM 10.66 51.188 0.166 7.39 3.2 10.19
3/31/2021 9:45:00 PM 10.65 51.17 0.166 7.38 4.34 10.18
3/31/2021 10:00:00 PM 10.67 51.206 0.166 7.37 3.76 10.14
3/31/2021 10:15:00 PM 10.64 51.152 0.166 7.37 3.2 10.13
3/31/2021 10:30:00 PM 10.63 51.134 0.166 7.37 3.29 10.13
3/31/2021 10:45:00 PM 10.62 51.116 0.166 7.37 3.89 10.1
3/31/2021 11:00:00 PM 10.62 51.116 0.166 7.36 3.79 10.07
3/31/2021 11:15:00 PM 10.62 51.116 0.166 7.36 3.83 10.03
3/31/2021 11:30:00 PM 10.6 51.08 0.166 7.37 3.23 10.04
3/31/2021 11:45:00 PM 10.6 51.08 0.167 7.37 3.63 10
4/1/2021 12:00:00 AM 10.56 51.008 0.166 7.36 3.39 10.02
4/1/2021 12:15:00 AM 10.57 51.026 0.167 7.36 12.12 9.99
4/1/2021 12:30:00 AM 10.54 50.972 0.167 7.36 3 9.97
4/1/2021 12:45:00 AM 10.52 50.936 0.167 7.35 3.64 9.97
4/1/2021 1:00:00 AM 10.5 50.9 0.167 7.34 3.03 9.93
4/1/2021 1:15:00 AM 10.48 50.864 0.167 7.35 3.47 9.92
4/1/2021 1:30:00 AM 10.45 50.81 0.167 7.34 3.9 9.91
4/1/2021 1:45:00 AM 10.43 50.774 0.167 7.34 3.49 9.91
4/1/2021 2:00:00 AM 10.4 50.72 0.167 7.34 3.46 9.89
4/1/2021 2:15:00 AM 10.39 50.702 0.167 7.33 3.34 9.86
4/1/2021 2:30:00 AM 10.37 50.666 0.168 7.32 4.05 9.84
4/1/2021 2:45:00 AM 10.34 50.612 0.168 7.33 4 9.83
4/1/2021 3:00:00 AM 10.32 50.576 0.168 7.32 3.83 9.82
4/1/2021 3:15:00 AM 10.29 50.522 0.168 7.32 3.25 9.82
4/1/2021 3:30:00 AM 10.26 50.468 0.168 7.33 3.33 9.81
4/1/2021 3:45:00 AM 10.24 50.432 0.168 7.32 3.42 9.8
4/1/2021 4:00:00 AM 10.21 50.378 0.168 7.32 3.4 9.79
4/1/2021 4:15:00 AM 10.19 50.342 0.169 7.31 3.66 9.76
4/1/2021 4:30:00 AM 10.16 50.288 0.168 7.31 3.92 9.77
4/1/2021 4:45:00 AM 10.14 50.252 0.168 7.31 3.33 9.75
4/1/2021 5:00:00 AM 10.11 50.198 0.168 7.3 3.16 9.75
4/1/2021 5:15:00 AM 10.08 50.144 0.169 7.32 3.5 9.74
4/1/2021 5:30:00 AM 10.05 50.09 0.169 7.3 3.56 9.72
4/1/2021 5:45:00 AM 10.02 50.036 0.169 7.31 3.3 9.73
4/1/2021 6:00:00 AM 9.98 49.964 0.169 7.3 3.82 9.74
4/1/2021 6:15:00 AM 9.95 49.91 0.169 7.3 4109 9.72
4/1/2021 6:30:00 AM 9.92 49.856 0.169 7.29 3.19 9.72
4/1/2021 6:45:00 AM 9.88 49.784 0.169 7.29 3.33 9.73
4/1/2021 7:00:00 AM 9.85 49.73 0.169 7.3 3.34 9.72
4/1/2021 7:15:00 AM 9.78 49.604 0.169 7.28 3.2 9.72
4/1/2021 7:30:00 AM 9.76 49.568 0.169 7.29 2.88 9.71
4/1/2021 7:45:00 AM 9.72 49.496 0.169 7.29 3.35 9.72
4/1/2021 8:00:00 AM 9.68 49.424 0.169 7.3 3 9.72
4/1/2021 8:15:00 AM 9.67 49.406 0.169 7.29 4.3 9.74
4/1/2021 8:30:00 AM 9.64 49.352 0.169 7.29 3.56 9.76
4/1/2021 8:45:00 AM 9.59 49.262 0.169 7.28 3.32 9.76
4/1/2021 9:00:00 AM 9.6 49.28 0.169 7.29 3.74 9.78
4/1/2021 9:15:00 AM 9.6 49.28 0.169 7.29 3.5 9.78
4/1/2021 9:30:00 AM 9.59 49.262 0.169 7.31 3.51 9.81
4/1/2021 9:45:00 AM 9.58 49.244 0.17 7.3 3.68 9.84
4/1/2021 10:00:00 AM 9.58 49.244 0.17 7.3 3.93 9.88
4/1/2021 10:15:00 AM 9.59 49.262 0.17 7.3 3.77 9.9
4/1/2021 10:30:00 AM 9.63 49.334 0.17 7.31 3.09 9.96
4/1/2021 10:45:00 AM 9.65 49.37 0.171 7.32 3.2 9.98
4/1/2021 11:00:00 AM 9.71 49.478 0.171 7.32 3.33 10.02
4/1/2021 11:15:00 AM 9.72 49.496 0.171 7.33 3.14 10.08
4/1/2021 11:30:00 AM 9.8 49.64 0.172 7.35 2.89 10.11
4/1/2021 11:45:00 AM 9.81 49.658 0.172 7.36 3.45 10.15
4/1/2021 12:00:00 PM 9.94 49.892 0.172 7.36 2.89 10.19
4/1/2021 12:15:00 PM 10.01 50.018 0.172 7.36 3.26 10.22
4/1/2021 12:30:00 PM 10.06 50.108 0.172 7.37 3.09 10.26
4/1/2021 12:45:00 PM 10.14 50.252 0.172 7.38 3.43 10.31
4/1/2021 1:00:00 PM 10.23 50.414 0.172 7.39 2.84 10.35
4/1/2021 1:15:00 PM 10.29 50.522 0.172 7.4 3.8 10.4
4/1/2021 1:30:00 PM 10.35 50.63 0.172 7.41 3.73 10.43
4/1/2021 1:45:00 PM 10.35 50.63 0.172 7.42 3.62 10.45
4/1/2021 2:00:00 PM 10.34 50.612 0.172 7.43 3.37 10.49
4/1/2021 2:15:00 PM 10.33 50.594 0.171 7.44 3.73 10.53
4/1/2021 2:30:00 PM 10.35 50.63 0.171 7.44 2.79 10.56
4/1/2021 2:45:00 PM 10.35 50.63 0.171 7.45 3.56 10.6
4/1/2021 3:00:00 PM 10.38 50.684 0.171 7.45 3.49 10.61
4/1/2021 3:15:00 PM 10.38 50.684 0.171 7.46 3.22 10.66
4/1/2021 3:30:00 PM 10.37 50.666 0.171 7.47 3.55 10.67
4/1/2021 3:45:00 PM 10.38 50.684 0.171 7.47 3.16 10.71
4/1/2021 4:00:00 PM 10.43 50.774 0.171 7.48 3.36 10.75
4/1/2021 4:15:00 PM 10.45 50.81 0.171 7.49 2.95 10.76
4/1/2021 4:30:00 PM 10.48 50.864 0.17 7.5 2.91 10.8
4/1/2021 4:45:00 PM 10.48 50.864 0.17 7.5 3.08 10.8
4/1/2021 5:00:00 PM 10.45 50.81 0.17 7.51 3.15 10.82
4/1/2021 5:15:00 PM 10.42 50.756 0.17 7.52 3.5 10.82
4/1/2021 5:30:00 PM 10.37 50.666 0.17 7.51 2.55 10.83
4/1/2021 5:45:00 PM 10.35 50.63 0.17 7.52 3.21 10.81
4/1/2021 6:00:00 PM 10.31 50.558 0.17 7.52 3.02 10.83
4/1/2021 6:15:00 PM 10.25 50.45 0.171 7.51 3.16 10.84
4/1/2021 6:30:00 PM 10.21 50.378 0.171 7.53 3.1 10.83
4/1/2021 6:45:00 PM 10.18 50.324 0.171 7.52 3.05 10.85
4/1/2021 7:00:00 PM 10.14 50.252 0.171 7.52 2.93 10.84
4/1/2021 7:15:00 PM 10.1 50.18 0.171 7.53 2.75 10.81
4/1/2021 7:30:00 PM 10.06 50.108 0.172 7.52 2.86 10.83
4/1/2021 7:45:00 PM 10.02 50.036 0.172 7.52 2.73 10.82
4/1/2021 8:00:00 PM 9.98 49.964 0.172 7.51 2.88 10.81
4/1/2021 8:15:00 PM 9.93 49.874 0.172 7.52 3.04 10.78
4/1/2021 8:30:00 PM 9.88 49.784 0.172 7.51 2.92 10.79
4/1/2021 8:45:00 PM 9.83 49.694 0.172 7.51 2.89 10.78
4/1/2021 9:00:00 PM 9.77 49.586 0.172 7.51 3.23 10.76
4/1/2021 9:15:00 PM 9.72 49.496 0.172 7.5 3.25 10.75
4/1/2021 9:30:00 PM 9.66 49.388 0.172 7.5 3.46 10.74
4/1/2021 9:45:00 PM 9.61 49.298 0.172 7.5 3.42 10.71
4/1/2021 10:00:00 PM 9.55 49.19 0.171 7.49 3.22 10.72
4/1/2021 10:15:00 PM 9.49 49.082 0.171 7.49 3.07 10.7
4/1/2021 10:30:00 PM 9.44 48.992 0.171 7.48 3.69 10.67
4/1/2021 10:45:00 PM 9.37 48.866 0.171 7.48 3.06 10.67
4/1/2021 11:00:00 PM 9.32 48.776 0.171 7.47 3.31 10.63
4/1/2021 11:15:00 PM 9.25 48.65 0.171 7.46 3.56 10.63
4/1/2021 11:30:00 PM 9.2 48.56 0.171 7.47 3.08 10.62
4/1/2021 11:45:00 PM 9.15 48.47 0.171 7.45 3.14 10.6
4/2/2021 12:00:00 AM 9.09 48.362 0.17 7.45 3.31 10.59
4/2/2021 12:15:00 AM 9.06 48.308 0.17 7.44 3.01 10.57
4/2/2021 12:30:00 AM 9.02 48.236 0.17 7.43 3.39 10.54
4/2/2021 12:45:00 AM 8.98 48.164 0.17 7.42 3.46 10.53
4/2/2021 1:00:00 AM 8.94 48.092 0.17 7.42 3.4 10.51
4/2/2021 1:15:00 AM 8.88 47.984 0.17 7.42 3.97 10.49
4/2/2021 1:30:00 AM 8.84 47.912 0.17 7.42 3.94 10.47
4/2/2021 1:45:00 AM 8.8 47.84 0.17 7.4 3.56 10.46
4/2/2021 2:00:00 AM 8.75 47.75 0.17 7.4 3.56 10.47
4/2/2021 2:15:00 AM 8.69 47.642 0.17 7.4 3.23 10.45
4/2/2021 2:30:00 AM 8.62 47.516 0.17 7.39 3.45 10.44
4/2/2021 2:45:00 AM 8.56 47.408 0.17 7.39 3.98 10.44
4/2/2021 3:00:00 AM 8.49 47.282 0.169 7.38 3.28 10.44
4/2/2021 3:15:00 AM 8.41 47.138 0.169 7.38 3.51 10.44
4/2/2021 3:30:00 AM 8.35 47.03 0.169 7.37 3.31 10.44
4/2/2021 3:45:00 AM 8.26 46.868 0.169 7.37 3.58 10.45
4/2/2021 4:00:00 AM 8.17 46.706 0.169 7.36 3.71 10.44
4/2/2021 4:15:00 AM 8.12 46.616 0.169 7.36 3.92 10.43
4/2/2021 4:30:00 AM 8.04 46.472 0.169 7.35 3.45 10.44
4/2/2021 4:45:00 AM 7.96 46.328 0.169 7.35 3.35 10.43
4/2/2021 5:00:00 AM 7.91 46.238 0.169 7.34 3.36 10.44
4/2/2021 5:15:00 AM 7.82 46.076 0.169 7.33 3.23 10.42
4/2/2021 5:30:00 AM 7.77 45.986 0.169 7.33 3.23 10.44
4/2/2021 5:45:00 AM 7.66 45.788 0.169 7.32 3.59 10.43
4/2/2021 6:00:00 AM 7.62 45.716 0.169 7.32 3.24 10.44
4/2/2021 6:15:00 AM 7.54 45.572 0.169 7.32 3.29 10.45
4/2/2021 6:30:00 AM 7.47 45.446 0.169 7.31 3.26 10.45
4/2/2021 6:45:00 AM 7.41 45.338 0.169 7.31 3.09 10.46
4/2/2021 7:00:00 AM 7.32 45.176 0.169 7.31 3.63 10.46
4/2/2021 7:15:00 AM 7.27 45.086 0.168 7.3 2.92 10.48
4/2/2021 7:30:00 AM 7.2 44.96 0.168 7.3 2.91 10.47
4/2/2021 7:45:00 AM 7.14 44.852 0.168 7.28 3.35 10.49
4/2/2021 8:00:00 AM 7.09 44.762 0.168 7.28 3.57 10.5
4/2/2021 8:15:00 AM 7.01 44.618 0.168 7.3 3.38 10.52
4/2/2021 8:30:00 AM 6.94 44.492 0.168 7.29 3.26 10.55
4/2/2021 8:45:00 AM 6.92 44.456 0.168 7.28 2.91 10.58
4/2/2021 9:00:00 AM 6.89 44.402 0.168 7.28 3.41 10.62
4/2/2021 9:15:00 AM 6.87 44.366 0.168 7.28 2.93 10.64
4/2/2021 9:30:00 AM 6.8 44.24 0.168 7.29 2.75 10.68
4/2/2021 9:45:00 AM 6.82 44.276 0.168 7.28 3.04 10.72
4/2/2021 10:00:00 AM 6.81 44.258 0.168 7.28 2.88 10.74
4/2/2021 10:15:00 AM 6.83 44.294 0.168 7.28 3.19 10.79
4/2/2021 10:30:00 AM 6.84 44.312 0.168 7.29 3.17 10.82
4/2/2021 10:45:00 AM 6.9 44.42 0.167 7.29 2.9 10.87
4/2/2021 11:00:00 AM 6.96 44.528 0.167 7.3 3.44 10.9
4/2/2021 11:15:00 AM 7.01 44.618 0.167 7.31 3.06 10.96
4/2/2021 11:30:00 AM 7.11 44.798 0.167 7.3 2.78 11
4/2/2021 11:45:00 AM 7.17 44.906 0.167 7.31 2.99 11.04
4/2/2021 12:00:00 PM 7.27 45.086 0.167 7.32 2.35 11.08
4/2/2021 12:15:00 PM 7.37 45.266 0.167 7.33 2.93 11.13
4/2/2021 12:30:00 PM 7.5 45.5 0.167 7.32 2.76 11.16
4/2/2021 12:45:00 PM 7.62 45.716 0.166 7.33 2.59 11.22
4/2/2021 1:00:00 PM 7.72 45.896 0.167 7.34 2.72 11.24
4/2/2021 1:15:00 PM 7.85 46.13 0.166 7.35 3.12 11.29
4/2/2021 1:30:00 PM 7.96 46.328 0.167 7.36 2.57 11.33
4/2/2021 1:45:00 PM 8.06 46.508 0.166 7.37 2.48 11.36
4/2/2021 2:00:00 PM 8.14 46.652 0.167 7.37 2.72 11.36
4/2/2021 2:15:00 PM 8.23 46.814 0.167 7.38 2.73 11.44
4/2/2021 2:30:00 PM 8.31 46.958 0.166 7.39 2.62 11.47
4/2/2021 2:45:00 PM 8.4 47.12 0.167 7.4 2.69 11.49
4/2/2021 3:00:00 PM 8.45 47.21 0.166 7.41 2.8 11.52
4/2/2021 3:15:00 PM 8.52 47.336 0.166 7.41 3.03 11.54
4/2/2021 3:30:00 PM 8.56 47.408 0.166 7.43 2.66 11.59
4/2/2021 3:45:00 PM 8.62 47.516 0.167 7.43 2.54 11.6
4/2/2021 4:00:00 PM 8.64 47.552 0.167 7.43 2.45 11.63
4/2/2021 4:15:00 PM 8.68 47.624 0.167 7.43 2.42 11.65
4/2/2021 4:30:00 PM 8.68 47.624 0.167 7.45 2.3 11.66
4/2/2021 4:45:00 PM 8.67 47.606 0.167 7.45 2.54 11.67
4/2/2021 5:00:00 PM 8.68 47.624 0.167 7.46 2.48 11.68
4/2/2021 5:15:00 PM 8.66 47.588 0.167 7.46 2.71 11.69
4/2/2021 5:30:00 PM 8.63 47.534 0.167 7.47 2.07 11.7
4/2/2021 5:45:00 PM 8.61 47.498 0.167 7.47 2.08 11.68
4/2/2021 6:00:00 PM 8.57 47.426 0.167 7.47 1.89 11.67
4/2/2021 6:15:00 PM 8.54 47.372 0.167 7.47 2.43 11.67
4/2/2021 6:30:00 PM 8.52 47.336 0.167 7.47 2.23 11.67
4/2/2021 6:45:00 PM 8.49 47.282 0.167 7.47 2.17 11.65
4/2/2021 7:00:00 PM 8.44 47.192 0.167 7.47 2.69 11.64
4/2/2021 7:15:00 PM 8.42 47.156 0.167 7.46 2.23 11.62
4/2/2021 7:30:00 PM 8.39 47.102 0.167 7.47 2.11 11.6
4/2/2021 7:45:00 PM 8.36 47.048 0.167 7.46 2.15 11.58
4/2/2021 8:00:00 PM 8.35 47.03 0.168 7.47 1.83 11.55
4/2/2021 8:15:00 PM 8.32 46.976 0.167 7.46 2.18 11.53
4/2/2021 8:30:00 PM 8.28 46.904 0.167 7.46 2.04 11.51
4/2/2021 8:45:00 PM 8.24 46.832 0.167 7.46 1.78 11.5
4/2/2021 9:00:00 PM 8.21 46.778 0.167 7.45 1.91 11.48
4/2/2021 9:15:00 PM 8.2 46.76 0.167 7.45 1.85 11.46
4/2/2021 9:30:00 PM 8.18 46.724 0.168 7.44 2.61 11.44
4/2/2021 9:45:00 PM 8.14 46.652 0.167 7.43 2.16 11.42
4/2/2021 10:00:00 PM 8.12 46.616 0.167 7.43 2.12 11.38
4/2/2021 10:15:00 PM 8.08 46.544 0.167 7.42 5.16 11.38
4/2/2021 10:30:00 PM 8.04 46.472 0.167 7.43 2.13 11.35
4/2/2021 10:45:00 PM 8.01 46.418 0.167 7.41 2.26 11.33
4/2/2021 11:00:00 PM 7.98 46.364 0.168 7.41 2.5 11.28
4/2/2021 11:15:00 PM 7.92 46.256 0.167 7.4 2.06 11.28
4/2/2021 11:30:00 PM 7.88 46.184 0.167 7.39 2.08 11.26
4/2/2021 11:45:00 PM 7.84 46.112 0.168 7.4 2.43 11.2
4/3/2021 12:00:00 AM 7.81 46.058 0.168 7.39 2.56 11.17
4/3/2021 12:15:00 AM 7.76 45.968 0.168 7.39 2.61 11.12
4/3/2021 12:30:00 AM 7.7 45.86 0.167 7.38 2.13 11.13
4/3/2021 12:45:00 AM 7.66 45.788 0.167 7.38 1.99 11.09
4/3/2021 1:00:00 AM 7.61 45.698 0.168 7.37 2.35 11.08
4/3/2021 1:15:00 AM 7.58 45.644 0.167 7.37 2.21 11.08
4/3/2021 1:30:00 AM 7.53 45.554 0.167 7.37 1.86 11.08
4/3/2021 1:45:00 AM 7.48 45.464 0.168 7.36 2.11 11.07
4/3/2021 2:00:00 AM 7.44 45.392 0.167 7.35 1.86 11.05
4/3/2021 2:15:00 AM 7.39 45.302 0.167 7.34 2.18 11.04
4/3/2021 2:30:00 AM 7.35 45.23 0.167 7.34 1.93 11.03
4/3/2021 2:45:00 AM 7.29 45.122 0.168 7.34 1.94 11
4/3/2021 3:00:00 AM 7.24 45.032 0.168 7.33 1.79 10.98
4/3/2021 3:15:00 AM 7.18 44.924 0.168 7.33 2.24 10.98
4/3/2021 3:30:00 AM 7.13 44.834 0.168 7.33 4.2 10.98
4/3/2021 3:45:00 AM 7.09 44.762 0.168 7.32 10.25 10.97
4/3/2021 4:00:00 AM 7.01 44.618 0.168 7.32 2.17 10.95
4/3/2021 4:15:00 AM 6.99 44.582 0.168 7.32 1.83 10.97
4/3/2021 4:30:00 AM 6.9 44.42 0.168 7.31 1.83 10.95
4/3/2021 4:45:00 AM 6.85 44.33 0.168 7.3 2.67 10.96
4/3/2021 5:00:00 AM 6.78 44.204 0.168 7.31 1.86 10.95
4/3/2021 5:15:00 AM 6.72 44.096 0.168 7.3 2.02 10.95
4/3/2021 5:30:00 AM 6.65 43.97 0.168 7.3 1.93 10.95
4/3/2021 5:45:00 AM 6.59 43.862 0.168 7.29 1.98 10.94
4/3/2021 6:00:00 AM 6.55 43.79 0.168 7.29 1.55 10.96
4/3/2021 6:15:00 AM 6.47 43.646 0.168 7.29 2.21 10.94
4/3/2021 6:30:00 AM 6.43 43.574 0.168 7.29 1.81 10.95
4/3/2021 6:45:00 AM 6.34 43.412 0.168 7.28 1.76 10.96
4/3/2021 7:00:00 AM 6.31 43.358 0.168 7.29 1.61 10.96
4/3/2021 7:15:00 AM 6.24 43.232 0.168 7.27 1.79 10.95
4/3/2021 7:30:00 AM 6.21 43.178 0.168 7.27 1.4 10.97
4/3/2021 7:45:00 AM 6.17 43.106 0.168 7.28 1.55 10.99
4/3/2021 8:00:00 AM 6.14 43.052 0.168 7.26 1.51 10.99
4/3/2021 8:15:00 AM 6.05 42.89 0.169 7.26 1.65 11.02
4/3/2021 8:30:00 AM 6.03 42.854 0.169 7.26 1.33 11.03
4/3/2021 8:45:00 AM 6.01 42.818 0.169 7.27 1.62 11.05
4/3/2021 9:00:00 AM 5.98 42.764 0.169 7.27 1.96 11.07
4/3/2021 9:15:00 AM 6.01 42.818 0.168 7.27 1.61 11.11
4/3/2021 9:30:00 AM 5.99 42.782 0.169 7.27 1.71 11.14
4/3/2021 9:45:00 AM 6.02 42.836 0.168 7.26 1.36 11.17
4/3/2021 10:00:00 AM 6.01 42.818 0.169 7.27 2.34 11.21
4/3/2021 10:15:00 AM 6.12 43.016 0.168 7.27 1.59 11.25
4/3/2021 10:30:00 AM 6.12 43.016 0.169 7.27 1.79 11.29
4/3/2021 10:45:00 AM 6.22 43.196 0.169 7.27 1.16 11.32
4/3/2021 11:00:00 AM 6.31 43.358 0.169 7.28 1.37 11.36
4/3/2021 11:15:00 AM 6.44 43.592 0.168 7.29 1.38 11.4
4/3/2021 11:30:00 AM 6.52 43.736 0.169 7.29 1.41 11.45
4/3/2021 11:45:00 AM 6.67 44.006 0.168 7.29 1.32 11.48
4/3/2021 12:00:00 PM 6.82 44.276 0.168 7.3 1.08 11.51
4/3/2021 12:15:00 PM 6.95 44.51 0.168 7.31 1.56 11.55
4/3/2021 12:30:00 PM 7.1 44.78 0.168 7.32 1.2 11.58
4/3/2021 12:45:00 PM 7.23 45.014 0.169 7.32 1.16 11.62
4/3/2021 1:00:00 PM 7.4 45.32 0.168 7.34 1.13 11.64
4/3/2021 1:15:00 PM 7.54 45.572 0.168 7.33 1.16 11.7
4/3/2021 1:30:00 PM 7.67 45.806 0.168 7.34 1.21 11.72
4/3/2021 1:45:00 PM 7.77 45.986 0.168 7.37 1.12 11.75
4/3/2021 2:00:00 PM 7.84 46.112 0.168 7.38 1.26 11.79
4/3/2021 2:15:00 PM 7.95 46.31 0.168 7.38 1.51 11.8
4/3/2021 2:30:00 PM 8.09 46.562 0.169 7.38 1.11 11.82
4/3/2021 2:45:00 PM 8.19 46.742 0.168 7.39 1.47 11.85
4/3/2021 3:00:00 PM 8.29 46.922 0.168 7.4 1.08 11.86
4/3/2021 3:15:00 PM 8.39 47.102 0.169 7.41 1.16 11.9
4/3/2021 3:30:00 PM 8.41 47.138 0.168 7.42 0.92 11.92
4/3/2021 3:45:00 PM 8.46 47.228 0.169 7.42 1.33 11.93
4/3/2021 4:00:00 PM 8.48 47.264 0.168 7.42 1.08 11.94
4/3/2021 4:15:00 PM 8.5 47.3 0.168 7.44 0.81 11.97
4/3/2021 4:30:00 PM 8.54 47.372 0.168 7.44 0.95 11.96
4/3/2021 4:45:00 PM 8.59 47.462 0.168 7.45 0.83 11.96
4/3/2021 5:00:00 PM 8.65 47.57 0.168 7.45 1.23 11.97
4/3/2021 5:15:00 PM 8.67 47.606 0.168 7.46 1.07 11.96
4/3/2021 5:30:00 PM 8.7 47.66 0.168 7.46 0.7 11.96
4/3/2021 5:45:00 PM 8.7 47.66 0.168 7.47 1.02 11.93
4/3/2021 6:00:00 PM 8.68 47.624 0.168 7.47 1.2 11.94
4/3/2021 6:15:00 PM 8.71 47.678 0.168 7.48 0.85 11.9
4/3/2021 6:30:00 PM 8.7 47.66 0.168 7.48 0.78 11.91
4/3/2021 6:45:00 PM 8.74 47.732 0.169 7.48 0.97 11.86
4/3/2021 7:00:00 PM 8.71 47.678 0.169 7.49 1 11.85
4/3/2021 7:15:00 PM 8.74 47.732 0.169 7.49 1.03 11.81
4/3/2021 7:30:00 PM 8.7 47.66 0.169 7.49 1.66 11.79
4/3/2021 7:45:00 PM 8.69 47.642 0.169 7.47 0.96 11.76
4/3/2021 8:00:00 PM 8.71 47.678 0.169 7.48 0.97 11.72
4/3/2021 8:15:00 PM 8.68 47.624 0.169 7.48 1.08 11.69
4/3/2021 8:30:00 PM 8.69 47.642 0.169 7.47 1.56 11.63
4/3/2021 8:45:00 PM 8.69 47.642 0.169 7.48 1.86 11.61
4/3/2021 9:00:00 PM 8.69 47.642 0.169 7.47 1.33 11.56
4/3/2021 9:15:00 PM 8.67 47.606 0.169 7.47 1.32 11.55
4/3/2021 9:30:00 PM 8.69 47.642 0.169 7.45 1.1 11.52
4/3/2021 9:45:00 PM 8.68 47.624 0.169 7.45 1.8 11.48
4/3/2021 10:00:00 PM 8.67 47.606 0.169 7.44 1.9 11.45
4/3/2021 10:15:00 PM 8.68 47.624 0.169 7.45 1.42 11.41
4/3/2021 10:30:00 PM 8.66 47.588 0.169 7.44 1.89 11.36
4/3/2021 10:45:00 PM 8.66 47.588 0.169 7.43 1.35 11.34
4/3/2021 11:00:00 PM 8.66 47.588 0.169 7.43 1.53 11.29
4/3/2021 11:15:00 PM 8.65 47.57 0.169 7.42 1.51 11.26
4/3/2021 11:30:00 PM 8.65 47.57 0.17 7.42 1.65 11.24
4/3/2021 11:45:00 PM 8.64 47.552 0.17 7.41 1.7 11.18
4/4/2021 12:00:00 AM 8.61 47.498 0.169 7.41 1.22 11.19
4/4/2021 12:15:00 AM 8.61 47.498 0.17 7.4 1.5 11.12
4/4/2021 12:30:00 AM 8.61 47.498 0.17 7.39 1.51 11.06
4/4/2021 12:45:00 AM 8.61 47.498 0.17 7.39 1.99 11.04
4/4/2021 1:00:00 AM 8.6 47.48 0.17 7.39 2.19 11
4/4/2021 1:15:00 AM 8.59 47.462 0.17 7.38 1.42 10.97
4/4/2021 1:30:00 AM 8.6 47.48 0.171 7.36 2.88 10.87
4/4/2021 1:45:00 AM 8.58 47.444 0.171 7.36 1.69 10.87
4/4/2021 2:00:00 AM 8.57 47.426 0.171 7.36 1.99 10.86
4/4/2021 2:15:00 AM 8.54 47.372 0.17 7.35 1.31 10.87
4/4/2021 2:30:00 AM 8.54 47.372 0.171 7.34 1.65 10.8
4/4/2021 2:45:00 AM 8.52 47.336 0.171 7.34 2 10.77
4/4/2021 3:00:00 AM 8.5 47.3 0.172 7.34 2.36 10.75
4/4/2021 3:15:00 AM 8.47 47.246 0.172 7.34 1.8 10.73
4/4/2021 3:30:00 AM 8.44 47.192 0.171 7.34 1.57 10.72
4/4/2021 3:45:00 AM 8.41 47.138 0.171 7.34 1.37 10.7
4/4/2021 4:00:00 AM 8.39 47.102 0.171 7.32 1.65 10.68
4/4/2021 4:15:00 AM 8.36 47.048 0.171 7.32 1.25 10.64
4/4/2021 4:30:00 AM 8.32 46.976 0.172 7.32 1.77 10.63
4/4/2021 4:45:00 AM 8.28 46.904 0.172 7.32 1.77 10.62
4/4/2021 5:00:00 AM 8.24 46.832 0.172 7.31 1.28 10.59
4/4/2021 5:15:00 AM 8.21 46.778 0.171 7.31 1.12 10.62
4/4/2021 5:30:00 AM 8.17 46.706 0.172 7.3 1.31 10.59
4/4/2021 5:45:00 AM 8.14 46.652 0.171 7.29 1.35 10.56
4/4/2021 6:00:00 AM 8.09 46.562 0.172 7.29 1.46 10.55
4/4/2021 6:15:00 AM 8.06 46.508 0.172 7.29 1.44 10.55
4/4/2021 6:30:00 AM 8.03 46.454 0.172 7.29 1.61 10.55
4/4/2021 6:45:00 AM 7.99 46.382 0.172 7.28 1.63 10.52
4/4/2021 7:00:00 AM 7.96 46.328 0.172 7.28 1.75 10.52
4/4/2021 7:15:00 AM 7.93 46.274 0.171 7.27 1.07 10.53
4/4/2021 7:30:00 AM 7.89 46.202 0.172 7.27 1.15 10.52
4/4/2021 7:45:00 AM 7.87 46.166 0.172 7.26 1.29 10.51
4/4/2021 8:00:00 AM 7.84 46.112 0.172 7.26 1.15 10.52
4/4/2021 8:15:00 AM 7.83 46.094 0.172 7.26 1.44 10.52
4/4/2021 8:30:00 AM 7.83 46.094 0.171 7.27 1.14 10.55
4/4/2021 8:45:00 AM 7.83 46.094 0.171 7.26 1.25 10.58
4/4/2021 9:00:00 AM 7.83 46.094 0.171 7.27 0.92 10.59
4/4/2021 9:15:00 AM 7.83 46.094 0.171 7.26 0.99 10.61
4/4/2021 9:30:00 AM 7.85 46.13 0.171 7.27 0.89 10.65
4/4/2021 9:45:00 AM 7.87 46.166 0.171 7.26 1.07 10.68
4/4/2021 10:00:00 AM 7.92 46.256 0.171 7.27 0.95 10.71
4/4/2021 10:15:00 AM 7.98 46.364 0.171 7.27 0.9 10.74
4/4/2021 10:30:00 AM 8.06 46.508 0.171 7.28 1.03 10.76
4/4/2021 10:45:00 AM 8.14 46.652 0.171 7.28 0.94 10.8
4/4/2021 11:00:00 AM 8.23 46.814 0.171 7.29 0.93 10.84
4/4/2021 11:15:00 AM 8.34 47.012 0.171 7.3 0.98 10.87
4/4/2021 11:30:00 AM 8.48 47.264 0.171 7.3 0.73 10.91
4/4/2021 11:45:00 AM 8.63 47.534 0.171 7.3 0.73 10.96
4/4/2021 12:00:00 PM 8.77 47.786 0.171 7.32 0.85 10.99
4/4/2021 12:15:00 PM 8.94 48.092 0.171 7.33 0.95 11.02
4/4/2021 12:30:00 PM 9.1 48.38 0.171 7.34 0.81 11.07
4/4/2021 12:45:00 PM 9.28 48.704 0.171 7.35 0.53 11.11
4/4/2021 1:00:00 PM 9.46 49.028 0.171 7.36 0.91 11.14
4/4/2021 1:15:00 PM 9.62 49.316 0.171 7.37 0.9 11.18
4/4/2021 1:30:00 PM 9.79 49.622 0.171 7.38 0.66 11.21
4/4/2021 1:45:00 PM 9.92 49.856 0.17 7.4 0.32 11.25
4/4/2021 2:00:00 PM 10.1 50.18 0.17 7.41 0.93 11.28
4/4/2021 2:15:00 PM 10.25 50.45 0.17 7.41 0.75 11.33
4/4/2021 2:30:00 PM 10.39 50.702 0.17 7.42 0.69 11.34
4/4/2021 2:45:00 PM 10.54 50.972 0.17 7.43 0.87 11.38
4/4/2021 3:00:00 PM 10.58 51.044 0.17 7.45 0.99 11.39
4/4/2021 3:15:00 PM 10.68 51.224 0.17 7.46 0.68 11.41
4/4/2021 3:30:00 PM 10.79 51.422 0.171 7.47 0.92 11.42
4/4/2021 3:45:00 PM 10.88 51.584 0.17 7.49 1.14 11.44
4/4/2021 4:00:00 PM 10.95 51.71 0.17 7.49 0.71 11.43
4/4/2021 4:15:00 PM 10.99 51.782 0.17 7.5 0.67 11.45
4/4/2021 4:30:00 PM 11.1 51.98 0.17 7.51 0.8 11.46
4/4/2021 4:45:00 PM 11.1 51.98 0.17 7.52 0.62 11.47
4/4/2021 5:00:00 PM 11.19 52.142 0.17 7.53 0.92 11.46
4/4/2021 5:15:00 PM 11.25 52.25 0.171 7.53 0.89 11.47
4/4/2021 5:30:00 PM 11.28 52.304 0.171 7.55 0.93 11.45
4/4/2021 5:45:00 PM 11.21 52.178 0.17 7.55 1.84 11.41
4/4/2021 6:00:00 PM 11.14 52.052 0.17 7.55 0.97 11.39
4/4/2021 6:15:00 PM 11.12 52.016 0.17 7.56 2.76 11.34
4/4/2021 6:30:00 PM 11.09 51.962 0.17 7.56 0.89 11.3
4/4/2021 6:45:00 PM 11.12 52.016 0.17 7.56 0.95 11.26
4/4/2021 7:00:00 PM 11.06 51.908 0.17 7.55 1.11 11.23
4/4/2021 7:15:00 PM 11.05 51.89 0.17 7.55 1.24 11.2
4/4/2021 7:30:00 PM 11.07 51.926 0.17 7.55 1.16 11.14
4/4/2021 7:45:00 PM 11.1 51.98 0.17 7.55 1.15 11.09
4/4/2021 8:00:00 PM 11.06 51.908 0.17 7.54 1.24 11.07
4/4/2021 8:15:00 PM 11.1 51.98 0.17 7.53 2.08 11.01
4/4/2021 8:30:00 PM 11.11 51.998 0.17 7.53 1.96 10.95
4/4/2021 8:45:00 PM 11.1 51.98 0.17 7.53 2.15 10.94
4/4/2021 9:00:00 PM 11.09 51.962 0.171 7.53 2.09 10.9
4/4/2021 9:15:00 PM 11.09 51.962 0.171 7.52 2.38 10.87
4/4/2021 9:30:00 PM 11.07 51.926 0.171 7.51 2.15 10.82
4/4/2021 9:45:00 PM 11.09 51.962 0.172 7.51 2.37 10.76
4/4/2021 10:00:00 PM 11.06 51.908 0.171 7.5 2.63 10.73
4/4/2021 10:15:00 PM 11.06 51.908 0.172 7.51 3 10.69
4/4/2021 10:30:00 PM 11.02 51.836 0.171 7.5 2.16 10.7
4/4/2021 10:45:00 PM 11.03 51.854 0.172 7.49 2.83 10.63
4/4/2021 11:00:00 PM 11.03 51.854 0.172 7.48 2.94 10.56
4/4/2021 11:15:00 PM 10.99 51.782 0.171 7.48 2.86 10.57
4/4/2021 11:30:00 PM 10.99 51.782 0.172 7.48 2.82 10.5
4/4/2021 11:45:00 PM 10.98 51.764 0.173 7.47 2.98 10.44
4/5/2021 12:00:00 AM 10.96 51.728 0.173 7.46 3.04 10.41
4/5/2021 12:15:00 AM 10.93 51.674 0.172 7.46 2.64 10.39
4/5/2021 12:30:00 AM 10.93 51.674 0.172 7.45 2.63 10.3
4/5/2021 12:45:00 AM 10.92 51.656 0.175 7.44 3.3 10.25
4/5/2021 1:00:00 AM 10.88 51.584 0.173 7.44 2.87 10.26
4/5/2021 1:15:00 AM 10.85 51.53 0.173 7.43 2.58 10.22
4/5/2021 1:30:00 AM 10.81 51.458 0.172 7.43 2.04 10.2
4/5/2021 1:45:00 AM 10.79